<?xml version="1.0" encoding="UTF-8" standalone="no" ?>
<gpx xmlns="http://www.topografix.com/GPX/1/1" xmlns:xsi="http://www.w3.org/2001/XMLSchema-instance" xsi:schemaLocation="http://www.topografix.com/GPX/1/1 http://www.topografix.com/GPX/1/1/gpx.xsd" version="1.1" creator="VisuGPX - https://www.visugpx.com">
  <metadata>
    <name>Lac de Chalain</name>
    <desc><![CDATA[tour du lac]]></desc>
  </metadata>
  <trk>
    <name><![CDATA[22-JUIL-13 14:06:40]]></name>
    <trkseg>
      <trkpt lat="46.62254" lon="5.74665">
        <ele>508.19</ele>
        <time>2013-07-22T08:22:36Z</time>
      </trkpt>
      <trkpt lat="46.62254" lon="5.74665">
        <ele>509.64</ele>
        <time>2013-07-22T08:22:37Z</time>
      </trkpt>
      <trkpt lat="46.62254" lon="5.74665">
        <ele>508.19</ele>
        <time>2013-07-22T08:22:38Z</time>
      </trkpt>
      <trkpt lat="46.62254" lon="5.74666">
        <ele>537.51</ele>
        <time>2013-07-22T08:22:43Z</time>
      </trkpt>
      <trkpt lat="46.62254" lon="5.74666">
        <ele>537.51</ele>
        <time>2013-07-22T08:22:44Z</time>
      </trkpt>
      <trkpt lat="46.62255" lon="5.74666">
        <ele>533.19</ele>
        <time>2013-07-22T08:22:48Z</time>
      </trkpt>
      <trkpt lat="46.62255" lon="5.74666">
        <ele>533.67</ele>
        <time>2013-07-22T08:22:49Z</time>
      </trkpt>
      <trkpt lat="46.62253" lon="5.74665">
        <ele>532.71</ele>
        <time>2013-07-22T08:23:17Z</time>
      </trkpt>
      <trkpt lat="46.62271" lon="5.74684">
        <ele>532.71</ele>
        <time>2013-07-22T08:23:29Z</time>
      </trkpt>
      <trkpt lat="46.62272" lon="5.74688">
        <ele>532.71</ele>
        <time>2013-07-22T08:23:30Z</time>
      </trkpt>
      <trkpt lat="46.62268" lon="5.74783">
        <ele>534.15</ele>
        <time>2013-07-22T08:23:48Z</time>
      </trkpt>
      <trkpt lat="46.62272" lon="5.74798">
        <ele>534.15</ele>
        <time>2013-07-22T08:23:51Z</time>
      </trkpt>
      <trkpt lat="46.62294" lon="5.74818">
        <ele>534.15</ele>
        <time>2013-07-22T08:23:57Z</time>
      </trkpt>
      <trkpt lat="46.62302" lon="5.74822">
        <ele>534.15</ele>
        <time>2013-07-22T08:23:59Z</time>
      </trkpt>
      <trkpt lat="46.62369" lon="5.74817">
        <ele>533.67</ele>
        <time>2013-07-22T08:24:13Z</time>
      </trkpt>
      <trkpt lat="46.6239" lon="5.74821">
        <ele>533.67</ele>
        <time>2013-07-22T08:24:17Z</time>
      </trkpt>
      <trkpt lat="46.62452" lon="5.74858">
        <ele>533.19</ele>
        <time>2013-07-22T08:24:30Z</time>
      </trkpt>
      <trkpt lat="46.62461" lon="5.74864">
        <ele>533.19</ele>
        <time>2013-07-22T08:24:32Z</time>
      </trkpt>
      <trkpt lat="46.6249" lon="5.74884">
        <ele>533.19</ele>
        <time>2013-07-22T08:24:38Z</time>
      </trkpt>
      <trkpt lat="46.62512" lon="5.7489">
        <ele>532.23</ele>
        <time>2013-07-22T08:24:42Z</time>
      </trkpt>
      <trkpt lat="46.62543" lon="5.74887">
        <ele>531.27</ele>
        <time>2013-07-22T08:24:47Z</time>
      </trkpt>
      <trkpt lat="46.62562" lon="5.7488">
        <ele>530.3</ele>
        <time>2013-07-22T08:24:50Z</time>
      </trkpt>
      <trkpt lat="46.62597" lon="5.74913">
        <ele>528.86</ele>
        <time>2013-07-22T08:24:57Z</time>
      </trkpt>
      <trkpt lat="46.62639" lon="5.75032">
        <ele>527.9</ele>
        <time>2013-07-22T08:25:11Z</time>
      </trkpt>
      <trkpt lat="46.62656" lon="5.75065">
        <ele>530.79</ele>
        <time>2013-07-22T08:25:19Z</time>
      </trkpt>
      <trkpt lat="46.62658" lon="5.75078">
        <ele>532.23</ele>
        <time>2013-07-22T08:25:23Z</time>
      </trkpt>
      <trkpt lat="46.62661" lon="5.75085">
        <ele>533.19</ele>
        <time>2013-07-22T08:25:25Z</time>
      </trkpt>
      <trkpt lat="46.62671" lon="5.75114">
        <ele>534.63</ele>
        <time>2013-07-22T08:25:32Z</time>
      </trkpt>
      <trkpt lat="46.62698" lon="5.75113">
        <ele>534.63</ele>
        <time>2013-07-22T08:25:39Z</time>
      </trkpt>
      <trkpt lat="46.62776" lon="5.75036">
        <ele>534.63</ele>
        <time>2013-07-22T08:25:56Z</time>
      </trkpt>
      <trkpt lat="46.62867" lon="5.74984">
        <ele>533.19</ele>
        <time>2013-07-22T08:26:12Z</time>
      </trkpt>
      <trkpt lat="46.62968" lon="5.74962">
        <ele>531.27</ele>
        <time>2013-07-22T08:26:27Z</time>
      </trkpt>
      <trkpt lat="46.63016" lon="5.74943">
        <ele>529.34</ele>
        <time>2013-07-22T08:26:33Z</time>
      </trkpt>
      <trkpt lat="46.63123" lon="5.74889">
        <ele>525.98</ele>
        <time>2013-07-22T08:26:47Z</time>
      </trkpt>
      <trkpt lat="46.63229" lon="5.74857">
        <ele>523.09</ele>
        <time>2013-07-22T08:27:00Z</time>
      </trkpt>
      <trkpt lat="46.63344" lon="5.74833">
        <ele>520.21</ele>
        <time>2013-07-22T08:27:14Z</time>
      </trkpt>
      <trkpt lat="46.6336" lon="5.74834">
        <ele>519.73</ele>
        <time>2013-07-22T08:27:16Z</time>
      </trkpt>
      <trkpt lat="46.63419" lon="5.74897">
        <ele>517.33</ele>
        <time>2013-07-22T08:27:24Z</time>
      </trkpt>
      <trkpt lat="46.63428" lon="5.74931">
        <ele>517.33</ele>
        <time>2013-07-22T08:27:27Z</time>
      </trkpt>
      <trkpt lat="46.63448" lon="5.75118">
        <ele>516.37</ele>
        <time>2013-07-22T08:27:45Z</time>
      </trkpt>
      <trkpt lat="46.63458" lon="5.75176">
        <ele>515.88</ele>
        <time>2013-07-22T08:27:51Z</time>
      </trkpt>
      <trkpt lat="46.63474" lon="5.75206">
        <ele>515.4</ele>
        <time>2013-07-22T08:27:55Z</time>
      </trkpt>
      <trkpt lat="46.63537" lon="5.75276">
        <ele>516.37</ele>
        <time>2013-07-22T08:28:08Z</time>
      </trkpt>
      <trkpt lat="46.63546" lon="5.75287">
        <ele>516.37</ele>
        <time>2013-07-22T08:28:10Z</time>
      </trkpt>
      <trkpt lat="46.63603" lon="5.75291">
        <ele>517.33</ele>
        <time>2013-07-22T08:28:20Z</time>
      </trkpt>
      <trkpt lat="46.63613" lon="5.75283">
        <ele>517.33</ele>
        <time>2013-07-22T08:28:22Z</time>
      </trkpt>
      <trkpt lat="46.63698" lon="5.75208">
        <ele>517.81</ele>
        <time>2013-07-22T08:28:39Z</time>
      </trkpt>
      <trkpt lat="46.63717" lon="5.75192">
        <ele>518.29</ele>
        <time>2013-07-22T08:28:43Z</time>
      </trkpt>
      <trkpt lat="46.63755" lon="5.75172">
        <ele>518.77</ele>
        <time>2013-07-22T08:28:51Z</time>
      </trkpt>
      <trkpt lat="46.63775" lon="5.75167">
        <ele>518.77</ele>
        <time>2013-07-22T08:28:55Z</time>
      </trkpt>
      <trkpt lat="46.63795" lon="5.75164">
        <ele>519.73</ele>
        <time>2013-07-22T08:28:59Z</time>
      </trkpt>
      <trkpt lat="46.63814" lon="5.75159">
        <ele>519.73</ele>
        <time>2013-07-22T08:29:03Z</time>
      </trkpt>
      <trkpt lat="46.63844" lon="5.75159">
        <ele>520.21</ele>
        <time>2013-07-22T08:29:09Z</time>
      </trkpt>
      <trkpt lat="46.63914" lon="5.75182">
        <ele>520.69</ele>
        <time>2013-07-22T08:29:24Z</time>
      </trkpt>
      <trkpt lat="46.63918" lon="5.75183">
        <ele>521.17</ele>
        <time>2013-07-22T08:29:25Z</time>
      </trkpt>
      <trkpt lat="46.64001" lon="5.75213">
        <ele>522.13</ele>
        <time>2013-07-22T08:29:43Z</time>
      </trkpt>
      <trkpt lat="46.64058" lon="5.75255">
        <ele>524.06</ele>
        <time>2013-07-22T08:29:56Z</time>
      </trkpt>
      <trkpt lat="46.64109" lon="5.75301">
        <ele>525.02</ele>
        <time>2013-07-22T08:30:09Z</time>
      </trkpt>
      <trkpt lat="46.64146" lon="5.7533">
        <ele>525.5</ele>
        <time>2013-07-22T08:30:17Z</time>
      </trkpt>
      <trkpt lat="46.6417" lon="5.75349">
        <ele>525.98</ele>
        <time>2013-07-22T08:30:22Z</time>
      </trkpt>
      <trkpt lat="46.64248" lon="5.75404">
        <ele>526.94</ele>
        <time>2013-07-22T08:30:39Z</time>
      </trkpt>
      <trkpt lat="46.6427" lon="5.75419">
        <ele>528.38</ele>
        <time>2013-07-22T08:30:44Z</time>
      </trkpt>
      <trkpt lat="46.64294" lon="5.75435">
        <ele>530.79</ele>
        <time>2013-07-22T08:30:49Z</time>
      </trkpt>
      <trkpt lat="46.64327" lon="5.75464">
        <ele>528.38</ele>
        <time>2013-07-22T08:30:56Z</time>
      </trkpt>
      <trkpt lat="46.64381" lon="5.75527">
        <ele>529.34</ele>
        <time>2013-07-22T08:31:10Z</time>
      </trkpt>
      <trkpt lat="46.64446" lon="5.75601">
        <ele>531.27</ele>
        <time>2013-07-22T08:31:25Z</time>
      </trkpt>
      <trkpt lat="46.64489" lon="5.75627">
        <ele>531.75</ele>
        <time>2013-07-22T08:31:34Z</time>
      </trkpt>
      <trkpt lat="46.64521" lon="5.75642">
        <ele>532.23</ele>
        <time>2013-07-22T08:31:40Z</time>
      </trkpt>
      <trkpt lat="46.64543" lon="5.75653">
        <ele>532.23</ele>
        <time>2013-07-22T08:31:44Z</time>
      </trkpt>
      <trkpt lat="46.64556" lon="5.75666">
        <ele>532.71</ele>
        <time>2013-07-22T08:31:47Z</time>
      </trkpt>
      <trkpt lat="46.6457" lon="5.75686">
        <ele>532.71</ele>
        <time>2013-07-22T08:31:51Z</time>
      </trkpt>
      <trkpt lat="46.64581" lon="5.75718">
        <ele>533.67</ele>
        <time>2013-07-22T08:31:56Z</time>
      </trkpt>
      <trkpt lat="46.64629" lon="5.75809">
        <ele>534.63</ele>
        <time>2013-07-22T08:32:12Z</time>
      </trkpt>
      <trkpt lat="46.64646" lon="5.75835">
        <ele>535.11</ele>
        <time>2013-07-22T08:32:17Z</time>
      </trkpt>
      <trkpt lat="46.64708" lon="5.75932">
        <ele>535.59</ele>
        <time>2013-07-22T08:32:36Z</time>
      </trkpt>
      <trkpt lat="46.64755" lon="5.76031">
        <ele>535.59</ele>
        <time>2013-07-22T08:32:52Z</time>
      </trkpt>
      <trkpt lat="46.64773" lon="5.76089">
        <ele>536.55</ele>
        <time>2013-07-22T08:33:01Z</time>
      </trkpt>
      <trkpt lat="46.64776" lon="5.76114">
        <ele>536.55</ele>
        <time>2013-07-22T08:33:05Z</time>
      </trkpt>
      <trkpt lat="46.64776" lon="5.76127">
        <ele>536.55</ele>
        <time>2013-07-22T08:33:07Z</time>
      </trkpt>
      <trkpt lat="46.64775" lon="5.7614">
        <ele>536.55</ele>
        <time>2013-07-22T08:33:09Z</time>
      </trkpt>
      <trkpt lat="46.64755" lon="5.76239">
        <ele>537.99</ele>
        <time>2013-07-22T08:33:25Z</time>
      </trkpt>
      <trkpt lat="46.64728" lon="5.76375">
        <ele>538.96</ele>
        <time>2013-07-22T08:33:48Z</time>
      </trkpt>
      <trkpt lat="46.64718" lon="5.76449">
        <ele>541.36</ele>
        <time>2013-07-22T08:34:00Z</time>
      </trkpt>
      <trkpt lat="46.64725" lon="5.76571">
        <ele>543.76</ele>
        <time>2013-07-22T08:34:20Z</time>
      </trkpt>
      <trkpt lat="46.64759" lon="5.76696">
        <ele>544.24</ele>
        <time>2013-07-22T08:34:40Z</time>
      </trkpt>
      <trkpt lat="46.64784" lon="5.76774">
        <ele>545.2</ele>
        <time>2013-07-22T08:34:52Z</time>
      </trkpt>
      <trkpt lat="46.64793" lon="5.76888">
        <ele>543.76</ele>
        <time>2013-07-22T08:35:07Z</time>
      </trkpt>
      <trkpt lat="46.64796" lon="5.76906">
        <ele>542.8</ele>
        <time>2013-07-22T08:35:09Z</time>
      </trkpt>
      <trkpt lat="46.64832" lon="5.76976">
        <ele>540.4</ele>
        <time>2013-07-22T08:35:17Z</time>
      </trkpt>
      <trkpt lat="46.64874" lon="5.77035">
        <ele>537.99</ele>
        <time>2013-07-22T08:35:24Z</time>
      </trkpt>
      <trkpt lat="46.64883" lon="5.77109">
        <ele>535.11</ele>
        <time>2013-07-22T08:35:30Z</time>
      </trkpt>
      <trkpt lat="46.64875" lon="5.77133">
        <ele>534.15</ele>
        <time>2013-07-22T08:35:32Z</time>
      </trkpt>
      <trkpt lat="46.64848" lon="5.77203">
        <ele>531.75</ele>
        <time>2013-07-22T08:35:38Z</time>
      </trkpt>
      <trkpt lat="46.6483" lon="5.77252">
        <ele>529.82</ele>
        <time>2013-07-22T08:35:42Z</time>
      </trkpt>
      <trkpt lat="46.64796" lon="5.77349">
        <ele>525.98</ele>
        <time>2013-07-22T08:35:50Z</time>
      </trkpt>
      <trkpt lat="46.64792" lon="5.77361">
        <ele>525.5</ele>
        <time>2013-07-22T08:35:51Z</time>
      </trkpt>
      <trkpt lat="46.64756" lon="5.77458">
        <ele>522.61</ele>
        <time>2013-07-22T08:35:59Z</time>
      </trkpt>
      <trkpt lat="46.64767" lon="5.77533">
        <ele>519.73</ele>
        <time>2013-07-22T08:36:05Z</time>
      </trkpt>
      <trkpt lat="46.64785" lon="5.77543">
        <ele>518.77</ele>
        <time>2013-07-22T08:36:07Z</time>
      </trkpt>
      <trkpt lat="46.64803" lon="5.77542">
        <ele>518.77</ele>
        <time>2013-07-22T08:36:09Z</time>
      </trkpt>
      <trkpt lat="46.64893" lon="5.77518">
        <ele>519.73</ele>
        <time>2013-07-22T08:36:22Z</time>
      </trkpt>
      <trkpt lat="46.64955" lon="5.77502">
        <ele>522.61</ele>
        <time>2013-07-22T08:36:37Z</time>
      </trkpt>
      <trkpt lat="46.65033" lon="5.77483">
        <ele>525.02</ele>
        <time>2013-07-22T08:36:57Z</time>
      </trkpt>
      <trkpt lat="46.65089" lon="5.77487">
        <ele>526.94</ele>
        <time>2013-07-22T08:37:12Z</time>
      </trkpt>
      <trkpt lat="46.65147" lon="5.77505">
        <ele>528.38</ele>
        <time>2013-07-22T08:37:27Z</time>
      </trkpt>
      <trkpt lat="46.65171" lon="5.77512">
        <ele>528.86</ele>
        <time>2013-07-22T08:37:33Z</time>
      </trkpt>
      <trkpt lat="46.65237" lon="5.77571">
        <ele>528.86</ele>
        <time>2013-07-22T08:37:50Z</time>
      </trkpt>
      <trkpt lat="46.65297" lon="5.77638">
        <ele>529.34</ele>
        <time>2013-07-22T08:38:07Z</time>
      </trkpt>
      <trkpt lat="46.65347" lon="5.77713">
        <ele>530.79</ele>
        <time>2013-07-22T08:38:25Z</time>
      </trkpt>
      <trkpt lat="46.65366" lon="5.77764">
        <ele>530.79</ele>
        <time>2013-07-22T08:38:35Z</time>
      </trkpt>
      <trkpt lat="46.65378" lon="5.77813">
        <ele>530.79</ele>
        <time>2013-07-22T08:38:43Z</time>
      </trkpt>
      <trkpt lat="46.65383" lon="5.7787">
        <ele>529.82</ele>
        <time>2013-07-22T08:38:52Z</time>
      </trkpt>
      <trkpt lat="46.6539" lon="5.77897">
        <ele>529.82</ele>
        <time>2013-07-22T08:38:58Z</time>
      </trkpt>
      <trkpt lat="46.6543" lon="5.77888">
        <ele>529.34</ele>
        <time>2013-07-22T08:39:08Z</time>
      </trkpt>
      <trkpt lat="46.6545" lon="5.77881">
        <ele>530.3</ele>
        <time>2013-07-22T08:39:14Z</time>
      </trkpt>
      <trkpt lat="46.65476" lon="5.77854">
        <ele>529.82</ele>
        <time>2013-07-22T08:39:24Z</time>
      </trkpt>
      <trkpt lat="46.65507" lon="5.77878">
        <ele>531.27</ele>
        <time>2013-07-22T08:39:36Z</time>
      </trkpt>
      <trkpt lat="46.65503" lon="5.77878">
        <ele>531.27</ele>
        <time>2013-07-22T08:39:45Z</time>
      </trkpt>
      <trkpt lat="46.65502" lon="5.77884">
        <ele>530.79</ele>
        <time>2013-07-22T08:39:54Z</time>
      </trkpt>
      <trkpt lat="46.65502" lon="5.77885">
        <ele>530.79</ele>
        <time>2013-07-22T08:40:24Z</time>
      </trkpt>
      <trkpt lat="46.65501" lon="5.77885">
        <ele>530.79</ele>
        <time>2013-07-22T08:40:27Z</time>
      </trkpt>
      <trkpt lat="46.65501" lon="5.77895">
        <ele>531.27</ele>
        <time>2013-07-22T08:40:30Z</time>
      </trkpt>
      <trkpt lat="46.65523" lon="5.77922">
        <ele>533.19</ele>
        <time>2013-07-22T08:40:42Z</time>
      </trkpt>
      <trkpt lat="46.65525" lon="5.77924">
        <ele>533.67</ele>
        <time>2013-07-22T08:40:44Z</time>
      </trkpt>
      <trkpt lat="46.65527" lon="5.77924">
        <ele>533.19</ele>
        <time>2013-07-22T08:40:46Z</time>
      </trkpt>
      <trkpt lat="46.65514" lon="5.77912">
        <ele>532.71</ele>
        <time>2013-07-22T08:40:54Z</time>
      </trkpt>
      <trkpt lat="46.65502" lon="5.779">
        <ele>532.71</ele>
        <time>2013-07-22T08:40:59Z</time>
      </trkpt>
      <trkpt lat="46.655" lon="5.77887">
        <ele>531.27</ele>
        <time>2013-07-22T08:41:08Z</time>
      </trkpt>
      <trkpt lat="46.655" lon="5.77889">
        <ele>530.79</ele>
        <time>2013-07-22T08:41:09Z</time>
      </trkpt>
      <trkpt lat="46.65499" lon="5.77898">
        <ele>531.75</ele>
        <time>2013-07-22T08:41:13Z</time>
      </trkpt>
      <trkpt lat="46.65495" lon="5.7792">
        <ele>535.11</ele>
        <time>2013-07-22T08:41:26Z</time>
      </trkpt>
      <trkpt lat="46.65492" lon="5.77932">
        <ele>537.99</ele>
        <time>2013-07-22T08:41:34Z</time>
      </trkpt>
      <trkpt lat="46.65494" lon="5.7794">
        <ele>540.4</ele>
        <time>2013-07-22T08:41:45Z</time>
      </trkpt>
      <trkpt lat="46.65498" lon="5.77948">
        <ele>542.32</ele>
        <time>2013-07-22T08:41:55Z</time>
      </trkpt>
      <trkpt lat="46.65506" lon="5.77956">
        <ele>543.76</ele>
        <time>2013-07-22T08:42:07Z</time>
      </trkpt>
      <trkpt lat="46.65514" lon="5.77967">
        <ele>545.69</ele>
        <time>2013-07-22T08:42:19Z</time>
      </trkpt>
      <trkpt lat="46.6552" lon="5.77971">
        <ele>545.69</ele>
        <time>2013-07-22T08:42:25Z</time>
      </trkpt>
      <trkpt lat="46.65551" lon="5.77988">
        <ele>545.2</ele>
        <time>2013-07-22T08:42:37Z</time>
      </trkpt>
      <trkpt lat="46.65568" lon="5.7799">
        <ele>542.8</ele>
        <time>2013-07-22T08:42:41Z</time>
      </trkpt>
      <trkpt lat="46.65622" lon="5.78021">
        <ele>543.28</ele>
        <time>2013-07-22T08:42:53Z</time>
      </trkpt>
      <trkpt lat="46.65663" lon="5.78071">
        <ele>545.2</ele>
        <time>2013-07-22T08:43:05Z</time>
      </trkpt>
      <trkpt lat="46.65692" lon="5.78091">
        <ele>545.69</ele>
        <time>2013-07-22T08:43:16Z</time>
      </trkpt>
      <trkpt lat="46.65733" lon="5.78126">
        <ele>547.61</ele>
        <time>2013-07-22T08:43:30Z</time>
      </trkpt>
      <trkpt lat="46.65763" lon="5.78148">
        <ele>549.05</ele>
        <time>2013-07-22T08:43:42Z</time>
      </trkpt>
      <trkpt lat="46.65792" lon="5.78173">
        <ele>549.05</ele>
        <time>2013-07-22T08:43:53Z</time>
      </trkpt>
      <trkpt lat="46.65795" lon="5.78175">
        <ele>549.05</ele>
        <time>2013-07-22T08:43:54Z</time>
      </trkpt>
      <trkpt lat="46.65818" lon="5.78219">
        <ele>549.05</ele>
        <time>2013-07-22T08:43:59Z</time>
      </trkpt>
      <trkpt lat="46.65833" lon="5.78237">
        <ele>548.57</ele>
        <time>2013-07-22T08:44:03Z</time>
      </trkpt>
      <trkpt lat="46.65844" lon="5.78248">
        <ele>548.09</ele>
        <time>2013-07-22T08:44:06Z</time>
      </trkpt>
      <trkpt lat="46.65852" lon="5.78253">
        <ele>548.09</ele>
        <time>2013-07-22T08:44:08Z</time>
      </trkpt>
      <trkpt lat="46.65861" lon="5.7826">
        <ele>546.65</ele>
        <time>2013-07-22T08:44:10Z</time>
      </trkpt>
      <trkpt lat="46.65864" lon="5.78263">
        <ele>547.13</ele>
        <time>2013-07-22T08:44:11Z</time>
      </trkpt>
      <trkpt lat="46.65857" lon="5.78257">
        <ele>546.17</ele>
        <time>2013-07-22T08:44:20Z</time>
      </trkpt>
      <trkpt lat="46.65855" lon="5.78256">
        <ele>546.17</ele>
        <time>2013-07-22T08:44:21Z</time>
      </trkpt>
      <trkpt lat="46.6584" lon="5.78243">
        <ele>548.57</ele>
        <time>2013-07-22T08:44:29Z</time>
      </trkpt>
      <trkpt lat="46.65839" lon="5.78239">
        <ele>547.61</ele>
        <time>2013-07-22T08:44:31Z</time>
      </trkpt>
      <trkpt lat="46.65836" lon="5.7824">
        <ele>548.09</ele>
        <time>2013-07-22T08:44:34Z</time>
      </trkpt>
      <trkpt lat="46.65843" lon="5.78247">
        <ele>547.13</ele>
        <time>2013-07-22T08:44:38Z</time>
      </trkpt>
      <trkpt lat="46.65858" lon="5.78258">
        <ele>547.13</ele>
        <time>2013-07-22T08:44:42Z</time>
      </trkpt>
      <trkpt lat="46.65867" lon="5.78286">
        <ele>549.05</ele>
        <time>2013-07-22T08:44:49Z</time>
      </trkpt>
      <trkpt lat="46.65872" lon="5.78313">
        <ele>551.93</ele>
        <time>2013-07-22T08:44:58Z</time>
      </trkpt>
      <trkpt lat="46.65872" lon="5.78341">
        <ele>554.82</ele>
        <time>2013-07-22T08:45:10Z</time>
      </trkpt>
      <trkpt lat="46.65872" lon="5.78361">
        <ele>556.74</ele>
        <time>2013-07-22T08:45:19Z</time>
      </trkpt>
      <trkpt lat="46.6587" lon="5.78382">
        <ele>558.66</ele>
        <time>2013-07-22T08:45:28Z</time>
      </trkpt>
      <trkpt lat="46.6587" lon="5.78386">
        <ele>558.66</ele>
        <time>2013-07-22T08:45:30Z</time>
      </trkpt>
      <trkpt lat="46.65868" lon="5.78409">
        <ele>560.59</ele>
        <time>2013-07-22T08:45:42Z</time>
      </trkpt>
      <trkpt lat="46.65867" lon="5.78414">
        <ele>560.59</ele>
        <time>2013-07-22T08:45:44Z</time>
      </trkpt>
      <trkpt lat="46.65867" lon="5.78418">
        <ele>560.59</ele>
        <time>2013-07-22T08:45:46Z</time>
      </trkpt>
      <trkpt lat="46.65867" lon="5.78426">
        <ele>562.03</ele>
        <time>2013-07-22T08:45:49Z</time>
      </trkpt>
      <trkpt lat="46.6587" lon="5.78447">
        <ele>562.99</ele>
        <time>2013-07-22T08:45:59Z</time>
      </trkpt>
      <trkpt lat="46.65872" lon="5.78486">
        <ele>565.39</ele>
        <time>2013-07-22T08:46:13Z</time>
      </trkpt>
      <trkpt lat="46.65874" lon="5.78495">
        <ele>566.35</ele>
        <time>2013-07-22T08:46:18Z</time>
      </trkpt>
      <trkpt lat="46.65876" lon="5.78501">
        <ele>566.83</ele>
        <time>2013-07-22T08:46:21Z</time>
      </trkpt>
      <trkpt lat="46.65883" lon="5.78527">
        <ele>568.76</ele>
        <time>2013-07-22T08:46:34Z</time>
      </trkpt>
      <trkpt lat="46.65887" lon="5.78554">
        <ele>569.72</ele>
        <time>2013-07-22T08:46:46Z</time>
      </trkpt>
      <trkpt lat="46.65886" lon="5.78558">
        <ele>570.2</ele>
        <time>2013-07-22T08:46:48Z</time>
      </trkpt>
      <trkpt lat="46.65887" lon="5.78568">
        <ele>570.68</ele>
        <time>2013-07-22T08:46:51Z</time>
      </trkpt>
      <trkpt lat="46.65885" lon="5.78578">
        <ele>570.68</ele>
        <time>2013-07-22T08:46:56Z</time>
      </trkpt>
      <trkpt lat="46.65884" lon="5.78591">
        <ele>571.16</ele>
        <time>2013-07-22T08:47:01Z</time>
      </trkpt>
      <trkpt lat="46.65883" lon="5.786">
        <ele>571.64</ele>
        <time>2013-07-22T08:47:05Z</time>
      </trkpt>
      <trkpt lat="46.6588" lon="5.78606">
        <ele>572.12</ele>
        <time>2013-07-22T08:47:09Z</time>
      </trkpt>
      <trkpt lat="46.65876" lon="5.78631">
        <ele>573.56</ele>
        <time>2013-07-22T08:47:21Z</time>
      </trkpt>
      <trkpt lat="46.65879" lon="5.78623">
        <ele>572.6</ele>
        <time>2013-07-22T08:47:40Z</time>
      </trkpt>
      <trkpt lat="46.65884" lon="5.78627">
        <ele>571.64</ele>
        <time>2013-07-22T08:47:47Z</time>
      </trkpt>
      <trkpt lat="46.65889" lon="5.78681">
        <ele>570.68</ele>
        <time>2013-07-22T08:47:59Z</time>
      </trkpt>
      <trkpt lat="46.65893" lon="5.78738">
        <ele>570.68</ele>
        <time>2013-07-22T08:48:08Z</time>
      </trkpt>
      <trkpt lat="46.65898" lon="5.78769">
        <ele>570.2</ele>
        <time>2013-07-22T08:48:13Z</time>
      </trkpt>
      <trkpt lat="46.65914" lon="5.78845">
        <ele>569.72</ele>
        <time>2013-07-22T08:48:26Z</time>
      </trkpt>
      <trkpt lat="46.65941" lon="5.78869">
        <ele>570.68</ele>
        <time>2013-07-22T08:48:35Z</time>
      </trkpt>
      <trkpt lat="46.65962" lon="5.7888">
        <ele>572.6</ele>
        <time>2013-07-22T08:48:45Z</time>
      </trkpt>
      <trkpt lat="46.65973" lon="5.78898">
        <ele>573.56</ele>
        <time>2013-07-22T08:48:50Z</time>
      </trkpt>
      <trkpt lat="46.65983" lon="5.78918">
        <ele>575.49</ele>
        <time>2013-07-22T08:48:58Z</time>
      </trkpt>
      <trkpt lat="46.6599" lon="5.78937">
        <ele>576.45</ele>
        <time>2013-07-22T08:49:05Z</time>
      </trkpt>
      <trkpt lat="46.66006" lon="5.7896">
        <ele>576.93</ele>
        <time>2013-07-22T08:49:14Z</time>
      </trkpt>
      <trkpt lat="46.66039" lon="5.78995">
        <ele>576.93</ele>
        <time>2013-07-22T08:49:25Z</time>
      </trkpt>
      <trkpt lat="46.66075" lon="5.79017">
        <ele>576.45</ele>
        <time>2013-07-22T08:49:36Z</time>
      </trkpt>
      <trkpt lat="46.66099" lon="5.79025">
        <ele>575.01</ele>
        <time>2013-07-22T08:49:42Z</time>
      </trkpt>
      <trkpt lat="46.6615" lon="5.79016">
        <ele>575.01</ele>
        <time>2013-07-22T08:49:53Z</time>
      </trkpt>
      <trkpt lat="46.66162" lon="5.79013">
        <ele>575.01</ele>
        <time>2013-07-22T08:49:55Z</time>
      </trkpt>
      <trkpt lat="46.66193" lon="5.79008">
        <ele>575.01</ele>
        <time>2013-07-22T08:50:01Z</time>
      </trkpt>
      <trkpt lat="46.66226" lon="5.79003">
        <ele>575.01</ele>
        <time>2013-07-22T08:50:10Z</time>
      </trkpt>
      <trkpt lat="46.66272" lon="5.78999">
        <ele>576.93</ele>
        <time>2013-07-22T08:50:24Z</time>
      </trkpt>
      <trkpt lat="46.66305" lon="5.78997">
        <ele>578.85</ele>
        <time>2013-07-22T08:50:37Z</time>
      </trkpt>
      <trkpt lat="46.66316" lon="5.79002">
        <ele>580.77</ele>
        <time>2013-07-22T08:50:44Z</time>
      </trkpt>
      <trkpt lat="46.66325" lon="5.79006">
        <ele>581.73</ele>
        <time>2013-07-22T08:50:51Z</time>
      </trkpt>
      <trkpt lat="46.66332" lon="5.79012">
        <ele>583.18</ele>
        <time>2013-07-22T08:50:55Z</time>
      </trkpt>
      <trkpt lat="46.66336" lon="5.79016">
        <ele>583.66</ele>
        <time>2013-07-22T08:50:57Z</time>
      </trkpt>
      <trkpt lat="46.66357" lon="5.79027">
        <ele>586.54</ele>
        <time>2013-07-22T08:51:10Z</time>
      </trkpt>
      <trkpt lat="46.66364" lon="5.79031">
        <ele>587.5</ele>
        <time>2013-07-22T08:51:15Z</time>
      </trkpt>
      <trkpt lat="46.66377" lon="5.79048">
        <ele>589.91</ele>
        <time>2013-07-22T08:51:28Z</time>
      </trkpt>
      <trkpt lat="46.66387" lon="5.79059">
        <ele>590.39</ele>
        <time>2013-07-22T08:51:37Z</time>
      </trkpt>
      <trkpt lat="46.66392" lon="5.79064">
        <ele>590.87</ele>
        <time>2013-07-22T08:51:50Z</time>
      </trkpt>
      <trkpt lat="46.6639" lon="5.79071">
        <ele>590.39</ele>
        <time>2013-07-22T08:52:04Z</time>
      </trkpt>
      <trkpt lat="46.66392" lon="5.79071">
        <ele>590.87</ele>
        <time>2013-07-22T08:52:14Z</time>
      </trkpt>
      <trkpt lat="46.66402" lon="5.79066">
        <ele>592.31</ele>
        <time>2013-07-22T08:52:26Z</time>
      </trkpt>
      <trkpt lat="46.66417" lon="5.79057">
        <ele>594.23</ele>
        <time>2013-07-22T08:52:37Z</time>
      </trkpt>
      <trkpt lat="46.66421" lon="5.79056">
        <ele>594.71</ele>
        <time>2013-07-22T08:52:40Z</time>
      </trkpt>
      <trkpt lat="46.66432" lon="5.79056">
        <ele>595.67</ele>
        <time>2013-07-22T08:52:52Z</time>
      </trkpt>
      <trkpt lat="46.66444" lon="5.79066">
        <ele>597.6</ele>
        <time>2013-07-22T08:53:03Z</time>
      </trkpt>
      <trkpt lat="46.66455" lon="5.79078">
        <ele>598.08</ele>
        <time>2013-07-22T08:53:16Z</time>
      </trkpt>
      <trkpt lat="46.66458" lon="5.79082">
        <ele>598.56</ele>
        <time>2013-07-22T08:53:36Z</time>
      </trkpt>
      <trkpt lat="46.66465" lon="5.79081">
        <ele>598.56</ele>
        <time>2013-07-22T08:54:15Z</time>
      </trkpt>
      <trkpt lat="46.66465" lon="5.79078">
        <ele>598.56</ele>
        <time>2013-07-22T08:54:49Z</time>
      </trkpt>
      <trkpt lat="46.6646" lon="5.79074">
        <ele>598.56</ele>
        <time>2013-07-22T08:55:05Z</time>
      </trkpt>
      <trkpt lat="46.66459" lon="5.79074">
        <ele>598.56</ele>
        <time>2013-07-22T08:55:06Z</time>
      </trkpt>
      <trkpt lat="46.66437" lon="5.79062">
        <ele>596.15</ele>
        <time>2013-07-22T08:55:16Z</time>
      </trkpt>
      <trkpt lat="46.66435" lon="5.79062">
        <ele>595.67</ele>
        <time>2013-07-22T08:55:17Z</time>
      </trkpt>
      <trkpt lat="46.6643" lon="5.79062">
        <ele>594.71</ele>
        <time>2013-07-22T08:55:19Z</time>
      </trkpt>
      <trkpt lat="46.66425" lon="5.79063">
        <ele>594.23</ele>
        <time>2013-07-22T08:55:21Z</time>
      </trkpt>
      <trkpt lat="46.66402" lon="5.79069">
        <ele>591.35</ele>
        <time>2013-07-22T08:55:28Z</time>
      </trkpt>
      <trkpt lat="46.664" lon="5.79069">
        <ele>590.87</ele>
        <time>2013-07-22T08:55:29Z</time>
      </trkpt>
      <trkpt lat="46.66396" lon="5.79077">
        <ele>591.35</ele>
        <time>2013-07-22T08:55:33Z</time>
      </trkpt>
      <trkpt lat="46.66395" lon="5.79079">
        <ele>591.35</ele>
        <time>2013-07-22T08:55:34Z</time>
      </trkpt>
      <trkpt lat="46.66391" lon="5.79088">
        <ele>591.83</ele>
        <time>2013-07-22T08:55:39Z</time>
      </trkpt>
      <trkpt lat="46.6639" lon="5.79092">
        <ele>592.31</ele>
        <time>2013-07-22T08:55:40Z</time>
      </trkpt>
      <trkpt lat="46.66391" lon="5.79097">
        <ele>592.31</ele>
        <time>2013-07-22T08:55:42Z</time>
      </trkpt>
      <trkpt lat="46.66391" lon="5.791">
        <ele>592.79</ele>
        <time>2013-07-22T08:55:43Z</time>
      </trkpt>
      <trkpt lat="46.66389" lon="5.79107">
        <ele>592.79</ele>
        <time>2013-07-22T08:55:45Z</time>
      </trkpt>
      <trkpt lat="46.66385" lon="5.79119">
        <ele>592.79</ele>
        <time>2013-07-22T08:55:50Z</time>
      </trkpt>
      <trkpt lat="46.66379" lon="5.7914">
        <ele>593.75</ele>
        <time>2013-07-22T08:55:58Z</time>
      </trkpt>
      <trkpt lat="46.66374" lon="5.79146">
        <ele>594.23</ele>
        <time>2013-07-22T08:56:01Z</time>
      </trkpt>
      <trkpt lat="46.66354" lon="5.79183">
        <ele>594.23</ele>
        <time>2013-07-22T08:56:13Z</time>
      </trkpt>
      <trkpt lat="46.66352" lon="5.79188">
        <ele>594.23</ele>
        <time>2013-07-22T08:56:14Z</time>
      </trkpt>
      <trkpt lat="46.66344" lon="5.79196">
        <ele>594.23</ele>
        <time>2013-07-22T08:56:18Z</time>
      </trkpt>
      <trkpt lat="46.66333" lon="5.7922">
        <ele>593.75</ele>
        <time>2013-07-22T08:56:27Z</time>
      </trkpt>
      <trkpt lat="46.66329" lon="5.79231">
        <ele>593.27</ele>
        <time>2013-07-22T08:56:38Z</time>
      </trkpt>
      <trkpt lat="46.66327" lon="5.7924">
        <ele>593.75</ele>
        <time>2013-07-22T08:56:53Z</time>
      </trkpt>
      <trkpt lat="46.66327" lon="5.79241">
        <ele>593.75</ele>
        <time>2013-07-22T08:57:07Z</time>
      </trkpt>
      <trkpt lat="46.66336" lon="5.79219">
        <ele>593.75</ele>
        <time>2013-07-22T08:57:20Z</time>
      </trkpt>
      <trkpt lat="46.66349" lon="5.79197">
        <ele>594.23</ele>
        <time>2013-07-22T08:57:31Z</time>
      </trkpt>
      <trkpt lat="46.6636" lon="5.79177">
        <ele>594.23</ele>
        <time>2013-07-22T08:57:40Z</time>
      </trkpt>
      <trkpt lat="46.66367" lon="5.79173">
        <ele>594.71</ele>
        <time>2013-07-22T08:57:46Z</time>
      </trkpt>
      <trkpt lat="46.66365" lon="5.79179">
        <ele>594.71</ele>
        <time>2013-07-22T08:57:51Z</time>
      </trkpt>
      <trkpt lat="46.66365" lon="5.79193">
        <ele>594.71</ele>
        <time>2013-07-22T08:57:57Z</time>
      </trkpt>
      <trkpt lat="46.66361" lon="5.79205">
        <ele>594.23</ele>
        <time>2013-07-22T08:58:02Z</time>
      </trkpt>
      <trkpt lat="46.6636" lon="5.79206">
        <ele>594.71</ele>
        <time>2013-07-22T08:58:03Z</time>
      </trkpt>
      <trkpt lat="46.66354" lon="5.79213">
        <ele>594.23</ele>
        <time>2013-07-22T08:58:07Z</time>
      </trkpt>
      <trkpt lat="46.66351" lon="5.79227">
        <ele>594.23</ele>
        <time>2013-07-22T08:58:12Z</time>
      </trkpt>
      <trkpt lat="46.6635" lon="5.7923">
        <ele>594.23</ele>
        <time>2013-07-22T08:58:13Z</time>
      </trkpt>
      <trkpt lat="46.6635" lon="5.79237">
        <ele>594.23</ele>
        <time>2013-07-22T08:58:15Z</time>
      </trkpt>
      <trkpt lat="46.66348" lon="5.79271">
        <ele>595.67</ele>
        <time>2013-07-22T08:58:25Z</time>
      </trkpt>
      <trkpt lat="46.66347" lon="5.79306">
        <ele>598.08</ele>
        <time>2013-07-22T08:58:39Z</time>
      </trkpt>
      <trkpt lat="46.66352" lon="5.79346">
        <ele>598.56</ele>
        <time>2013-07-22T08:58:47Z</time>
      </trkpt>
      <trkpt lat="46.66363" lon="5.79368">
        <ele>598.08</ele>
        <time>2013-07-22T08:58:57Z</time>
      </trkpt>
      <trkpt lat="46.66365" lon="5.79371">
        <ele>598.08</ele>
        <time>2013-07-22T08:58:59Z</time>
      </trkpt>
      <trkpt lat="46.66371" lon="5.79381">
        <ele>598.08</ele>
        <time>2013-07-22T08:59:04Z</time>
      </trkpt>
      <trkpt lat="46.66375" lon="5.79387">
        <ele>597.6</ele>
        <time>2013-07-22T08:59:08Z</time>
      </trkpt>
      <trkpt lat="46.6639" lon="5.79424">
        <ele>597.6</ele>
        <time>2013-07-22T08:59:23Z</time>
      </trkpt>
      <trkpt lat="46.66397" lon="5.79424">
        <ele>597.6</ele>
        <time>2013-07-22T08:59:33Z</time>
      </trkpt>
      <trkpt lat="46.66402" lon="5.79413">
        <ele>599.04</ele>
        <time>2013-07-22T08:59:46Z</time>
      </trkpt>
      <trkpt lat="46.66406" lon="5.79393">
        <ele>599.04</ele>
        <time>2013-07-22T09:00:01Z</time>
      </trkpt>
      <trkpt lat="46.66409" lon="5.79385">
        <ele>599.52</ele>
        <time>2013-07-22T09:00:06Z</time>
      </trkpt>
      <trkpt lat="46.66421" lon="5.79362">
        <ele>600.48</ele>
        <time>2013-07-22T09:00:17Z</time>
      </trkpt>
      <trkpt lat="46.66431" lon="5.79353">
        <ele>600.96</ele>
        <time>2013-07-22T09:00:25Z</time>
      </trkpt>
      <trkpt lat="46.66447" lon="5.79349">
        <ele>600.48</ele>
        <time>2013-07-22T09:00:33Z</time>
      </trkpt>
      <trkpt lat="46.66455" lon="5.79352">
        <ele>600</ele>
        <time>2013-07-22T09:00:44Z</time>
      </trkpt>
      <trkpt lat="46.66452" lon="5.7935">
        <ele>599.52</ele>
        <time>2013-07-22T09:00:58Z</time>
      </trkpt>
      <trkpt lat="46.6645" lon="5.79346">
        <ele>599.52</ele>
        <time>2013-07-22T09:01:35Z</time>
      </trkpt>
      <trkpt lat="46.66446" lon="5.79336">
        <ele>600</ele>
        <time>2013-07-22T09:02:11Z</time>
      </trkpt>
      <trkpt lat="46.66448" lon="5.79349">
        <ele>600.48</ele>
        <time>2013-07-22T09:02:47Z</time>
      </trkpt>
      <trkpt lat="46.66459" lon="5.79354">
        <ele>600.48</ele>
        <time>2013-07-22T09:03:04Z</time>
      </trkpt>
      <trkpt lat="46.66457" lon="5.7936">
        <ele>600.96</ele>
        <time>2013-07-22T09:03:11Z</time>
      </trkpt>
      <trkpt lat="46.66465" lon="5.79379">
        <ele>599.52</ele>
        <time>2013-07-22T09:03:20Z</time>
      </trkpt>
      <trkpt lat="46.66477" lon="5.79402">
        <ele>600.48</ele>
        <time>2013-07-22T09:03:32Z</time>
      </trkpt>
      <trkpt lat="46.66494" lon="5.79436">
        <ele>601.44</ele>
        <time>2013-07-22T09:03:45Z</time>
      </trkpt>
      <trkpt lat="46.66505" lon="5.79453">
        <ele>601.44</ele>
        <time>2013-07-22T09:04:03Z</time>
      </trkpt>
      <trkpt lat="46.66506" lon="5.79459">
        <ele>601.44</ele>
        <time>2013-07-22T09:04:17Z</time>
      </trkpt>
      <trkpt lat="46.66504" lon="5.79469">
        <ele>603.36</ele>
        <time>2013-07-22T09:04:29Z</time>
      </trkpt>
      <trkpt lat="46.66499" lon="5.79486">
        <ele>604.33</ele>
        <time>2013-07-22T09:04:40Z</time>
      </trkpt>
      <trkpt lat="46.66498" lon="5.79494">
        <ele>604.33</ele>
        <time>2013-07-22T09:04:43Z</time>
      </trkpt>
      <trkpt lat="46.66502" lon="5.79535">
        <ele>604.81</ele>
        <time>2013-07-22T09:04:55Z</time>
      </trkpt>
      <trkpt lat="46.66503" lon="5.79558">
        <ele>605.29</ele>
        <time>2013-07-22T09:05:06Z</time>
      </trkpt>
      <trkpt lat="46.66501" lon="5.79566">
        <ele>604.81</ele>
        <time>2013-07-22T09:05:23Z</time>
      </trkpt>
      <trkpt lat="46.66502" lon="5.79567">
        <ele>604.33</ele>
        <time>2013-07-22T09:05:24Z</time>
      </trkpt>
      <trkpt lat="46.66505" lon="5.7958">
        <ele>605.29</ele>
        <time>2013-07-22T09:05:30Z</time>
      </trkpt>
      <trkpt lat="46.66505" lon="5.79593">
        <ele>606.25</ele>
        <time>2013-07-22T09:05:36Z</time>
      </trkpt>
      <trkpt lat="46.66502" lon="5.79623">
        <ele>609.61</ele>
        <time>2013-07-22T09:05:50Z</time>
      </trkpt>
      <trkpt lat="46.665" lon="5.79642">
        <ele>611.54</ele>
        <time>2013-07-22T09:06:02Z</time>
      </trkpt>
      <trkpt lat="46.66501" lon="5.79656">
        <ele>612.98</ele>
        <time>2013-07-22T09:06:15Z</time>
      </trkpt>
      <trkpt lat="46.66501" lon="5.79665">
        <ele>612.5</ele>
        <time>2013-07-22T09:06:22Z</time>
      </trkpt>
      <trkpt lat="46.66501" lon="5.79674">
        <ele>612.98</ele>
        <time>2013-07-22T09:06:27Z</time>
      </trkpt>
      <trkpt lat="46.66493" lon="5.7969">
        <ele>612.98</ele>
        <time>2013-07-22T09:06:35Z</time>
      </trkpt>
      <trkpt lat="46.66486" lon="5.79714">
        <ele>612.98</ele>
        <time>2013-07-22T09:06:46Z</time>
      </trkpt>
      <trkpt lat="46.66486" lon="5.79729">
        <ele>613.46</ele>
        <time>2013-07-22T09:06:59Z</time>
      </trkpt>
      <trkpt lat="46.66486" lon="5.79741">
        <ele>613.94</ele>
        <time>2013-07-22T09:07:05Z</time>
      </trkpt>
      <trkpt lat="46.66489" lon="5.79752">
        <ele>613.46</ele>
        <time>2013-07-22T09:07:11Z</time>
      </trkpt>
      <trkpt lat="46.66489" lon="5.79765">
        <ele>613.46</ele>
        <time>2013-07-22T09:07:17Z</time>
      </trkpt>
      <trkpt lat="46.6648" lon="5.79802">
        <ele>611.54</ele>
        <time>2013-07-22T09:07:26Z</time>
      </trkpt>
      <trkpt lat="46.66478" lon="5.79826">
        <ele>611.06</ele>
        <time>2013-07-22T09:07:33Z</time>
      </trkpt>
      <trkpt lat="46.66473" lon="5.7984">
        <ele>610.57</ele>
        <time>2013-07-22T09:07:37Z</time>
      </trkpt>
      <trkpt lat="46.66471" lon="5.79844">
        <ele>611.06</ele>
        <time>2013-07-22T09:07:39Z</time>
      </trkpt>
      <trkpt lat="46.6647" lon="5.79846">
        <ele>610.09</ele>
        <time>2013-07-22T09:07:42Z</time>
      </trkpt>
      <trkpt lat="46.66479" lon="5.79897">
        <ele>610.09</ele>
        <time>2013-07-22T09:07:52Z</time>
      </trkpt>
      <trkpt lat="46.66483" lon="5.79933">
        <ele>609.61</ele>
        <time>2013-07-22T09:08:01Z</time>
      </trkpt>
      <trkpt lat="46.66482" lon="5.79937">
        <ele>609.61</ele>
        <time>2013-07-22T09:08:02Z</time>
      </trkpt>
      <trkpt lat="46.6648" lon="5.7995">
        <ele>610.57</ele>
        <time>2013-07-22T09:08:06Z</time>
      </trkpt>
      <trkpt lat="46.6648" lon="5.79968">
        <ele>610.57</ele>
        <time>2013-07-22T09:08:10Z</time>
      </trkpt>
      <trkpt lat="46.66479" lon="5.79987">
        <ele>610.09</ele>
        <time>2013-07-22T09:08:22Z</time>
      </trkpt>
      <trkpt lat="46.66475" lon="5.8">
        <ele>609.61</ele>
        <time>2013-07-22T09:08:36Z</time>
      </trkpt>
      <trkpt lat="46.66475" lon="5.80004">
        <ele>609.13</ele>
        <time>2013-07-22T09:08:39Z</time>
      </trkpt>
      <trkpt lat="46.66471" lon="5.80032">
        <ele>608.65</ele>
        <time>2013-07-22T09:08:50Z</time>
      </trkpt>
      <trkpt lat="46.66471" lon="5.80035">
        <ele>608.17</ele>
        <time>2013-07-22T09:08:52Z</time>
      </trkpt>
      <trkpt lat="46.66468" lon="5.80055">
        <ele>607.21</ele>
        <time>2013-07-22T09:09:00Z</time>
      </trkpt>
      <trkpt lat="46.66468" lon="5.80064">
        <ele>606.73</ele>
        <time>2013-07-22T09:09:03Z</time>
      </trkpt>
      <trkpt lat="46.66472" lon="5.80072">
        <ele>605.77</ele>
        <time>2013-07-22T09:09:07Z</time>
      </trkpt>
      <trkpt lat="46.66482" lon="5.80089">
        <ele>603.85</ele>
        <time>2013-07-22T09:09:17Z</time>
      </trkpt>
      <trkpt lat="46.66486" lon="5.80091">
        <ele>605.29</ele>
        <time>2013-07-22T09:09:20Z</time>
      </trkpt>
      <trkpt lat="46.66493" lon="5.801">
        <ele>606.25</ele>
        <time>2013-07-22T09:09:29Z</time>
      </trkpt>
      <trkpt lat="46.66497" lon="5.80108">
        <ele>605.77</ele>
        <time>2013-07-22T09:09:32Z</time>
      </trkpt>
      <trkpt lat="46.66499" lon="5.80121">
        <ele>605.29</ele>
        <time>2013-07-22T09:09:36Z</time>
      </trkpt>
      <trkpt lat="46.66502" lon="5.80152">
        <ele>603.85</ele>
        <time>2013-07-22T09:09:45Z</time>
      </trkpt>
      <trkpt lat="46.66501" lon="5.80187">
        <ele>603.85</ele>
        <time>2013-07-22T09:09:55Z</time>
      </trkpt>
      <trkpt lat="46.665" lon="5.80238">
        <ele>602.88</ele>
        <time>2013-07-22T09:10:06Z</time>
      </trkpt>
      <trkpt lat="46.66497" lon="5.80259">
        <ele>602.4</ele>
        <time>2013-07-22T09:10:11Z</time>
      </trkpt>
      <trkpt lat="46.66478" lon="5.80304">
        <ele>600.48</ele>
        <time>2013-07-22T09:10:22Z</time>
      </trkpt>
      <trkpt lat="46.66478" lon="5.80313">
        <ele>600.48</ele>
        <time>2013-07-22T09:10:30Z</time>
      </trkpt>
      <trkpt lat="46.66476" lon="5.80316">
        <ele>600.48</ele>
        <time>2013-07-22T09:10:33Z</time>
      </trkpt>
      <trkpt lat="46.6646" lon="5.80353">
        <ele>599.52</ele>
        <time>2013-07-22T09:10:44Z</time>
      </trkpt>
      <trkpt lat="46.66449" lon="5.80368">
        <ele>599.04</ele>
        <time>2013-07-22T09:10:52Z</time>
      </trkpt>
      <trkpt lat="46.66426" lon="5.80385">
        <ele>597.12</ele>
        <time>2013-07-22T09:11:01Z</time>
      </trkpt>
      <trkpt lat="46.6641" lon="5.80413">
        <ele>597.12</ele>
        <time>2013-07-22T09:11:09Z</time>
      </trkpt>
      <trkpt lat="46.66408" lon="5.8043">
        <ele>596.64</ele>
        <time>2013-07-22T09:11:17Z</time>
      </trkpt>
      <trkpt lat="46.66408" lon="5.80431">
        <ele>597.12</ele>
        <time>2013-07-22T09:11:18Z</time>
      </trkpt>
      <trkpt lat="46.66408" lon="5.80439">
        <ele>596.15</ele>
        <time>2013-07-22T09:11:23Z</time>
      </trkpt>
      <trkpt lat="46.66409" lon="5.80452">
        <ele>596.64</ele>
        <time>2013-07-22T09:11:28Z</time>
      </trkpt>
      <trkpt lat="46.6641" lon="5.80458">
        <ele>596.15</ele>
        <time>2013-07-22T09:11:30Z</time>
      </trkpt>
      <trkpt lat="46.66413" lon="5.8047">
        <ele>595.19</ele>
        <time>2013-07-22T09:11:34Z</time>
      </trkpt>
      <trkpt lat="46.6642" lon="5.8048">
        <ele>594.71</ele>
        <time>2013-07-22T09:11:45Z</time>
      </trkpt>
      <trkpt lat="46.66429" lon="5.80486">
        <ele>594.71</ele>
        <time>2013-07-22T09:11:55Z</time>
      </trkpt>
      <trkpt lat="46.66432" lon="5.80498">
        <ele>594.71</ele>
        <time>2013-07-22T09:12:06Z</time>
      </trkpt>
      <trkpt lat="46.66434" lon="5.805">
        <ele>594.71</ele>
        <time>2013-07-22T09:12:09Z</time>
      </trkpt>
      <trkpt lat="46.66439" lon="5.80505">
        <ele>594.71</ele>
        <time>2013-07-22T09:12:13Z</time>
      </trkpt>
      <trkpt lat="46.66445" lon="5.8052">
        <ele>594.71</ele>
        <time>2013-07-22T09:12:18Z</time>
      </trkpt>
      <trkpt lat="46.66456" lon="5.80558">
        <ele>592.79</ele>
        <time>2013-07-22T09:12:28Z</time>
      </trkpt>
      <trkpt lat="46.66461" lon="5.80567">
        <ele>592.31</ele>
        <time>2013-07-22T09:12:34Z</time>
      </trkpt>
      <trkpt lat="46.66465" lon="5.80573">
        <ele>592.31</ele>
        <time>2013-07-22T09:12:37Z</time>
      </trkpt>
      <trkpt lat="46.66478" lon="5.80609">
        <ele>592.31</ele>
        <time>2013-07-22T09:12:47Z</time>
      </trkpt>
      <trkpt lat="46.66488" lon="5.80619">
        <ele>592.79</ele>
        <time>2013-07-22T09:12:59Z</time>
      </trkpt>
      <trkpt lat="46.66495" lon="5.80617">
        <ele>592.31</ele>
        <time>2013-07-22T09:13:34Z</time>
      </trkpt>
      <trkpt lat="46.66493" lon="5.80618">
        <ele>592.31</ele>
        <time>2013-07-22T09:14:01Z</time>
      </trkpt>
      <trkpt lat="46.66492" lon="5.80618">
        <ele>592.31</ele>
        <time>2013-07-22T09:14:02Z</time>
      </trkpt>
      <trkpt lat="46.66481" lon="5.80638">
        <ele>591.83</ele>
        <time>2013-07-22T09:14:12Z</time>
      </trkpt>
      <trkpt lat="46.66478" lon="5.80648">
        <ele>591.83</ele>
        <time>2013-07-22T09:14:18Z</time>
      </trkpt>
      <trkpt lat="46.66469" lon="5.80667">
        <ele>593.27</ele>
        <time>2013-07-22T09:14:26Z</time>
      </trkpt>
      <trkpt lat="46.6647" lon="5.80671">
        <ele>593.27</ele>
        <time>2013-07-22T09:14:28Z</time>
      </trkpt>
      <trkpt lat="46.66463" lon="5.80683">
        <ele>594.23</ele>
        <time>2013-07-22T09:14:39Z</time>
      </trkpt>
      <trkpt lat="46.66459" lon="5.80691">
        <ele>594.71</ele>
        <time>2013-07-22T09:14:50Z</time>
      </trkpt>
      <trkpt lat="46.66458" lon="5.80692">
        <ele>594.71</ele>
        <time>2013-07-22T09:14:51Z</time>
      </trkpt>
      <trkpt lat="46.66453" lon="5.807">
        <ele>594.23</ele>
        <time>2013-07-22T09:14:55Z</time>
      </trkpt>
      <trkpt lat="46.66448" lon="5.80725">
        <ele>597.6</ele>
        <time>2013-07-22T09:15:06Z</time>
      </trkpt>
      <trkpt lat="46.66448" lon="5.80728">
        <ele>597.6</ele>
        <time>2013-07-22T09:15:07Z</time>
      </trkpt>
      <trkpt lat="46.66442" lon="5.80743">
        <ele>598.56</ele>
        <time>2013-07-22T09:15:14Z</time>
      </trkpt>
      <trkpt lat="46.66427" lon="5.80753">
        <ele>598.56</ele>
        <time>2013-07-22T09:15:21Z</time>
      </trkpt>
      <trkpt lat="46.66418" lon="5.80776">
        <ele>598.56</ele>
        <time>2013-07-22T09:15:33Z</time>
      </trkpt>
      <trkpt lat="46.66403" lon="5.80813">
        <ele>597.6</ele>
        <time>2013-07-22T09:15:45Z</time>
      </trkpt>
      <trkpt lat="46.66391" lon="5.8084">
        <ele>595.67</ele>
        <time>2013-07-22T09:15:54Z</time>
      </trkpt>
      <trkpt lat="46.66377" lon="5.80869">
        <ele>597.6</ele>
        <time>2013-07-22T09:16:06Z</time>
      </trkpt>
      <trkpt lat="46.66374" lon="5.80875">
        <ele>598.08</ele>
        <time>2013-07-22T09:16:08Z</time>
      </trkpt>
      <trkpt lat="46.66369" lon="5.80883">
        <ele>598.56</ele>
        <time>2013-07-22T09:16:12Z</time>
      </trkpt>
      <trkpt lat="46.6636" lon="5.80902">
        <ele>600.48</ele>
        <time>2013-07-22T09:16:20Z</time>
      </trkpt>
      <trkpt lat="46.6635" lon="5.80929">
        <ele>599.52</ele>
        <time>2013-07-22T09:16:31Z</time>
      </trkpt>
      <trkpt lat="46.66335" lon="5.80962">
        <ele>596.64</ele>
        <time>2013-07-22T09:16:40Z</time>
      </trkpt>
      <trkpt lat="46.66331" lon="5.80966">
        <ele>595.67</ele>
        <time>2013-07-22T09:16:42Z</time>
      </trkpt>
      <trkpt lat="46.66332" lon="5.80981">
        <ele>594.23</ele>
        <time>2013-07-22T09:16:52Z</time>
      </trkpt>
      <trkpt lat="46.6633" lon="5.80993">
        <ele>593.27</ele>
        <time>2013-07-22T09:17:20Z</time>
      </trkpt>
      <trkpt lat="46.66326" lon="5.81006">
        <ele>593.75</ele>
        <time>2013-07-22T09:17:32Z</time>
      </trkpt>
      <trkpt lat="46.6632" lon="5.81017">
        <ele>592.79</ele>
        <time>2013-07-22T09:17:58Z</time>
      </trkpt>
      <trkpt lat="46.6632" lon="5.81016">
        <ele>592.79</ele>
        <time>2013-07-22T09:18:26Z</time>
      </trkpt>
      <trkpt lat="46.66318" lon="5.8102">
        <ele>593.27</ele>
        <time>2013-07-22T09:18:55Z</time>
      </trkpt>
      <trkpt lat="46.66322" lon="5.81021">
        <ele>593.27</ele>
        <time>2013-07-22T09:19:18Z</time>
      </trkpt>
      <trkpt lat="46.6632" lon="5.81024">
        <ele>593.27</ele>
        <time>2013-07-22T09:19:42Z</time>
      </trkpt>
      <trkpt lat="46.66319" lon="5.81023">
        <ele>593.75</ele>
        <time>2013-07-22T09:19:47Z</time>
      </trkpt>
      <trkpt lat="46.66307" lon="5.81031">
        <ele>593.75</ele>
        <time>2013-07-22T09:19:55Z</time>
      </trkpt>
      <trkpt lat="46.66284" lon="5.81054">
        <ele>596.64</ele>
        <time>2013-07-22T09:20:07Z</time>
      </trkpt>
      <trkpt lat="46.6628" lon="5.81063">
        <ele>597.12</ele>
        <time>2013-07-22T09:20:16Z</time>
      </trkpt>
      <trkpt lat="46.66276" lon="5.81068">
        <ele>598.08</ele>
        <time>2013-07-22T09:20:27Z</time>
      </trkpt>
      <trkpt lat="46.66274" lon="5.8107">
        <ele>598.08</ele>
        <time>2013-07-22T09:20:30Z</time>
      </trkpt>
      <trkpt lat="46.66259" lon="5.81087">
        <ele>596.15</ele>
        <time>2013-07-22T09:20:37Z</time>
      </trkpt>
      <trkpt lat="46.66234" lon="5.81105">
        <ele>595.19</ele>
        <time>2013-07-22T09:20:46Z</time>
      </trkpt>
      <trkpt lat="46.66207" lon="5.81124">
        <ele>596.64</ele>
        <time>2013-07-22T09:20:56Z</time>
      </trkpt>
      <trkpt lat="46.66187" lon="5.8116">
        <ele>597.12</ele>
        <time>2013-07-22T09:21:05Z</time>
      </trkpt>
      <trkpt lat="46.66166" lon="5.8119">
        <ele>596.64</ele>
        <time>2013-07-22T09:21:14Z</time>
      </trkpt>
      <trkpt lat="46.66153" lon="5.81211">
        <ele>596.15</ele>
        <time>2013-07-22T09:21:19Z</time>
      </trkpt>
      <trkpt lat="46.66133" lon="5.81245">
        <ele>596.15</ele>
        <time>2013-07-22T09:21:29Z</time>
      </trkpt>
      <trkpt lat="46.6611" lon="5.81286">
        <ele>595.67</ele>
        <time>2013-07-22T09:21:38Z</time>
      </trkpt>
      <trkpt lat="46.66083" lon="5.81328">
        <ele>594.23</ele>
        <time>2013-07-22T09:21:49Z</time>
      </trkpt>
      <trkpt lat="46.66082" lon="5.81331">
        <ele>593.75</ele>
        <time>2013-07-22T09:21:50Z</time>
      </trkpt>
      <trkpt lat="46.66082" lon="5.81346">
        <ele>595.19</ele>
        <time>2013-07-22T09:21:56Z</time>
      </trkpt>
      <trkpt lat="46.66085" lon="5.81368">
        <ele>594.71</ele>
        <time>2013-07-22T09:22:02Z</time>
      </trkpt>
      <trkpt lat="46.66086" lon="5.8141">
        <ele>596.15</ele>
        <time>2013-07-22T09:22:12Z</time>
      </trkpt>
      <trkpt lat="46.66076" lon="5.81439">
        <ele>596.64</ele>
        <time>2013-07-22T09:22:20Z</time>
      </trkpt>
      <trkpt lat="46.66081" lon="5.81457">
        <ele>596.64</ele>
        <time>2013-07-22T09:22:26Z</time>
      </trkpt>
      <trkpt lat="46.66074" lon="5.81462">
        <ele>596.64</ele>
        <time>2013-07-22T09:22:31Z</time>
      </trkpt>
      <trkpt lat="46.66057" lon="5.81425">
        <ele>597.6</ele>
        <time>2013-07-22T09:22:45Z</time>
      </trkpt>
      <trkpt lat="46.66041" lon="5.81397">
        <ele>597.6</ele>
        <time>2013-07-22T09:22:56Z</time>
      </trkpt>
      <trkpt lat="46.6604" lon="5.81406">
        <ele>597.6</ele>
        <time>2013-07-22T09:23:01Z</time>
      </trkpt>
      <trkpt lat="46.66063" lon="5.81461">
        <ele>596.64</ele>
        <time>2013-07-22T09:23:14Z</time>
      </trkpt>
      <trkpt lat="46.66078" lon="5.81508">
        <ele>596.15</ele>
        <time>2013-07-22T09:23:22Z</time>
      </trkpt>
      <trkpt lat="46.66082" lon="5.81527">
        <ele>596.15</ele>
        <time>2013-07-22T09:23:25Z</time>
      </trkpt>
      <trkpt lat="46.66088" lon="5.81545">
        <ele>595.67</ele>
        <time>2013-07-22T09:23:28Z</time>
      </trkpt>
      <trkpt lat="46.66095" lon="5.81563">
        <ele>596.15</ele>
        <time>2013-07-22T09:23:31Z</time>
      </trkpt>
      <trkpt lat="46.66101" lon="5.81574">
        <ele>596.15</ele>
        <time>2013-07-22T09:23:33Z</time>
      </trkpt>
      <trkpt lat="46.6612" lon="5.81606">
        <ele>596.15</ele>
        <time>2013-07-22T09:23:40Z</time>
      </trkpt>
      <trkpt lat="46.66139" lon="5.81637">
        <ele>595.67</ele>
        <time>2013-07-22T09:23:46Z</time>
      </trkpt>
      <trkpt lat="46.66152" lon="5.81647">
        <ele>595.67</ele>
        <time>2013-07-22T09:23:49Z</time>
      </trkpt>
      <trkpt lat="46.66161" lon="5.81651">
        <ele>595.67</ele>
        <time>2013-07-22T09:23:51Z</time>
      </trkpt>
      <trkpt lat="46.66221" lon="5.8167">
        <ele>596.15</ele>
        <time>2013-07-22T09:24:06Z</time>
      </trkpt>
      <trkpt lat="46.66262" lon="5.81679">
        <ele>596.64</ele>
        <time>2013-07-22T09:24:18Z</time>
      </trkpt>
      <trkpt lat="46.66288" lon="5.81662">
        <ele>594.71</ele>
        <time>2013-07-22T09:24:31Z</time>
      </trkpt>
      <trkpt lat="46.66296" lon="5.81656">
        <ele>593.27</ele>
        <time>2013-07-22T09:24:34Z</time>
      </trkpt>
      <trkpt lat="46.66309" lon="5.8165">
        <ele>591.35</ele>
        <time>2013-07-22T09:24:44Z</time>
      </trkpt>
      <trkpt lat="46.66314" lon="5.81646">
        <ele>591.35</ele>
        <time>2013-07-22T09:24:55Z</time>
      </trkpt>
      <trkpt lat="46.66316" lon="5.81641">
        <ele>591.35</ele>
        <time>2013-07-22T09:25:41Z</time>
      </trkpt>
      <trkpt lat="46.66314" lon="5.81647">
        <ele>591.35</ele>
        <time>2013-07-22T09:26:05Z</time>
      </trkpt>
      <trkpt lat="46.66313" lon="5.8165">
        <ele>591.83</ele>
        <time>2013-07-22T09:26:09Z</time>
      </trkpt>
      <trkpt lat="46.66313" lon="5.81659">
        <ele>591.83</ele>
        <time>2013-07-22T09:26:13Z</time>
      </trkpt>
      <trkpt lat="46.66314" lon="5.81668">
        <ele>591.83</ele>
        <time>2013-07-22T09:26:17Z</time>
      </trkpt>
      <trkpt lat="46.66323" lon="5.81682">
        <ele>590.87</ele>
        <time>2013-07-22T09:26:23Z</time>
      </trkpt>
      <trkpt lat="46.66325" lon="5.81684">
        <ele>591.35</ele>
        <time>2013-07-22T09:26:24Z</time>
      </trkpt>
      <trkpt lat="46.66326" lon="5.81696">
        <ele>591.35</ele>
        <time>2013-07-22T09:26:28Z</time>
      </trkpt>
      <trkpt lat="46.66323" lon="5.81719">
        <ele>590.87</ele>
        <time>2013-07-22T09:26:40Z</time>
      </trkpt>
      <trkpt lat="46.66327" lon="5.8173">
        <ele>589.43</ele>
        <time>2013-07-22T09:26:44Z</time>
      </trkpt>
      <trkpt lat="46.6633" lon="5.81734">
        <ele>587.5</ele>
        <time>2013-07-22T09:26:46Z</time>
      </trkpt>
      <trkpt lat="46.66324" lon="5.81766">
        <ele>587.02</ele>
        <time>2013-07-22T09:26:56Z</time>
      </trkpt>
      <trkpt lat="46.66323" lon="5.81767">
        <ele>586.54</ele>
        <time>2013-07-22T09:26:57Z</time>
      </trkpt>
      <trkpt lat="46.66315" lon="5.81788">
        <ele>586.54</ele>
        <time>2013-07-22T09:27:03Z</time>
      </trkpt>
      <trkpt lat="46.66312" lon="5.81796">
        <ele>586.06</ele>
        <time>2013-07-22T09:27:07Z</time>
      </trkpt>
      <trkpt lat="46.66305" lon="5.81822">
        <ele>584.14</ele>
        <time>2013-07-22T09:27:15Z</time>
      </trkpt>
      <trkpt lat="46.66304" lon="5.8183">
        <ele>583.18</ele>
        <time>2013-07-22T09:27:19Z</time>
      </trkpt>
      <trkpt lat="46.66308" lon="5.81844">
        <ele>584.62</ele>
        <time>2013-07-22T09:27:29Z</time>
      </trkpt>
      <trkpt lat="46.66316" lon="5.81861">
        <ele>585.58</ele>
        <time>2013-07-22T09:27:42Z</time>
      </trkpt>
      <trkpt lat="46.66329" lon="5.81889">
        <ele>587.98</ele>
        <time>2013-07-22T09:27:55Z</time>
      </trkpt>
      <trkpt lat="46.66334" lon="5.81914">
        <ele>588.46</ele>
        <time>2013-07-22T09:28:07Z</time>
      </trkpt>
      <trkpt lat="46.66342" lon="5.81928">
        <ele>589.43</ele>
        <time>2013-07-22T09:28:19Z</time>
      </trkpt>
      <trkpt lat="46.66345" lon="5.81943">
        <ele>588.46</ele>
        <time>2013-07-22T09:28:24Z</time>
      </trkpt>
      <trkpt lat="46.66344" lon="5.81971">
        <ele>585.1</ele>
        <time>2013-07-22T09:28:29Z</time>
      </trkpt>
      <trkpt lat="46.66343" lon="5.81976">
        <ele>584.62</ele>
        <time>2013-07-22T09:28:32Z</time>
      </trkpt>
      <trkpt lat="46.66341" lon="5.81998">
        <ele>585.58</ele>
        <time>2013-07-22T09:28:41Z</time>
      </trkpt>
      <trkpt lat="46.66342" lon="5.82006">
        <ele>585.1</ele>
        <time>2013-07-22T09:28:43Z</time>
      </trkpt>
      <trkpt lat="46.66338" lon="5.82029">
        <ele>585.1</ele>
        <time>2013-07-22T09:28:50Z</time>
      </trkpt>
      <trkpt lat="46.66335" lon="5.82034">
        <ele>584.62</ele>
        <time>2013-07-22T09:28:52Z</time>
      </trkpt>
      <trkpt lat="46.66332" lon="5.82035">
        <ele>584.62</ele>
        <time>2013-07-22T09:28:53Z</time>
      </trkpt>
      <trkpt lat="46.66328" lon="5.82038">
        <ele>584.62</ele>
        <time>2013-07-22T09:28:55Z</time>
      </trkpt>
      <trkpt lat="46.66327" lon="5.82055">
        <ele>584.62</ele>
        <time>2013-07-22T09:29:04Z</time>
      </trkpt>
      <trkpt lat="46.66329" lon="5.82061">
        <ele>584.62</ele>
        <time>2013-07-22T09:29:07Z</time>
      </trkpt>
      <trkpt lat="46.66336" lon="5.82087">
        <ele>585.58</ele>
        <time>2013-07-22T09:29:16Z</time>
      </trkpt>
      <trkpt lat="46.66339" lon="5.82096">
        <ele>585.58</ele>
        <time>2013-07-22T09:29:19Z</time>
      </trkpt>
      <trkpt lat="46.66341" lon="5.82109">
        <ele>585.58</ele>
        <time>2013-07-22T09:29:24Z</time>
      </trkpt>
      <trkpt lat="46.66344" lon="5.82118">
        <ele>586.06</ele>
        <time>2013-07-22T09:29:30Z</time>
      </trkpt>
      <trkpt lat="46.66357" lon="5.82139">
        <ele>586.54</ele>
        <time>2013-07-22T09:29:33Z</time>
      </trkpt>
      <trkpt lat="46.66374" lon="5.82167">
        <ele>586.06</ele>
        <time>2013-07-22T09:29:43Z</time>
      </trkpt>
      <trkpt lat="46.66367" lon="5.82179">
        <ele>587.5</ele>
        <time>2013-07-22T09:29:48Z</time>
      </trkpt>
      <trkpt lat="46.66368" lon="5.82189">
        <ele>587.98</ele>
        <time>2013-07-22T09:29:52Z</time>
      </trkpt>
      <trkpt lat="46.6637" lon="5.82208">
        <ele>588.95</ele>
        <time>2013-07-22T09:30:02Z</time>
      </trkpt>
      <trkpt lat="46.66371" lon="5.82209">
        <ele>589.43</ele>
        <time>2013-07-22T09:30:22Z</time>
      </trkpt>
      <trkpt lat="46.66366" lon="5.82215">
        <ele>588.95</ele>
        <time>2013-07-22T09:30:39Z</time>
      </trkpt>
      <trkpt lat="46.66374" lon="5.82245">
        <ele>589.43</ele>
        <time>2013-07-22T09:30:49Z</time>
      </trkpt>
      <trkpt lat="46.66373" lon="5.823">
        <ele>589.91</ele>
        <time>2013-07-22T09:31:00Z</time>
      </trkpt>
      <trkpt lat="46.66372" lon="5.82405">
        <ele>588.95</ele>
        <time>2013-07-22T09:31:15Z</time>
      </trkpt>
      <trkpt lat="46.66373" lon="5.82472">
        <ele>587.98</ele>
        <time>2013-07-22T09:31:24Z</time>
      </trkpt>
      <trkpt lat="46.66362" lon="5.82563">
        <ele>587.02</ele>
        <time>2013-07-22T09:31:37Z</time>
      </trkpt>
      <trkpt lat="46.66364" lon="5.82605">
        <ele>586.54</ele>
        <time>2013-07-22T09:31:46Z</time>
      </trkpt>
      <trkpt lat="46.66364" lon="5.82603">
        <ele>587.02</ele>
        <time>2013-07-22T09:31:58Z</time>
      </trkpt>
      <trkpt lat="46.66363" lon="5.82605">
        <ele>587.02</ele>
        <time>2013-07-22T09:32:22Z</time>
      </trkpt>
      <trkpt lat="46.66364" lon="5.82622">
        <ele>587.5</ele>
        <time>2013-07-22T09:32:30Z</time>
      </trkpt>
      <trkpt lat="46.66377" lon="5.82609">
        <ele>588.95</ele>
        <time>2013-07-22T09:32:37Z</time>
      </trkpt>
      <trkpt lat="46.66391" lon="5.82594">
        <ele>589.91</ele>
        <time>2013-07-22T09:32:43Z</time>
      </trkpt>
      <trkpt lat="46.66435" lon="5.82579">
        <ele>592.31</ele>
        <time>2013-07-22T09:33:00Z</time>
      </trkpt>
      <trkpt lat="46.66484" lon="5.82571">
        <ele>593.27</ele>
        <time>2013-07-22T09:33:16Z</time>
      </trkpt>
      <trkpt lat="46.66525" lon="5.82551">
        <ele>594.71</ele>
        <time>2013-07-22T09:33:30Z</time>
      </trkpt>
      <trkpt lat="46.66563" lon="5.82519">
        <ele>596.64</ele>
        <time>2013-07-22T09:33:45Z</time>
      </trkpt>
      <trkpt lat="46.66565" lon="5.82518">
        <ele>596.15</ele>
        <time>2013-07-22T09:33:51Z</time>
      </trkpt>
      <trkpt lat="46.66571" lon="5.82511">
        <ele>597.12</ele>
        <time>2013-07-22T09:33:55Z</time>
      </trkpt>
      <trkpt lat="46.66617" lon="5.82488">
        <ele>596.64</ele>
        <time>2013-07-22T09:34:09Z</time>
      </trkpt>
      <trkpt lat="46.6664" lon="5.8247">
        <ele>595.67</ele>
        <time>2013-07-22T09:34:14Z</time>
      </trkpt>
      <trkpt lat="46.66712" lon="5.8239">
        <ele>593.75</ele>
        <time>2013-07-22T09:34:30Z</time>
      </trkpt>
      <trkpt lat="46.66756" lon="5.82347">
        <ele>594.23</ele>
        <time>2013-07-22T09:34:40Z</time>
      </trkpt>
      <trkpt lat="46.66793" lon="5.82297">
        <ele>595.67</ele>
        <time>2013-07-22T09:34:54Z</time>
      </trkpt>
      <trkpt lat="46.6681" lon="5.82293">
        <ele>595.19</ele>
        <time>2013-07-22T09:34:59Z</time>
      </trkpt>
      <trkpt lat="46.66801" lon="5.8229">
        <ele>595.19</ele>
        <time>2013-07-22T09:35:05Z</time>
      </trkpt>
      <trkpt lat="46.66788" lon="5.82284">
        <ele>595.19</ele>
        <time>2013-07-22T09:35:09Z</time>
      </trkpt>
      <trkpt lat="46.66775" lon="5.82262">
        <ele>594.71</ele>
        <time>2013-07-22T09:35:14Z</time>
      </trkpt>
      <trkpt lat="46.66773" lon="5.82229">
        <ele>595.19</ele>
        <time>2013-07-22T09:35:20Z</time>
      </trkpt>
      <trkpt lat="46.66767" lon="5.82204">
        <ele>594.23</ele>
        <time>2013-07-22T09:35:24Z</time>
      </trkpt>
      <trkpt lat="46.66762" lon="5.82183">
        <ele>591.83</ele>
        <time>2013-07-22T09:35:28Z</time>
      </trkpt>
      <trkpt lat="46.6676" lon="5.8215">
        <ele>587.98</ele>
        <time>2013-07-22T09:35:37Z</time>
      </trkpt>
      <trkpt lat="46.6676" lon="5.82139">
        <ele>586.06</ele>
        <time>2013-07-22T09:35:40Z</time>
      </trkpt>
      <trkpt lat="46.66774" lon="5.82131">
        <ele>587.5</ele>
        <time>2013-07-22T09:35:46Z</time>
      </trkpt>
      <trkpt lat="46.66791" lon="5.82106">
        <ele>587.02</ele>
        <time>2013-07-22T09:35:53Z</time>
      </trkpt>
      <trkpt lat="46.66801" lon="5.82082">
        <ele>587.02</ele>
        <time>2013-07-22T09:35:57Z</time>
      </trkpt>
      <trkpt lat="46.66805" lon="5.82046">
        <ele>587.5</ele>
        <time>2013-07-22T09:36:02Z</time>
      </trkpt>
      <trkpt lat="46.66802" lon="5.8202">
        <ele>588.46</ele>
        <time>2013-07-22T09:36:07Z</time>
      </trkpt>
      <trkpt lat="46.6679" lon="5.81986">
        <ele>591.83</ele>
        <time>2013-07-22T09:36:17Z</time>
      </trkpt>
      <trkpt lat="46.66783" lon="5.81927">
        <ele>593.75</ele>
        <time>2013-07-22T09:36:35Z</time>
      </trkpt>
      <trkpt lat="46.66788" lon="5.81885">
        <ele>595.19</ele>
        <time>2013-07-22T09:36:47Z</time>
      </trkpt>
      <trkpt lat="46.66793" lon="5.81863">
        <ele>597.12</ele>
        <time>2013-07-22T09:36:54Z</time>
      </trkpt>
      <trkpt lat="46.66804" lon="5.81825">
        <ele>600</ele>
        <time>2013-07-22T09:37:06Z</time>
      </trkpt>
      <trkpt lat="46.66809" lon="5.8179">
        <ele>602.88</ele>
        <time>2013-07-22T09:37:17Z</time>
      </trkpt>
      <trkpt lat="46.66813" lon="5.81747">
        <ele>604.81</ele>
        <time>2013-07-22T09:37:31Z</time>
      </trkpt>
      <trkpt lat="46.66826" lon="5.81702">
        <ele>607.21</ele>
        <time>2013-07-22T09:37:47Z</time>
      </trkpt>
      <trkpt lat="46.66859" lon="5.81646">
        <ele>608.17</ele>
        <time>2013-07-22T09:38:02Z</time>
      </trkpt>
      <trkpt lat="46.66889" lon="5.81594">
        <ele>608.17</ele>
        <time>2013-07-22T09:38:16Z</time>
      </trkpt>
      <trkpt lat="46.66918" lon="5.81544">
        <ele>608.17</ele>
        <time>2013-07-22T09:38:26Z</time>
      </trkpt>
      <trkpt lat="46.66953" lon="5.81489">
        <ele>608.17</ele>
        <time>2013-07-22T09:38:38Z</time>
      </trkpt>
      <trkpt lat="46.66956" lon="5.81467">
        <ele>607.21</ele>
        <time>2013-07-22T09:38:42Z</time>
      </trkpt>
      <trkpt lat="46.66962" lon="5.81429">
        <ele>605.29</ele>
        <time>2013-07-22T09:38:47Z</time>
      </trkpt>
      <trkpt lat="46.66975" lon="5.81384">
        <ele>605.77</ele>
        <time>2013-07-22T09:38:56Z</time>
      </trkpt>
      <trkpt lat="46.66982" lon="5.81358">
        <ele>605.77</ele>
        <time>2013-07-22T09:39:09Z</time>
      </trkpt>
      <trkpt lat="46.66982" lon="5.81359">
        <ele>606.25</ele>
        <time>2013-07-22T09:39:34Z</time>
      </trkpt>
      <trkpt lat="46.66981" lon="5.81361">
        <ele>606.25</ele>
        <time>2013-07-22T09:40:05Z</time>
      </trkpt>
      <trkpt lat="46.66981" lon="5.81361">
        <ele>606.25</ele>
        <time>2013-07-22T09:40:34Z</time>
      </trkpt>
      <trkpt lat="46.66982" lon="5.81362">
        <ele>606.73</ele>
        <time>2013-07-22T09:40:58Z</time>
      </trkpt>
      <trkpt lat="46.67" lon="5.81348">
        <ele>607.21</ele>
        <time>2013-07-22T09:41:08Z</time>
      </trkpt>
      <trkpt lat="46.67015" lon="5.81313">
        <ele>608.65</ele>
        <time>2013-07-22T09:41:23Z</time>
      </trkpt>
      <trkpt lat="46.67021" lon="5.81302">
        <ele>610.09</ele>
        <time>2013-07-22T09:41:33Z</time>
      </trkpt>
      <trkpt lat="46.67043" lon="5.81272">
        <ele>609.13</ele>
        <time>2013-07-22T09:41:45Z</time>
      </trkpt>
      <trkpt lat="46.67059" lon="5.81254">
        <ele>608.17</ele>
        <time>2013-07-22T09:41:51Z</time>
      </trkpt>
      <trkpt lat="46.67068" lon="5.81268">
        <ele>607.21</ele>
        <time>2013-07-22T09:41:59Z</time>
      </trkpt>
      <trkpt lat="46.67069" lon="5.8127">
        <ele>607.21</ele>
        <time>2013-07-22T09:42:01Z</time>
      </trkpt>
      <trkpt lat="46.67073" lon="5.81272">
        <ele>605.77</ele>
        <time>2013-07-22T09:42:03Z</time>
      </trkpt>
      <trkpt lat="46.67082" lon="5.81272">
        <ele>604.33</ele>
        <time>2013-07-22T09:42:06Z</time>
      </trkpt>
      <trkpt lat="46.67085" lon="5.81272">
        <ele>602.4</ele>
        <time>2013-07-22T09:42:08Z</time>
      </trkpt>
      <trkpt lat="46.67098" lon="5.81267">
        <ele>600.48</ele>
        <time>2013-07-22T09:42:14Z</time>
      </trkpt>
      <trkpt lat="46.67129" lon="5.8125">
        <ele>598.08</ele>
        <time>2013-07-22T09:42:24Z</time>
      </trkpt>
      <trkpt lat="46.67133" lon="5.81248">
        <ele>597.6</ele>
        <time>2013-07-22T09:42:25Z</time>
      </trkpt>
      <trkpt lat="46.67173" lon="5.81211">
        <ele>597.12</ele>
        <time>2013-07-22T09:42:36Z</time>
      </trkpt>
      <trkpt lat="46.6718" lon="5.81196">
        <ele>597.12</ele>
        <time>2013-07-22T09:43:08Z</time>
      </trkpt>
      <trkpt lat="46.67189" lon="5.81182">
        <ele>597.12</ele>
        <time>2013-07-22T09:43:19Z</time>
      </trkpt>
      <trkpt lat="46.67181" lon="5.81195">
        <ele>597.12</ele>
        <time>2013-07-22T09:43:32Z</time>
      </trkpt>
      <trkpt lat="46.67179" lon="5.81198">
        <ele>597.12</ele>
        <time>2013-07-22T09:43:49Z</time>
      </trkpt>
      <trkpt lat="46.67187" lon="5.81197">
        <ele>597.12</ele>
        <time>2013-07-22T09:44:17Z</time>
      </trkpt>
      <trkpt lat="46.67191" lon="5.81208">
        <ele>598.08</ele>
        <time>2013-07-22T09:44:47Z</time>
      </trkpt>
      <trkpt lat="46.67188" lon="5.81206">
        <ele>598.08</ele>
        <time>2013-07-22T09:45:27Z</time>
      </trkpt>
      <trkpt lat="46.67186" lon="5.81202">
        <ele>598.56</ele>
        <time>2013-07-22T09:45:35Z</time>
      </trkpt>
      <trkpt lat="46.67185" lon="5.81197">
        <ele>598.56</ele>
        <time>2013-07-22T09:45:37Z</time>
      </trkpt>
      <trkpt lat="46.67193" lon="5.81171">
        <ele>598.56</ele>
        <time>2013-07-22T09:45:46Z</time>
      </trkpt>
      <trkpt lat="46.67208" lon="5.81103">
        <ele>599.52</ele>
        <time>2013-07-22T09:45:59Z</time>
      </trkpt>
      <trkpt lat="46.67246" lon="5.8101">
        <ele>598.08</ele>
        <time>2013-07-22T09:46:11Z</time>
      </trkpt>
      <trkpt lat="46.67274" lon="5.80938">
        <ele>600</ele>
        <time>2013-07-22T09:46:27Z</time>
      </trkpt>
      <trkpt lat="46.67277" lon="5.80862">
        <ele>600.96</ele>
        <time>2013-07-22T09:46:41Z</time>
      </trkpt>
      <trkpt lat="46.67286" lon="5.80815">
        <ele>600.48</ele>
        <time>2013-07-22T09:46:49Z</time>
      </trkpt>
      <trkpt lat="46.67308" lon="5.80759">
        <ele>600</ele>
        <time>2013-07-22T09:46:58Z</time>
      </trkpt>
      <trkpt lat="46.67326" lon="5.80711">
        <ele>600.96</ele>
        <time>2013-07-22T09:47:09Z</time>
      </trkpt>
      <trkpt lat="46.6735" lon="5.80665">
        <ele>600.48</ele>
        <time>2013-07-22T09:47:18Z</time>
      </trkpt>
      <trkpt lat="46.67365" lon="5.80608">
        <ele>601.44</ele>
        <time>2013-07-22T09:47:30Z</time>
      </trkpt>
      <trkpt lat="46.67366" lon="5.80606">
        <ele>600.96</ele>
        <time>2013-07-22T09:47:31Z</time>
      </trkpt>
      <trkpt lat="46.67365" lon="5.80606">
        <ele>600.96</ele>
        <time>2013-07-22T09:47:36Z</time>
      </trkpt>
      <trkpt lat="46.67373" lon="5.80618">
        <ele>601.44</ele>
        <time>2013-07-22T09:47:46Z</time>
      </trkpt>
      <trkpt lat="46.67386" lon="5.80632">
        <ele>602.4</ele>
        <time>2013-07-22T09:47:57Z</time>
      </trkpt>
      <trkpt lat="46.67391" lon="5.80636">
        <ele>601.92</ele>
        <time>2013-07-22T09:48:08Z</time>
      </trkpt>
      <trkpt lat="46.67367" lon="5.80613">
        <ele>600.96</ele>
        <time>2013-07-22T09:48:21Z</time>
      </trkpt>
      <trkpt lat="46.67367" lon="5.80612">
        <ele>601.44</ele>
        <time>2013-07-22T09:48:22Z</time>
      </trkpt>
      <trkpt lat="46.67367" lon="5.80609">
        <ele>600.48</ele>
        <time>2013-07-22T09:48:32Z</time>
      </trkpt>
      <trkpt lat="46.6737" lon="5.80609">
        <ele>600.48</ele>
        <time>2013-07-22T09:49:11Z</time>
      </trkpt>
      <trkpt lat="46.67371" lon="5.80611">
        <ele>600.96</ele>
        <time>2013-07-22T09:49:44Z</time>
      </trkpt>
      <trkpt lat="46.6737" lon="5.80615">
        <ele>601.44</ele>
        <time>2013-07-22T09:49:48Z</time>
      </trkpt>
      <trkpt lat="46.67379" lon="5.80622">
        <ele>601.44</ele>
        <time>2013-07-22T09:49:58Z</time>
      </trkpt>
      <trkpt lat="46.67395" lon="5.80637">
        <ele>601.92</ele>
        <time>2013-07-22T09:50:07Z</time>
      </trkpt>
      <trkpt lat="46.67399" lon="5.80645">
        <ele>602.4</ele>
        <time>2013-07-22T09:50:11Z</time>
      </trkpt>
      <trkpt lat="46.67414" lon="5.80653">
        <ele>603.36</ele>
        <time>2013-07-22T09:50:21Z</time>
      </trkpt>
      <trkpt lat="46.67448" lon="5.80626">
        <ele>603.85</ele>
        <time>2013-07-22T09:50:36Z</time>
      </trkpt>
      <trkpt lat="46.6748" lon="5.80601">
        <ele>604.33</ele>
        <time>2013-07-22T09:50:49Z</time>
      </trkpt>
      <trkpt lat="46.67545" lon="5.80559">
        <ele>604.81</ele>
        <time>2013-07-22T09:51:01Z</time>
      </trkpt>
      <trkpt lat="46.67564" lon="5.80547">
        <ele>606.25</ele>
        <time>2013-07-22T09:51:09Z</time>
      </trkpt>
      <trkpt lat="46.67571" lon="5.80547">
        <ele>605.77</ele>
        <time>2013-07-22T09:51:13Z</time>
      </trkpt>
      <trkpt lat="46.67582" lon="5.80547">
        <ele>606.25</ele>
        <time>2013-07-22T09:51:19Z</time>
      </trkpt>
      <trkpt lat="46.67602" lon="5.80552">
        <ele>606.25</ele>
        <time>2013-07-22T09:51:26Z</time>
      </trkpt>
      <trkpt lat="46.67611" lon="5.8055">
        <ele>606.25</ele>
        <time>2013-07-22T09:51:30Z</time>
      </trkpt>
      <trkpt lat="46.67629" lon="5.80546">
        <ele>607.21</ele>
        <time>2013-07-22T09:51:35Z</time>
      </trkpt>
      <trkpt lat="46.67667" lon="5.80529">
        <ele>608.65</ele>
        <time>2013-07-22T09:51:46Z</time>
      </trkpt>
      <trkpt lat="46.67702" lon="5.80523">
        <ele>609.13</ele>
        <time>2013-07-22T09:51:58Z</time>
      </trkpt>
      <trkpt lat="46.67747" lon="5.80507">
        <ele>609.13</ele>
        <time>2013-07-22T09:52:10Z</time>
      </trkpt>
      <trkpt lat="46.67773" lon="5.80495">
        <ele>607.21</ele>
        <time>2013-07-22T09:52:16Z</time>
      </trkpt>
      <trkpt lat="46.67799" lon="5.805">
        <ele>606.25</ele>
        <time>2013-07-22T09:52:21Z</time>
      </trkpt>
      <trkpt lat="46.67802" lon="5.80501">
        <ele>605.77</ele>
        <time>2013-07-22T09:52:22Z</time>
      </trkpt>
      <trkpt lat="46.67815" lon="5.80495">
        <ele>603.85</ele>
        <time>2013-07-22T09:52:24Z</time>
      </trkpt>
      <trkpt lat="46.6783" lon="5.80485">
        <ele>601.92</ele>
        <time>2013-07-22T09:52:27Z</time>
      </trkpt>
      <trkpt lat="46.67845" lon="5.805">
        <ele>602.88</ele>
        <time>2013-07-22T09:52:36Z</time>
      </trkpt>
      <trkpt lat="46.67842" lon="5.80557">
        <ele>603.36</ele>
        <time>2013-07-22T09:52:49Z</time>
      </trkpt>
      <trkpt lat="46.67834" lon="5.80613">
        <ele>604.33</ele>
        <time>2013-07-22T09:53:01Z</time>
      </trkpt>
      <trkpt lat="46.67828" lon="5.80699">
        <ele>604.33</ele>
        <time>2013-07-22T09:53:17Z</time>
      </trkpt>
      <trkpt lat="46.67828" lon="5.80705">
        <ele>604.81</ele>
        <time>2013-07-22T09:53:18Z</time>
      </trkpt>
      <trkpt lat="46.67835" lon="5.8078">
        <ele>602.88</ele>
        <time>2013-07-22T09:53:29Z</time>
      </trkpt>
      <trkpt lat="46.67841" lon="5.80854">
        <ele>599.04</ele>
        <time>2013-07-22T09:53:36Z</time>
      </trkpt>
      <trkpt lat="46.67857" lon="5.80911">
        <ele>594.71</ele>
        <time>2013-07-22T09:53:41Z</time>
      </trkpt>
      <trkpt lat="46.67861" lon="5.80919">
        <ele>593.75</ele>
        <time>2013-07-22T09:53:42Z</time>
      </trkpt>
      <trkpt lat="46.67863" lon="5.80925">
        <ele>593.27</ele>
        <time>2013-07-22T09:53:43Z</time>
      </trkpt>
      <trkpt lat="46.67866" lon="5.8093">
        <ele>593.27</ele>
        <time>2013-07-22T09:53:44Z</time>
      </trkpt>
      <trkpt lat="46.67871" lon="5.80932">
        <ele>592.79</ele>
        <time>2013-07-22T09:53:45Z</time>
      </trkpt>
      <trkpt lat="46.67892" lon="5.80912">
        <ele>592.79</ele>
        <time>2013-07-22T09:53:50Z</time>
      </trkpt>
      <trkpt lat="46.67922" lon="5.8087">
        <ele>594.71</ele>
        <time>2013-07-22T09:54:04Z</time>
      </trkpt>
      <trkpt lat="46.67927" lon="5.8087">
        <ele>596.64</ele>
        <time>2013-07-22T09:54:09Z</time>
      </trkpt>
      <trkpt lat="46.67934" lon="5.80879">
        <ele>597.6</ele>
        <time>2013-07-22T09:54:15Z</time>
      </trkpt>
      <trkpt lat="46.67951" lon="5.80913">
        <ele>597.6</ele>
        <time>2013-07-22T09:54:26Z</time>
      </trkpt>
      <trkpt lat="46.67961" lon="5.80933">
        <ele>598.08</ele>
        <time>2013-07-22T09:54:33Z</time>
      </trkpt>
      <trkpt lat="46.6798" lon="5.80963">
        <ele>598.08</ele>
        <time>2013-07-22T09:54:47Z</time>
      </trkpt>
      <trkpt lat="46.67982" lon="5.80966">
        <ele>597.6</ele>
        <time>2013-07-22T09:54:49Z</time>
      </trkpt>
      <trkpt lat="46.67985" lon="5.80976">
        <ele>597.6</ele>
        <time>2013-07-22T09:54:55Z</time>
      </trkpt>
      <trkpt lat="46.67993" lon="5.80992">
        <ele>598.08</ele>
        <time>2013-07-22T09:55:07Z</time>
      </trkpt>
      <trkpt lat="46.67996" lon="5.8099">
        <ele>599.04</ele>
        <time>2013-07-22T09:55:25Z</time>
      </trkpt>
      <trkpt lat="46.68002" lon="5.80991">
        <ele>597.12</ele>
        <time>2013-07-22T09:55:46Z</time>
      </trkpt>
      <trkpt lat="46.68003" lon="5.80992">
        <ele>597.6</ele>
        <time>2013-07-22T09:56:02Z</time>
      </trkpt>
      <trkpt lat="46.68002" lon="5.80991">
        <ele>597.12</ele>
        <time>2013-07-22T09:56:31Z</time>
      </trkpt>
      <trkpt lat="46.68009" lon="5.80985">
        <ele>597.12</ele>
        <time>2013-07-22T09:57:01Z</time>
      </trkpt>
      <trkpt lat="46.68009" lon="5.80991">
        <ele>597.12</ele>
        <time>2013-07-22T09:57:42Z</time>
      </trkpt>
      <trkpt lat="46.68009" lon="5.80987">
        <ele>597.12</ele>
        <time>2013-07-22T09:58:20Z</time>
      </trkpt>
      <trkpt lat="46.67998" lon="5.80981">
        <ele>598.56</ele>
        <time>2013-07-22T09:58:53Z</time>
      </trkpt>
      <trkpt lat="46.68003" lon="5.80999">
        <ele>599.04</ele>
        <time>2013-07-22T09:59:18Z</time>
      </trkpt>
      <trkpt lat="46.68015" lon="5.81028">
        <ele>601.44</ele>
        <time>2013-07-22T09:59:29Z</time>
      </trkpt>
      <trkpt lat="46.68021" lon="5.81036">
        <ele>602.88</ele>
        <time>2013-07-22T09:59:35Z</time>
      </trkpt>
      <trkpt lat="46.68029" lon="5.81038">
        <ele>603.36</ele>
        <time>2013-07-22T09:59:37Z</time>
      </trkpt>
      <trkpt lat="46.68062" lon="5.81039">
        <ele>606.25</ele>
        <time>2013-07-22T09:59:50Z</time>
      </trkpt>
      <trkpt lat="46.68068" lon="5.81041">
        <ele>607.21</ele>
        <time>2013-07-22T09:59:53Z</time>
      </trkpt>
      <trkpt lat="46.68079" lon="5.81043">
        <ele>607.69</ele>
        <time>2013-07-22T09:59:59Z</time>
      </trkpt>
      <trkpt lat="46.681" lon="5.81054">
        <ele>610.09</ele>
        <time>2013-07-22T10:00:12Z</time>
      </trkpt>
      <trkpt lat="46.68122" lon="5.81061">
        <ele>612.02</ele>
        <time>2013-07-22T10:00:23Z</time>
      </trkpt>
      <trkpt lat="46.68152" lon="5.81072">
        <ele>612.5</ele>
        <time>2013-07-22T10:00:34Z</time>
      </trkpt>
      <trkpt lat="46.68156" lon="5.81072">
        <ele>612.5</ele>
        <time>2013-07-22T10:00:35Z</time>
      </trkpt>
      <trkpt lat="46.68174" lon="5.81072">
        <ele>612.98</ele>
        <time>2013-07-22T10:00:41Z</time>
      </trkpt>
      <trkpt lat="46.68219" lon="5.81113">
        <ele>612.98</ele>
        <time>2013-07-22T10:00:54Z</time>
      </trkpt>
      <trkpt lat="46.68242" lon="5.81155">
        <ele>612.02</ele>
        <time>2013-07-22T10:01:02Z</time>
      </trkpt>
      <trkpt lat="46.68251" lon="5.81171">
        <ele>611.54</ele>
        <time>2013-07-22T10:01:05Z</time>
      </trkpt>
      <trkpt lat="46.68281" lon="5.81221">
        <ele>608.17</ele>
        <time>2013-07-22T10:01:12Z</time>
      </trkpt>
      <trkpt lat="46.68285" lon="5.81228">
        <ele>607.21</ele>
        <time>2013-07-22T10:01:13Z</time>
      </trkpt>
      <trkpt lat="46.68314" lon="5.81253">
        <ele>604.33</ele>
        <time>2013-07-22T10:01:18Z</time>
      </trkpt>
      <trkpt lat="46.68346" lon="5.81218">
        <ele>602.88</ele>
        <time>2013-07-22T10:01:24Z</time>
      </trkpt>
      <trkpt lat="46.68369" lon="5.81136">
        <ele>605.29</ele>
        <time>2013-07-22T10:01:37Z</time>
      </trkpt>
      <trkpt lat="46.68378" lon="5.81078">
        <ele>605.77</ele>
        <time>2013-07-22T10:01:48Z</time>
      </trkpt>
      <trkpt lat="46.68391" lon="5.81024">
        <ele>606.73</ele>
        <time>2013-07-22T10:01:59Z</time>
      </trkpt>
      <trkpt lat="46.68403" lon="5.80966">
        <ele>608.17</ele>
        <time>2013-07-22T10:02:11Z</time>
      </trkpt>
      <trkpt lat="46.68419" lon="5.80908">
        <ele>610.09</ele>
        <time>2013-07-22T10:02:24Z</time>
      </trkpt>
      <trkpt lat="46.6844" lon="5.8086">
        <ele>611.54</ele>
        <time>2013-07-22T10:02:35Z</time>
      </trkpt>
      <trkpt lat="46.68452" lon="5.80796">
        <ele>611.54</ele>
        <time>2013-07-22T10:02:47Z</time>
      </trkpt>
      <trkpt lat="46.68457" lon="5.80774">
        <ele>611.54</ele>
        <time>2013-07-22T10:02:51Z</time>
      </trkpt>
      <trkpt lat="46.68459" lon="5.80737">
        <ele>610.57</ele>
        <time>2013-07-22T10:02:56Z</time>
      </trkpt>
      <trkpt lat="46.68458" lon="5.8072">
        <ele>610.09</ele>
        <time>2013-07-22T10:02:58Z</time>
      </trkpt>
      <trkpt lat="46.68456" lon="5.80673">
        <ele>608.65</ele>
        <time>2013-07-22T10:03:03Z</time>
      </trkpt>
      <trkpt lat="46.68459" lon="5.80653">
        <ele>607.69</ele>
        <time>2013-07-22T10:03:05Z</time>
      </trkpt>
      <trkpt lat="46.68475" lon="5.80622">
        <ele>607.21</ele>
        <time>2013-07-22T10:03:09Z</time>
      </trkpt>
      <trkpt lat="46.68508" lon="5.80601">
        <ele>607.69</ele>
        <time>2013-07-22T10:03:16Z</time>
      </trkpt>
      <trkpt lat="46.68538" lon="5.8061">
        <ele>610.09</ele>
        <time>2013-07-22T10:03:27Z</time>
      </trkpt>
      <trkpt lat="46.68562" lon="5.80629">
        <ele>613.46</ele>
        <time>2013-07-22T10:03:38Z</time>
      </trkpt>
      <trkpt lat="46.68582" lon="5.80646">
        <ele>616.82</ele>
        <time>2013-07-22T10:03:48Z</time>
      </trkpt>
      <trkpt lat="46.68598" lon="5.80656">
        <ele>618.75</ele>
        <time>2013-07-22T10:03:55Z</time>
      </trkpt>
      <trkpt lat="46.68625" lon="5.80665">
        <ele>620.67</ele>
        <time>2013-07-22T10:04:08Z</time>
      </trkpt>
      <trkpt lat="46.68629" lon="5.80667">
        <ele>621.63</ele>
        <time>2013-07-22T10:04:11Z</time>
      </trkpt>
      <trkpt lat="46.6866" lon="5.80673">
        <ele>624.03</ele>
        <time>2013-07-22T10:04:25Z</time>
      </trkpt>
      <trkpt lat="46.68679" lon="5.8068">
        <ele>625.96</ele>
        <time>2013-07-22T10:04:34Z</time>
      </trkpt>
      <trkpt lat="46.68706" lon="5.80692">
        <ele>628.36</ele>
        <time>2013-07-22T10:04:49Z</time>
      </trkpt>
      <trkpt lat="46.68713" lon="5.80699">
        <ele>629.32</ele>
        <time>2013-07-22T10:04:53Z</time>
      </trkpt>
      <trkpt lat="46.68728" lon="5.80707">
        <ele>629.8</ele>
        <time>2013-07-22T10:05:06Z</time>
      </trkpt>
      <trkpt lat="46.68727" lon="5.80701">
        <ele>629.8</ele>
        <time>2013-07-22T10:05:34Z</time>
      </trkpt>
      <trkpt lat="46.68729" lon="5.807">
        <ele>629.32</ele>
        <time>2013-07-22T10:05:36Z</time>
      </trkpt>
      <trkpt lat="46.68732" lon="5.80695">
        <ele>630.28</ele>
        <time>2013-07-22T10:05:39Z</time>
      </trkpt>
      <trkpt lat="46.6875" lon="5.80695">
        <ele>631.24</ele>
        <time>2013-07-22T10:05:49Z</time>
      </trkpt>
      <trkpt lat="46.68772" lon="5.8069">
        <ele>634.13</ele>
        <time>2013-07-22T10:06:01Z</time>
      </trkpt>
      <trkpt lat="46.68793" lon="5.80678">
        <ele>635.57</ele>
        <time>2013-07-22T10:06:14Z</time>
      </trkpt>
      <trkpt lat="46.68813" lon="5.80671">
        <ele>638.93</ele>
        <time>2013-07-22T10:06:23Z</time>
      </trkpt>
      <trkpt lat="46.68815" lon="5.80671">
        <ele>636.05</ele>
        <time>2013-07-22T10:06:24Z</time>
      </trkpt>
      <trkpt lat="46.68851" lon="5.80665">
        <ele>635.09</ele>
        <time>2013-07-22T10:06:36Z</time>
      </trkpt>
      <trkpt lat="46.68912" lon="5.80668">
        <ele>631.72</ele>
        <time>2013-07-22T10:06:46Z</time>
      </trkpt>
      <trkpt lat="46.68966" lon="5.80647">
        <ele>628.84</ele>
        <time>2013-07-22T10:06:53Z</time>
      </trkpt>
      <trkpt lat="46.68988" lon="5.806">
        <ele>626.44</ele>
        <time>2013-07-22T10:06:57Z</time>
      </trkpt>
      <trkpt lat="46.69013" lon="5.80497">
        <ele>624.99</ele>
        <time>2013-07-22T10:07:06Z</time>
      </trkpt>
      <trkpt lat="46.69022" lon="5.80474">
        <ele>625.96</ele>
        <time>2013-07-22T10:07:09Z</time>
      </trkpt>
      <trkpt lat="46.69036" lon="5.80367">
        <ele>628.36</ele>
        <time>2013-07-22T10:07:26Z</time>
      </trkpt>
      <trkpt lat="46.69041" lon="5.80282">
        <ele>628.36</ele>
        <time>2013-07-22T10:07:42Z</time>
      </trkpt>
      <trkpt lat="46.69045" lon="5.8022">
        <ele>626.44</ele>
        <time>2013-07-22T10:07:50Z</time>
      </trkpt>
      <trkpt lat="46.69046" lon="5.80203">
        <ele>625.96</ele>
        <time>2013-07-22T10:07:52Z</time>
      </trkpt>
      <trkpt lat="46.69054" lon="5.80131">
        <ele>624.51</ele>
        <time>2013-07-22T10:08:00Z</time>
      </trkpt>
      <trkpt lat="46.69031" lon="5.80069">
        <ele>623.07</ele>
        <time>2013-07-22T10:08:08Z</time>
      </trkpt>
      <trkpt lat="46.68983" lon="5.80016">
        <ele>622.11</ele>
        <time>2013-07-22T10:08:19Z</time>
      </trkpt>
      <trkpt lat="46.68971" lon="5.79996">
        <ele>621.63</ele>
        <time>2013-07-22T10:08:23Z</time>
      </trkpt>
      <trkpt lat="46.68905" lon="5.79922">
        <ele>620.67</ele>
        <time>2013-07-22T10:08:38Z</time>
      </trkpt>
      <trkpt lat="46.6884" lon="5.7985">
        <ele>618.75</ele>
        <time>2013-07-22T10:08:51Z</time>
      </trkpt>
      <trkpt lat="46.68803" lon="5.79813">
        <ele>616.82</ele>
        <time>2013-07-22T10:08:57Z</time>
      </trkpt>
      <trkpt lat="46.68774" lon="5.79797">
        <ele>615.38</ele>
        <time>2013-07-22T10:09:01Z</time>
      </trkpt>
      <trkpt lat="46.6867" lon="5.79774">
        <ele>612.98</ele>
        <time>2013-07-22T10:09:15Z</time>
      </trkpt>
      <trkpt lat="46.68602" lon="5.7976">
        <ele>615.38</ele>
        <time>2013-07-22T10:09:27Z</time>
      </trkpt>
      <trkpt lat="46.68566" lon="5.79735">
        <ele>615.86</ele>
        <time>2013-07-22T10:09:38Z</time>
      </trkpt>
      <trkpt lat="46.68559" lon="5.79724">
        <ele>614.9</ele>
        <time>2013-07-22T10:09:40Z</time>
      </trkpt>
      <trkpt lat="46.68533" lon="5.7967">
        <ele>612.02</ele>
        <time>2013-07-22T10:09:46Z</time>
      </trkpt>
      <trkpt lat="46.6853" lon="5.79637">
        <ele>610.57</ele>
        <time>2013-07-22T10:09:49Z</time>
      </trkpt>
      <trkpt lat="46.68558" lon="5.79558">
        <ele>606.73</ele>
        <time>2013-07-22T10:09:57Z</time>
      </trkpt>
      <trkpt lat="46.68578" lon="5.79541">
        <ele>605.29</ele>
        <time>2013-07-22T10:10:00Z</time>
      </trkpt>
      <trkpt lat="46.68597" lon="5.79534">
        <ele>604.81</ele>
        <time>2013-07-22T10:10:03Z</time>
      </trkpt>
      <trkpt lat="46.68681" lon="5.79543">
        <ele>603.85</ele>
        <time>2013-07-22T10:10:16Z</time>
      </trkpt>
      <trkpt lat="46.68748" lon="5.79555">
        <ele>604.81</ele>
        <time>2013-07-22T10:10:29Z</time>
      </trkpt>
      <trkpt lat="46.68802" lon="5.79564">
        <ele>606.73</ele>
        <time>2013-07-22T10:10:42Z</time>
      </trkpt>
      <trkpt lat="46.68845" lon="5.79574">
        <ele>606.25</ele>
        <time>2013-07-22T10:10:55Z</time>
      </trkpt>
      <trkpt lat="46.68893" lon="5.79584">
        <ele>604.33</ele>
        <time>2013-07-22T10:11:06Z</time>
      </trkpt>
      <trkpt lat="46.68899" lon="5.79585">
        <ele>608.17</ele>
        <time>2013-07-22T10:11:07Z</time>
      </trkpt>
      <trkpt lat="46.68955" lon="5.796">
        <ele>606.25</ele>
        <time>2013-07-22T10:11:19Z</time>
      </trkpt>
      <trkpt lat="46.68971" lon="5.79609">
        <ele>607.21</ele>
        <time>2013-07-22T10:11:23Z</time>
      </trkpt>
      <trkpt lat="46.69013" lon="5.79647">
        <ele>608.65</ele>
        <time>2013-07-22T10:11:36Z</time>
      </trkpt>
      <trkpt lat="46.69039" lon="5.79686">
        <ele>610.09</ele>
        <time>2013-07-22T10:11:49Z</time>
      </trkpt>
      <trkpt lat="46.69076" lon="5.7972">
        <ele>611.06</ele>
        <time>2013-07-22T10:12:01Z</time>
      </trkpt>
      <trkpt lat="46.69082" lon="5.7973">
        <ele>610.57</ele>
        <time>2013-07-22T10:12:05Z</time>
      </trkpt>
      <trkpt lat="46.69093" lon="5.79743">
        <ele>610.09</ele>
        <time>2013-07-22T10:12:10Z</time>
      </trkpt>
      <trkpt lat="46.69098" lon="5.79747">
        <ele>609.61</ele>
        <time>2013-07-22T10:12:12Z</time>
      </trkpt>
      <trkpt lat="46.69127" lon="5.79767">
        <ele>608.17</ele>
        <time>2013-07-22T10:12:17Z</time>
      </trkpt>
      <trkpt lat="46.69179" lon="5.79796">
        <ele>609.13</ele>
        <time>2013-07-22T10:12:30Z</time>
      </trkpt>
      <trkpt lat="46.69205" lon="5.79808">
        <ele>610.57</ele>
        <time>2013-07-22T10:12:40Z</time>
      </trkpt>
      <trkpt lat="46.69226" lon="5.79832">
        <ele>613.46</ele>
        <time>2013-07-22T10:12:50Z</time>
      </trkpt>
      <trkpt lat="46.69241" lon="5.7987">
        <ele>615.86</ele>
        <time>2013-07-22T10:13:04Z</time>
      </trkpt>
      <trkpt lat="46.69272" lon="5.79913">
        <ele>617.78</ele>
        <time>2013-07-22T10:13:18Z</time>
      </trkpt>
      <trkpt lat="46.6928" lon="5.79934">
        <ele>619.23</ele>
        <time>2013-07-22T10:13:25Z</time>
      </trkpt>
      <trkpt lat="46.69282" lon="5.79952">
        <ele>619.23</ele>
        <time>2013-07-22T10:13:31Z</time>
      </trkpt>
      <trkpt lat="46.69296" lon="5.80008">
        <ele>619.23</ele>
        <time>2013-07-22T10:13:44Z</time>
      </trkpt>
      <trkpt lat="46.69314" lon="5.80051">
        <ele>621.15</ele>
        <time>2013-07-22T10:13:55Z</time>
      </trkpt>
      <trkpt lat="46.69315" lon="5.80063">
        <ele>621.63</ele>
        <time>2013-07-22T10:13:59Z</time>
      </trkpt>
      <trkpt lat="46.69323" lon="5.80075">
        <ele>622.11</ele>
        <time>2013-07-22T10:14:03Z</time>
      </trkpt>
      <trkpt lat="46.69341" lon="5.80132">
        <ele>625.47</ele>
        <time>2013-07-22T10:14:20Z</time>
      </trkpt>
      <trkpt lat="46.69357" lon="5.80172">
        <ele>627.4</ele>
        <time>2013-07-22T10:14:33Z</time>
      </trkpt>
      <trkpt lat="46.69363" lon="5.80197">
        <ele>628.84</ele>
        <time>2013-07-22T10:14:41Z</time>
      </trkpt>
      <trkpt lat="46.69375" lon="5.80236">
        <ele>629.8</ele>
        <time>2013-07-22T10:14:53Z</time>
      </trkpt>
      <trkpt lat="46.69388" lon="5.80276">
        <ele>631.24</ele>
        <time>2013-07-22T10:15:05Z</time>
      </trkpt>
      <trkpt lat="46.69411" lon="5.80297">
        <ele>632.68</ele>
        <time>2013-07-22T10:15:16Z</time>
      </trkpt>
      <trkpt lat="46.69437" lon="5.803">
        <ele>633.65</ele>
        <time>2013-07-22T10:15:28Z</time>
      </trkpt>
      <trkpt lat="46.69476" lon="5.80307">
        <ele>632.2</ele>
        <time>2013-07-22T10:15:40Z</time>
      </trkpt>
      <trkpt lat="46.6952" lon="5.8031">
        <ele>628.84</ele>
        <time>2013-07-22T10:15:47Z</time>
      </trkpt>
      <trkpt lat="46.69578" lon="5.80312">
        <ele>627.4</ele>
        <time>2013-07-22T10:15:54Z</time>
      </trkpt>
      <trkpt lat="46.69615" lon="5.80319">
        <ele>626.92</ele>
        <time>2013-07-22T10:16:02Z</time>
      </trkpt>
      <trkpt lat="46.69622" lon="5.80315">
        <ele>627.88</ele>
        <time>2013-07-22T10:16:15Z</time>
      </trkpt>
      <trkpt lat="46.69618" lon="5.80332">
        <ele>627.88</ele>
        <time>2013-07-22T10:16:49Z</time>
      </trkpt>
      <trkpt lat="46.69619" lon="5.80321">
        <ele>626.92</ele>
        <time>2013-07-22T10:17:08Z</time>
      </trkpt>
      <trkpt lat="46.69619" lon="5.80317">
        <ele>626.92</ele>
        <time>2013-07-22T10:17:32Z</time>
      </trkpt>
      <trkpt lat="46.69618" lon="5.80328">
        <ele>627.4</ele>
        <time>2013-07-22T10:18:01Z</time>
      </trkpt>
      <trkpt lat="46.69615" lon="5.80333">
        <ele>628.36</ele>
        <time>2013-07-22T10:18:26Z</time>
      </trkpt>
      <trkpt lat="46.69617" lon="5.80327">
        <ele>628.84</ele>
        <time>2013-07-22T10:19:05Z</time>
      </trkpt>
      <trkpt lat="46.69624" lon="5.80343">
        <ele>628.36</ele>
        <time>2013-07-22T10:19:10Z</time>
      </trkpt>
      <trkpt lat="46.69638" lon="5.8036">
        <ele>628.36</ele>
        <time>2013-07-22T10:19:15Z</time>
      </trkpt>
      <trkpt lat="46.69685" lon="5.80424">
        <ele>626.44</ele>
        <time>2013-07-22T10:19:28Z</time>
      </trkpt>
      <trkpt lat="46.69695" lon="5.8044">
        <ele>624.99</ele>
        <time>2013-07-22T10:19:31Z</time>
      </trkpt>
      <trkpt lat="46.69705" lon="5.80448">
        <ele>624.51</ele>
        <time>2013-07-22T10:19:33Z</time>
      </trkpt>
      <trkpt lat="46.69725" lon="5.8046">
        <ele>624.99</ele>
        <time>2013-07-22T10:19:36Z</time>
      </trkpt>
      <trkpt lat="46.69746" lon="5.80467">
        <ele>625.47</ele>
        <time>2013-07-22T10:19:40Z</time>
      </trkpt>
      <trkpt lat="46.69779" lon="5.80475">
        <ele>627.4</ele>
        <time>2013-07-22T10:19:48Z</time>
      </trkpt>
      <trkpt lat="46.69802" lon="5.8048">
        <ele>627.4</ele>
        <time>2013-07-22T10:19:54Z</time>
      </trkpt>
      <trkpt lat="46.69853" lon="5.80489">
        <ele>629.32</ele>
        <time>2013-07-22T10:20:08Z</time>
      </trkpt>
      <trkpt lat="46.69909" lon="5.80492">
        <ele>629.8</ele>
        <time>2013-07-22T10:20:21Z</time>
      </trkpt>
      <trkpt lat="46.69941" lon="5.80494">
        <ele>631.24</ele>
        <time>2013-07-22T10:20:31Z</time>
      </trkpt>
      <trkpt lat="46.69982" lon="5.80499">
        <ele>630.76</ele>
        <time>2013-07-22T10:20:43Z</time>
      </trkpt>
      <trkpt lat="46.70028" lon="5.80505">
        <ele>629.8</ele>
        <time>2013-07-22T10:20:53Z</time>
      </trkpt>
      <trkpt lat="46.70032" lon="5.80506">
        <ele>629.8</ele>
        <time>2013-07-22T10:20:54Z</time>
      </trkpt>
      <trkpt lat="46.70054" lon="5.80503">
        <ele>629.8</ele>
        <time>2013-07-22T10:20:58Z</time>
      </trkpt>
      <trkpt lat="46.70084" lon="5.80484">
        <ele>629.32</ele>
        <time>2013-07-22T10:21:02Z</time>
      </trkpt>
      <trkpt lat="46.70095" lon="5.80471">
        <ele>629.32</ele>
        <time>2013-07-22T10:21:04Z</time>
      </trkpt>
      <trkpt lat="46.70133" lon="5.80412">
        <ele>626.44</ele>
        <time>2013-07-22T10:21:12Z</time>
      </trkpt>
      <trkpt lat="46.70169" lon="5.80373">
        <ele>623.07</ele>
        <time>2013-07-22T10:21:17Z</time>
      </trkpt>
      <trkpt lat="46.70175" lon="5.80367">
        <ele>622.11</ele>
        <time>2013-07-22T10:21:18Z</time>
      </trkpt>
      <trkpt lat="46.70185" lon="5.80359">
        <ele>619.23</ele>
        <time>2013-07-22T10:21:20Z</time>
      </trkpt>
      <trkpt lat="46.70203" lon="5.80343">
        <ele>616.34</ele>
        <time>2013-07-22T10:21:24Z</time>
      </trkpt>
      <trkpt lat="46.70213" lon="5.80331">
        <ele>614.9</ele>
        <time>2013-07-22T10:21:26Z</time>
      </trkpt>
      <trkpt lat="46.70241" lon="5.80285">
        <ele>611.06</ele>
        <time>2013-07-22T10:21:31Z</time>
      </trkpt>
      <trkpt lat="46.70251" lon="5.80271">
        <ele>609.61</ele>
        <time>2013-07-22T10:21:32Z</time>
      </trkpt>
      <trkpt lat="46.70272" lon="5.80239">
        <ele>606.25</ele>
        <time>2013-07-22T10:21:35Z</time>
      </trkpt>
      <trkpt lat="46.70285" lon="5.80213">
        <ele>603.36</ele>
        <time>2013-07-22T10:21:37Z</time>
      </trkpt>
      <trkpt lat="46.70301" lon="5.80179">
        <ele>600.48</ele>
        <time>2013-07-22T10:21:40Z</time>
      </trkpt>
      <trkpt lat="46.70305" lon="5.80168">
        <ele>600</ele>
        <time>2013-07-22T10:21:41Z</time>
      </trkpt>
      <trkpt lat="46.70312" lon="5.80147">
        <ele>598.08</ele>
        <time>2013-07-22T10:21:43Z</time>
      </trkpt>
      <trkpt lat="46.70314" lon="5.80137">
        <ele>598.08</ele>
        <time>2013-07-22T10:21:44Z</time>
      </trkpt>
      <trkpt lat="46.7031" lon="5.80106">
        <ele>595.67</ele>
        <time>2013-07-22T10:21:46Z</time>
      </trkpt>
      <trkpt lat="46.70306" lon="5.80062">
        <ele>592.31</ele>
        <time>2013-07-22T10:21:49Z</time>
      </trkpt>
      <trkpt lat="46.70304" lon="5.8001">
        <ele>588.46</ele>
        <time>2013-07-22T10:21:53Z</time>
      </trkpt>
      <trkpt lat="46.70304" lon="5.79988">
        <ele>586.06</ele>
        <time>2013-07-22T10:21:55Z</time>
      </trkpt>
      <trkpt lat="46.70298" lon="5.79936">
        <ele>581.25</ele>
        <time>2013-07-22T10:21:59Z</time>
      </trkpt>
      <trkpt lat="46.70297" lon="5.79903">
        <ele>577.89</ele>
        <time>2013-07-22T10:22:02Z</time>
      </trkpt>
      <trkpt lat="46.70298" lon="5.79874">
        <ele>574.53</ele>
        <time>2013-07-22T10:22:05Z</time>
      </trkpt>
      <trkpt lat="46.70298" lon="5.79864">
        <ele>573.56</ele>
        <time>2013-07-22T10:22:06Z</time>
      </trkpt>
      <trkpt lat="46.70301" lon="5.79846">
        <ele>571.64</ele>
        <time>2013-07-22T10:22:08Z</time>
      </trkpt>
      <trkpt lat="46.70305" lon="5.79831">
        <ele>569.72</ele>
        <time>2013-07-22T10:22:10Z</time>
      </trkpt>
      <trkpt lat="46.70323" lon="5.79787">
        <ele>566.35</ele>
        <time>2013-07-22T10:22:15Z</time>
      </trkpt>
      <trkpt lat="46.7033" lon="5.79774">
        <ele>564.91</ele>
        <time>2013-07-22T10:22:16Z</time>
      </trkpt>
      <trkpt lat="46.70344" lon="5.79749">
        <ele>563.47</ele>
        <time>2013-07-22T10:22:19Z</time>
      </trkpt>
      <trkpt lat="46.70376" lon="5.79712">
        <ele>559.62</ele>
        <time>2013-07-22T10:22:24Z</time>
      </trkpt>
      <trkpt lat="46.7039" lon="5.79697">
        <ele>557.22</ele>
        <time>2013-07-22T10:22:26Z</time>
      </trkpt>
      <trkpt lat="46.70409" lon="5.79674">
        <ele>554.82</ele>
        <time>2013-07-22T10:22:29Z</time>
      </trkpt>
      <trkpt lat="46.70416" lon="5.79663">
        <ele>553.38</ele>
        <time>2013-07-22T10:22:30Z</time>
      </trkpt>
      <trkpt lat="46.7043" lon="5.79643">
        <ele>550.97</ele>
        <time>2013-07-22T10:22:32Z</time>
      </trkpt>
      <trkpt lat="46.70437" lon="5.79634">
        <ele>550.01</ele>
        <time>2013-07-22T10:22:33Z</time>
      </trkpt>
      <trkpt lat="46.70447" lon="5.7962">
        <ele>548.57</ele>
        <time>2013-07-22T10:22:35Z</time>
      </trkpt>
      <trkpt lat="46.70455" lon="5.79603">
        <ele>548.09</ele>
        <time>2013-07-22T10:22:37Z</time>
      </trkpt>
      <trkpt lat="46.70459" lon="5.79594">
        <ele>548.09</ele>
        <time>2013-07-22T10:22:38Z</time>
      </trkpt>
      <trkpt lat="46.70492" lon="5.79491">
        <ele>545.2</ele>
        <time>2013-07-22T10:22:48Z</time>
      </trkpt>
      <trkpt lat="46.70523" lon="5.79444">
        <ele>541.36</ele>
        <time>2013-07-22T10:22:57Z</time>
      </trkpt>
      <trkpt lat="46.70529" lon="5.79447">
        <ele>541.84</ele>
        <time>2013-07-22T10:23:09Z</time>
      </trkpt>
      <trkpt lat="46.70523" lon="5.7945">
        <ele>541.36</ele>
        <time>2013-07-22T10:23:39Z</time>
      </trkpt>
      <trkpt lat="46.70509" lon="5.79443">
        <ele>542.32</ele>
        <time>2013-07-22T10:23:50Z</time>
      </trkpt>
      <trkpt lat="46.70494" lon="5.79438">
        <ele>543.76</ele>
        <time>2013-07-22T10:24:04Z</time>
      </trkpt>
      <trkpt lat="46.70456" lon="5.79434">
        <ele>544.24</ele>
        <time>2013-07-22T10:24:20Z</time>
      </trkpt>
      <trkpt lat="46.70426" lon="5.79428">
        <ele>543.76</ele>
        <time>2013-07-22T10:24:32Z</time>
      </trkpt>
      <trkpt lat="46.70424" lon="5.7943">
        <ele>543.76</ele>
        <time>2013-07-22T10:24:35Z</time>
      </trkpt>
      <trkpt lat="46.70437" lon="5.79434">
        <ele>543.76</ele>
        <time>2013-07-22T10:24:42Z</time>
      </trkpt>
      <trkpt lat="46.70497" lon="5.7945">
        <ele>543.76</ele>
        <time>2013-07-22T10:25:00Z</time>
      </trkpt>
      <trkpt lat="46.70538" lon="5.79459">
        <ele>542.32</ele>
        <time>2013-07-22T10:25:11Z</time>
      </trkpt>
      <trkpt lat="46.70542" lon="5.79464">
        <ele>541.36</ele>
        <time>2013-07-22T10:25:20Z</time>
      </trkpt>
      <trkpt lat="46.70541" lon="5.79463">
        <ele>540.4</ele>
        <time>2013-07-22T10:25:32Z</time>
      </trkpt>
      <trkpt lat="46.7054" lon="5.79462">
        <ele>540.88</ele>
        <time>2013-07-22T10:25:52Z</time>
      </trkpt>
      <trkpt lat="46.7054" lon="5.79463">
        <ele>540.88</ele>
        <time>2013-07-22T10:26:21Z</time>
      </trkpt>
      <trkpt lat="46.70541" lon="5.79459">
        <ele>540.88</ele>
        <time>2013-07-22T10:26:43Z</time>
      </trkpt>
      <trkpt lat="46.70541" lon="5.79456">
        <ele>540.4</ele>
        <time>2013-07-22T10:27:13Z</time>
      </trkpt>
      <trkpt lat="46.70543" lon="5.79451">
        <ele>540.4</ele>
        <time>2013-07-22T10:27:35Z</time>
      </trkpt>
      <trkpt lat="46.70543" lon="5.79459">
        <ele>539.92</ele>
        <time>2013-07-22T10:28:00Z</time>
      </trkpt>
      <trkpt lat="46.70541" lon="5.7946">
        <ele>539.92</ele>
        <time>2013-07-22T10:28:30Z</time>
      </trkpt>
      <trkpt lat="46.70539" lon="5.79462">
        <ele>541.36</ele>
        <time>2013-07-22T10:28:55Z</time>
      </trkpt>
      <trkpt lat="46.70541" lon="5.79462">
        <ele>540.88</ele>
        <time>2013-07-22T10:29:01Z</time>
      </trkpt>
      <trkpt lat="46.70551" lon="5.79468">
        <ele>540.88</ele>
        <time>2013-07-22T10:29:06Z</time>
      </trkpt>
      <trkpt lat="46.70557" lon="5.79472">
        <ele>540.88</ele>
        <time>2013-07-22T10:29:08Z</time>
      </trkpt>
      <trkpt lat="46.70569" lon="5.79462">
        <ele>539.92</ele>
        <time>2013-07-22T10:29:12Z</time>
      </trkpt>
      <trkpt lat="46.70583" lon="5.79436">
        <ele>538.48</ele>
        <time>2013-07-22T10:29:16Z</time>
      </trkpt>
      <trkpt lat="46.70635" lon="5.79331">
        <ele>534.63</ele>
        <time>2013-07-22T10:29:28Z</time>
      </trkpt>
      <trkpt lat="46.70686" lon="5.79238">
        <ele>533.67</ele>
        <time>2013-07-22T10:29:40Z</time>
      </trkpt>
      <trkpt lat="46.7076" lon="5.79172">
        <ele>530.79</ele>
        <time>2013-07-22T10:29:52Z</time>
      </trkpt>
      <trkpt lat="46.70778" lon="5.79154">
        <ele>529.82</ele>
        <time>2013-07-22T10:29:55Z</time>
      </trkpt>
      <trkpt lat="46.70799" lon="5.79117">
        <ele>528.38</ele>
        <time>2013-07-22T10:29:59Z</time>
      </trkpt>
      <trkpt lat="46.70837" lon="5.79007">
        <ele>524.06</ele>
        <time>2013-07-22T10:30:09Z</time>
      </trkpt>
      <trkpt lat="46.7084" lon="5.78996">
        <ele>524.06</ele>
        <time>2013-07-22T10:30:10Z</time>
      </trkpt>
      <trkpt lat="46.70862" lon="5.78918">
        <ele>521.65</ele>
        <time>2013-07-22T10:30:17Z</time>
      </trkpt>
      <trkpt lat="46.70865" lon="5.78897">
        <ele>521.17</ele>
        <time>2013-07-22T10:30:19Z</time>
      </trkpt>
      <trkpt lat="46.70863" lon="5.78855">
        <ele>520.69</ele>
        <time>2013-07-22T10:30:23Z</time>
      </trkpt>
      <trkpt lat="46.70853" lon="5.78726">
        <ele>518.77</ele>
        <time>2013-07-22T10:30:36Z</time>
      </trkpt>
      <trkpt lat="46.70858" lon="5.78697">
        <ele>517.81</ele>
        <time>2013-07-22T10:30:39Z</time>
      </trkpt>
      <trkpt lat="46.70865" lon="5.78649">
        <ele>517.33</ele>
        <time>2013-07-22T10:30:47Z</time>
      </trkpt>
      <trkpt lat="46.70861" lon="5.78649">
        <ele>516.85</ele>
        <time>2013-07-22T10:30:48Z</time>
      </trkpt>
      <trkpt lat="46.70761" lon="5.78654">
        <ele>517.33</ele>
        <time>2013-07-22T10:31:07Z</time>
      </trkpt>
      <trkpt lat="46.70708" lon="5.78666">
        <ele>516.85</ele>
        <time>2013-07-22T10:31:16Z</time>
      </trkpt>
      <trkpt lat="46.70593" lon="5.78666">
        <ele>516.85</ele>
        <time>2013-07-22T10:31:34Z</time>
      </trkpt>
      <trkpt lat="46.70452" lon="5.78672">
        <ele>515.88</ele>
        <time>2013-07-22T10:31:56Z</time>
      </trkpt>
      <trkpt lat="46.70367" lon="5.78675">
        <ele>515.4</ele>
        <time>2013-07-22T10:32:09Z</time>
      </trkpt>
      <trkpt lat="46.70265" lon="5.78677">
        <ele>514.92</ele>
        <time>2013-07-22T10:32:25Z</time>
      </trkpt>
      <trkpt lat="46.70165" lon="5.78681">
        <ele>515.88</ele>
        <time>2013-07-22T10:32:42Z</time>
      </trkpt>
      <trkpt lat="46.70045" lon="5.78686">
        <ele>515.88</ele>
        <time>2013-07-22T10:33:01Z</time>
      </trkpt>
      <trkpt lat="46.69916" lon="5.78691">
        <ele>515.4</ele>
        <time>2013-07-22T10:33:21Z</time>
      </trkpt>
      <trkpt lat="46.69829" lon="5.7869">
        <ele>512.52</ele>
        <time>2013-07-22T10:33:34Z</time>
      </trkpt>
      <trkpt lat="46.69811" lon="5.78687">
        <ele>511.56</ele>
        <time>2013-07-22T10:33:36Z</time>
      </trkpt>
      <trkpt lat="46.69722" lon="5.78657">
        <ele>509.16</ele>
        <time>2013-07-22T10:33:46Z</time>
      </trkpt>
      <trkpt lat="46.69677" lon="5.78643">
        <ele>508.19</ele>
        <time>2013-07-22T10:33:52Z</time>
      </trkpt>
      <trkpt lat="46.6967" lon="5.7864">
        <ele>508.67</ele>
        <time>2013-07-22T10:33:53Z</time>
      </trkpt>
      <trkpt lat="46.69553" lon="5.78597">
        <ele>507.71</ele>
        <time>2013-07-22T10:34:10Z</time>
      </trkpt>
      <trkpt lat="46.69451" lon="5.78565">
        <ele>506.75</ele>
        <time>2013-07-22T10:34:26Z</time>
      </trkpt>
      <trkpt lat="46.69366" lon="5.78538">
        <ele>507.23</ele>
        <time>2013-07-22T10:34:40Z</time>
      </trkpt>
      <trkpt lat="46.69351" lon="5.7853">
        <ele>506.75</ele>
        <time>2013-07-22T10:34:43Z</time>
      </trkpt>
      <trkpt lat="46.69328" lon="5.78489">
        <ele>506.75</ele>
        <time>2013-07-22T10:34:50Z</time>
      </trkpt>
      <trkpt lat="46.6927" lon="5.78417">
        <ele>509.64</ele>
        <time>2013-07-22T10:35:08Z</time>
      </trkpt>
      <trkpt lat="46.69217" lon="5.78353">
        <ele>511.56</ele>
        <time>2013-07-22T10:35:26Z</time>
      </trkpt>
      <trkpt lat="46.69176" lon="5.78304">
        <ele>514.44</ele>
        <time>2013-07-22T10:35:40Z</time>
      </trkpt>
      <trkpt lat="46.69128" lon="5.78245">
        <ele>515.4</ele>
        <time>2013-07-22T10:35:58Z</time>
      </trkpt>
      <trkpt lat="46.69081" lon="5.7819">
        <ele>517.81</ele>
        <time>2013-07-22T10:36:15Z</time>
      </trkpt>
      <trkpt lat="46.69028" lon="5.78151">
        <ele>519.25</ele>
        <time>2013-07-22T10:36:33Z</time>
      </trkpt>
      <trkpt lat="46.68999" lon="5.78156">
        <ele>520.21</ele>
        <time>2013-07-22T10:36:42Z</time>
      </trkpt>
      <trkpt lat="46.68955" lon="5.78202">
        <ele>521.65</ele>
        <time>2013-07-22T10:36:57Z</time>
      </trkpt>
      <trkpt lat="46.68915" lon="5.78251">
        <ele>522.61</ele>
        <time>2013-07-22T10:37:11Z</time>
      </trkpt>
      <trkpt lat="46.68869" lon="5.78296">
        <ele>524.54</ele>
        <time>2013-07-22T10:37:26Z</time>
      </trkpt>
      <trkpt lat="46.68816" lon="5.78332">
        <ele>527.42</ele>
        <time>2013-07-22T10:37:43Z</time>
      </trkpt>
      <trkpt lat="46.68765" lon="5.78368">
        <ele>529.34</ele>
        <time>2013-07-22T10:38:00Z</time>
      </trkpt>
      <trkpt lat="46.68721" lon="5.78405">
        <ele>530.3</ele>
        <time>2013-07-22T10:38:16Z</time>
      </trkpt>
      <trkpt lat="46.68678" lon="5.78434">
        <ele>533.19</ele>
        <time>2013-07-22T10:38:32Z</time>
      </trkpt>
      <trkpt lat="46.68629" lon="5.78444">
        <ele>534.15</ele>
        <time>2013-07-22T10:38:49Z</time>
      </trkpt>
      <trkpt lat="46.68585" lon="5.78422">
        <ele>534.63</ele>
        <time>2013-07-22T10:39:04Z</time>
      </trkpt>
      <trkpt lat="46.68536" lon="5.7838">
        <ele>535.11</ele>
        <time>2013-07-22T10:39:20Z</time>
      </trkpt>
      <trkpt lat="46.68493" lon="5.78357">
        <ele>534.63</ele>
        <time>2013-07-22T10:39:32Z</time>
      </trkpt>
      <trkpt lat="46.68457" lon="5.78342">
        <ele>534.63</ele>
        <time>2013-07-22T10:39:41Z</time>
      </trkpt>
      <trkpt lat="46.68419" lon="5.78321">
        <ele>534.63</ele>
        <time>2013-07-22T10:39:51Z</time>
      </trkpt>
      <trkpt lat="46.68355" lon="5.78285">
        <ele>534.63</ele>
        <time>2013-07-22T10:40:08Z</time>
      </trkpt>
      <trkpt lat="46.6829" lon="5.78259">
        <ele>534.63</ele>
        <time>2013-07-22T10:40:24Z</time>
      </trkpt>
      <trkpt lat="46.68283" lon="5.78254">
        <ele>534.15</ele>
        <time>2013-07-22T10:40:28Z</time>
      </trkpt>
      <trkpt lat="46.68268" lon="5.78277">
        <ele>534.63</ele>
        <time>2013-07-22T10:40:39Z</time>
      </trkpt>
      <trkpt lat="46.68266" lon="5.7828">
        <ele>535.11</ele>
        <time>2013-07-22T10:40:40Z</time>
      </trkpt>
      <trkpt lat="46.68242" lon="5.78325">
        <ele>535.11</ele>
        <time>2013-07-22T10:40:53Z</time>
      </trkpt>
      <trkpt lat="46.6821" lon="5.78359">
        <ele>535.59</ele>
        <time>2013-07-22T10:41:06Z</time>
      </trkpt>
      <trkpt lat="46.68211" lon="5.78408">
        <ele>536.07</ele>
        <time>2013-07-22T10:41:17Z</time>
      </trkpt>
      <trkpt lat="46.68213" lon="5.7848">
        <ele>535.59</ele>
        <time>2013-07-22T10:41:32Z</time>
      </trkpt>
      <trkpt lat="46.68196" lon="5.78532">
        <ele>536.55</ele>
        <time>2013-07-22T10:41:46Z</time>
      </trkpt>
      <trkpt lat="46.68172" lon="5.7852">
        <ele>537.03</ele>
        <time>2013-07-22T10:41:54Z</time>
      </trkpt>
      <trkpt lat="46.6816" lon="5.7853">
        <ele>537.03</ele>
        <time>2013-07-22T10:41:59Z</time>
      </trkpt>
      <trkpt lat="46.68124" lon="5.78562">
        <ele>536.55</ele>
        <time>2013-07-22T10:42:13Z</time>
      </trkpt>
      <trkpt lat="46.68105" lon="5.7857">
        <ele>535.59</ele>
        <time>2013-07-22T10:42:26Z</time>
      </trkpt>
      <trkpt lat="46.68102" lon="5.78561">
        <ele>535.59</ele>
        <time>2013-07-22T10:42:30Z</time>
      </trkpt>
      <trkpt lat="46.68103" lon="5.78554">
        <ele>535.11</ele>
        <time>2013-07-22T10:42:33Z</time>
      </trkpt>
      <trkpt lat="46.68105" lon="5.7857">
        <ele>536.07</ele>
        <time>2013-07-22T10:42:43Z</time>
      </trkpt>
      <trkpt lat="46.68101" lon="5.7856">
        <ele>535.59</ele>
        <time>2013-07-22T10:42:49Z</time>
      </trkpt>
      <trkpt lat="46.68101" lon="5.78504">
        <ele>536.07</ele>
        <time>2013-07-22T10:43:02Z</time>
      </trkpt>
      <trkpt lat="46.68116" lon="5.78414">
        <ele>536.07</ele>
        <time>2013-07-22T10:43:19Z</time>
      </trkpt>
      <trkpt lat="46.68128" lon="5.7835">
        <ele>535.11</ele>
        <time>2013-07-22T10:43:33Z</time>
      </trkpt>
      <trkpt lat="46.68143" lon="5.78326">
        <ele>535.59</ele>
        <time>2013-07-22T10:43:43Z</time>
      </trkpt>
      <trkpt lat="46.68165" lon="5.7828">
        <ele>535.11</ele>
        <time>2013-07-22T10:43:55Z</time>
      </trkpt>
      <trkpt lat="46.68177" lon="5.78251">
        <ele>533.67</ele>
        <time>2013-07-22T10:44:01Z</time>
      </trkpt>
      <trkpt lat="46.68167" lon="5.78195">
        <ele>531.27</ele>
        <time>2013-07-22T10:44:09Z</time>
      </trkpt>
      <trkpt lat="46.68155" lon="5.78184">
        <ele>530.3</ele>
        <time>2013-07-22T10:44:11Z</time>
      </trkpt>
      <trkpt lat="46.68141" lon="5.78159">
        <ele>527.9</ele>
        <time>2013-07-22T10:44:14Z</time>
      </trkpt>
      <trkpt lat="46.68138" lon="5.78148">
        <ele>527.9</ele>
        <time>2013-07-22T10:44:15Z</time>
      </trkpt>
      <trkpt lat="46.68124" lon="5.78072">
        <ele>523.58</ele>
        <time>2013-07-22T10:44:21Z</time>
      </trkpt>
      <trkpt lat="46.68109" lon="5.78017">
        <ele>519.73</ele>
        <time>2013-07-22T10:44:25Z</time>
      </trkpt>
      <trkpt lat="46.681" lon="5.77985">
        <ele>516.85</ele>
        <time>2013-07-22T10:44:28Z</time>
      </trkpt>
      <trkpt lat="46.68093" lon="5.77958">
        <ele>513.48</ele>
        <time>2013-07-22T10:44:32Z</time>
      </trkpt>
      <trkpt lat="46.68091" lon="5.77951">
        <ele>512.52</ele>
        <time>2013-07-22T10:44:34Z</time>
      </trkpt>
      <trkpt lat="46.68087" lon="5.77944">
        <ele>512.04</ele>
        <time>2013-07-22T10:44:37Z</time>
      </trkpt>
      <trkpt lat="46.68084" lon="5.77947">
        <ele>512.04</ele>
        <time>2013-07-22T10:44:39Z</time>
      </trkpt>
      <trkpt lat="46.68074" lon="5.77938">
        <ele>511.08</ele>
        <time>2013-07-22T10:44:43Z</time>
      </trkpt>
      <trkpt lat="46.68057" lon="5.77921">
        <ele>509.64</ele>
        <time>2013-07-22T10:44:47Z</time>
      </trkpt>
      <trkpt lat="46.68032" lon="5.7793">
        <ele>507.71</ele>
        <time>2013-07-22T10:44:51Z</time>
      </trkpt>
      <trkpt lat="46.67975" lon="5.77979">
        <ele>507.71</ele>
        <time>2013-07-22T10:45:03Z</time>
      </trkpt>
      <trkpt lat="46.67943" lon="5.77994">
        <ele>509.16</ele>
        <time>2013-07-22T10:45:15Z</time>
      </trkpt>
      <trkpt lat="46.67923" lon="5.78021">
        <ele>509.64</ele>
        <time>2013-07-22T10:45:25Z</time>
      </trkpt>
      <trkpt lat="46.67905" lon="5.78073">
        <ele>511.08</ele>
        <time>2013-07-22T10:45:37Z</time>
      </trkpt>
      <trkpt lat="46.679" lon="5.78124">
        <ele>512.52</ele>
        <time>2013-07-22T10:45:50Z</time>
      </trkpt>
      <trkpt lat="46.67902" lon="5.78173">
        <ele>513.96</ele>
        <time>2013-07-22T10:46:02Z</time>
      </trkpt>
      <trkpt lat="46.67891" lon="5.78224">
        <ele>516.37</ele>
        <time>2013-07-22T10:46:17Z</time>
      </trkpt>
      <trkpt lat="46.67875" lon="5.78263">
        <ele>519.73</ele>
        <time>2013-07-22T10:46:32Z</time>
      </trkpt>
      <trkpt lat="46.67849" lon="5.78285">
        <ele>521.65</ele>
        <time>2013-07-22T10:46:46Z</time>
      </trkpt>
      <trkpt lat="46.67824" lon="5.78311">
        <ele>524.54</ele>
        <time>2013-07-22T10:47:00Z</time>
      </trkpt>
      <trkpt lat="46.67805" lon="5.78341">
        <ele>526.46</ele>
        <time>2013-07-22T10:47:14Z</time>
      </trkpt>
      <trkpt lat="46.67777" lon="5.78388">
        <ele>526.94</ele>
        <time>2013-07-22T10:47:31Z</time>
      </trkpt>
      <trkpt lat="46.67754" lon="5.78452">
        <ele>527.42</ele>
        <time>2013-07-22T10:47:48Z</time>
      </trkpt>
      <trkpt lat="46.67739" lon="5.78508">
        <ele>527.9</ele>
        <time>2013-07-22T10:48:02Z</time>
      </trkpt>
      <trkpt lat="46.67729" lon="5.78579">
        <ele>528.86</ele>
        <time>2013-07-22T10:48:17Z</time>
      </trkpt>
      <trkpt lat="46.67723" lon="5.7866">
        <ele>529.34</ele>
        <time>2013-07-22T10:48:33Z</time>
      </trkpt>
      <trkpt lat="46.67717" lon="5.78735">
        <ele>529.82</ele>
        <time>2013-07-22T10:48:47Z</time>
      </trkpt>
      <trkpt lat="46.67714" lon="5.78781">
        <ele>531.75</ele>
        <time>2013-07-22T10:49:01Z</time>
      </trkpt>
      <trkpt lat="46.67712" lon="5.78793">
        <ele>532.71</ele>
        <time>2013-07-22T10:49:05Z</time>
      </trkpt>
      <trkpt lat="46.67697" lon="5.78839">
        <ele>533.19</ele>
        <time>2013-07-22T10:49:17Z</time>
      </trkpt>
      <trkpt lat="46.67677" lon="5.78879">
        <ele>532.23</ele>
        <time>2013-07-22T10:49:25Z</time>
      </trkpt>
      <trkpt lat="46.67671" lon="5.78888">
        <ele>532.23</ele>
        <time>2013-07-22T10:49:27Z</time>
      </trkpt>
      <trkpt lat="46.67647" lon="5.78939">
        <ele>532.71</ele>
        <time>2013-07-22T10:49:38Z</time>
      </trkpt>
      <trkpt lat="46.67617" lon="5.79011">
        <ele>532.23</ele>
        <time>2013-07-22T10:49:51Z</time>
      </trkpt>
      <trkpt lat="46.67596" lon="5.79052">
        <ele>531.75</ele>
        <time>2013-07-22T10:50:01Z</time>
      </trkpt>
      <trkpt lat="46.67582" lon="5.79069">
        <ele>531.75</ele>
        <time>2013-07-22T10:50:05Z</time>
      </trkpt>
      <trkpt lat="46.67567" lon="5.79112">
        <ele>530.3</ele>
        <time>2013-07-22T10:50:10Z</time>
      </trkpt>
      <trkpt lat="46.67562" lon="5.79127">
        <ele>529.82</ele>
        <time>2013-07-22T10:50:12Z</time>
      </trkpt>
      <trkpt lat="46.6754" lon="5.79212">
        <ele>531.27</ele>
        <time>2013-07-22T10:50:27Z</time>
      </trkpt>
      <trkpt lat="46.67531" lon="5.79263">
        <ele>533.67</ele>
        <time>2013-07-22T10:50:41Z</time>
      </trkpt>
      <trkpt lat="46.6753" lon="5.79269">
        <ele>533.67</ele>
        <time>2013-07-22T10:50:43Z</time>
      </trkpt>
      <trkpt lat="46.67523" lon="5.79282">
        <ele>534.15</ele>
        <time>2013-07-22T10:50:49Z</time>
      </trkpt>
      <trkpt lat="46.67512" lon="5.79315">
        <ele>534.15</ele>
        <time>2013-07-22T10:51:00Z</time>
      </trkpt>
      <trkpt lat="46.67509" lon="5.79334">
        <ele>534.63</ele>
        <time>2013-07-22T10:51:04Z</time>
      </trkpt>
      <trkpt lat="46.67504" lon="5.79354">
        <ele>535.11</ele>
        <time>2013-07-22T10:51:10Z</time>
      </trkpt>
      <trkpt lat="46.67502" lon="5.79405">
        <ele>537.99</ele>
        <time>2013-07-22T10:51:25Z</time>
      </trkpt>
      <trkpt lat="46.67496" lon="5.79431">
        <ele>540.4</ele>
        <time>2013-07-22T10:51:38Z</time>
      </trkpt>
      <trkpt lat="46.67495" lon="5.79437">
        <ele>540.88</ele>
        <time>2013-07-22T10:51:41Z</time>
      </trkpt>
      <trkpt lat="46.67493" lon="5.79453">
        <ele>542.8</ele>
        <time>2013-07-22T10:51:53Z</time>
      </trkpt>
      <trkpt lat="46.67491" lon="5.79462">
        <ele>542.32</ele>
        <time>2013-07-22T10:52:11Z</time>
      </trkpt>
      <trkpt lat="46.67479" lon="5.7946">
        <ele>540.88</ele>
        <time>2013-07-22T10:52:15Z</time>
      </trkpt>
      <trkpt lat="46.67454" lon="5.79459">
        <ele>537.51</ele>
        <time>2013-07-22T10:52:20Z</time>
      </trkpt>
      <trkpt lat="46.67449" lon="5.79458">
        <ele>535.59</ele>
        <time>2013-07-22T10:52:21Z</time>
      </trkpt>
      <trkpt lat="46.67439" lon="5.7946">
        <ele>533.67</ele>
        <time>2013-07-22T10:52:23Z</time>
      </trkpt>
      <trkpt lat="46.67417" lon="5.79477">
        <ele>531.27</ele>
        <time>2013-07-22T10:52:27Z</time>
      </trkpt>
      <trkpt lat="46.67412" lon="5.79481">
        <ele>531.27</ele>
        <time>2013-07-22T10:52:28Z</time>
      </trkpt>
      <trkpt lat="46.67397" lon="5.79491">
        <ele>529.82</ele>
        <time>2013-07-22T10:52:31Z</time>
      </trkpt>
      <trkpt lat="46.67386" lon="5.79496">
        <ele>527.42</ele>
        <time>2013-07-22T10:52:38Z</time>
      </trkpt>
      <trkpt lat="46.6738" lon="5.79501">
        <ele>527.42</ele>
        <time>2013-07-22T10:52:43Z</time>
      </trkpt>
      <trkpt lat="46.67377" lon="5.79503">
        <ele>525.98</ele>
        <time>2013-07-22T10:52:45Z</time>
      </trkpt>
      <trkpt lat="46.67365" lon="5.79517">
        <ele>522.61</ele>
        <time>2013-07-22T10:52:53Z</time>
      </trkpt>
      <trkpt lat="46.67359" lon="5.79521">
        <ele>522.13</ele>
        <time>2013-07-22T10:52:55Z</time>
      </trkpt>
      <trkpt lat="46.67348" lon="5.79532">
        <ele>521.17</ele>
        <time>2013-07-22T10:52:59Z</time>
      </trkpt>
      <trkpt lat="46.6734" lon="5.79553">
        <ele>518.29</ele>
        <time>2013-07-22T10:53:12Z</time>
      </trkpt>
      <trkpt lat="46.67333" lon="5.79565">
        <ele>516.37</ele>
        <time>2013-07-22T10:53:20Z</time>
      </trkpt>
      <trkpt lat="46.67331" lon="5.79585">
        <ele>515.4</ele>
        <time>2013-07-22T10:53:27Z</time>
      </trkpt>
      <trkpt lat="46.67331" lon="5.7959">
        <ele>515.4</ele>
        <time>2013-07-22T10:53:29Z</time>
      </trkpt>
      <trkpt lat="46.67324" lon="5.79609">
        <ele>513</ele>
        <time>2013-07-22T10:53:35Z</time>
      </trkpt>
      <trkpt lat="46.67325" lon="5.79666">
        <ele>513.48</ele>
        <time>2013-07-22T10:53:46Z</time>
      </trkpt>
      <trkpt lat="46.67324" lon="5.7971">
        <ele>510.12</ele>
        <time>2013-07-22T10:53:54Z</time>
      </trkpt>
      <trkpt lat="46.67324" lon="5.79715">
        <ele>514.44</ele>
        <time>2013-07-22T10:53:55Z</time>
      </trkpt>
      <trkpt lat="46.6732" lon="5.7975">
        <ele>514.44</ele>
        <time>2013-07-22T10:54:02Z</time>
      </trkpt>
      <trkpt lat="46.67316" lon="5.7982">
        <ele>514.44</ele>
        <time>2013-07-22T10:54:15Z</time>
      </trkpt>
      <trkpt lat="46.67317" lon="5.79874">
        <ele>514.92</ele>
        <time>2013-07-22T10:54:25Z</time>
      </trkpt>
      <trkpt lat="46.67317" lon="5.79884">
        <ele>514.92</ele>
        <time>2013-07-22T10:54:27Z</time>
      </trkpt>
      <trkpt lat="46.67313" lon="5.79947">
        <ele>515.4</ele>
        <time>2013-07-22T10:54:39Z</time>
      </trkpt>
      <trkpt lat="46.67312" lon="5.79999">
        <ele>514.92</ele>
        <time>2013-07-22T10:54:49Z</time>
      </trkpt>
      <trkpt lat="46.67306" lon="5.80064">
        <ele>514.92</ele>
        <time>2013-07-22T10:55:00Z</time>
      </trkpt>
      <trkpt lat="46.67306" lon="5.8012">
        <ele>516.37</ele>
        <time>2013-07-22T10:55:10Z</time>
      </trkpt>
      <trkpt lat="46.67297" lon="5.80179">
        <ele>516.37</ele>
        <time>2013-07-22T10:55:21Z</time>
      </trkpt>
      <trkpt lat="46.67283" lon="5.80246">
        <ele>515.88</ele>
        <time>2013-07-22T10:55:32Z</time>
      </trkpt>
      <trkpt lat="46.67262" lon="5.80311">
        <ele>515.4</ele>
        <time>2013-07-22T10:55:43Z</time>
      </trkpt>
      <trkpt lat="46.67257" lon="5.8033">
        <ele>515.88</ele>
        <time>2013-07-22T10:55:46Z</time>
      </trkpt>
      <trkpt lat="46.67235" lon="5.80414">
        <ele>515.88</ele>
        <time>2013-07-22T10:55:59Z</time>
      </trkpt>
      <trkpt lat="46.67228" lon="5.80437">
        <ele>515.4</ele>
        <time>2013-07-22T10:56:03Z</time>
      </trkpt>
      <trkpt lat="46.67219" lon="5.80477">
        <ele>514.92</ele>
        <time>2013-07-22T10:56:14Z</time>
      </trkpt>
      <trkpt lat="46.67217" lon="5.80486">
        <ele>515.4</ele>
        <time>2013-07-22T10:56:37Z</time>
      </trkpt>
      <trkpt lat="46.67222" lon="5.80491">
        <ele>515.4</ele>
        <time>2013-07-22T10:57:03Z</time>
      </trkpt>
      <trkpt lat="46.67224" lon="5.80496">
        <ele>516.37</ele>
        <time>2013-07-22T10:57:12Z</time>
      </trkpt>
      <trkpt lat="46.67227" lon="5.80497">
        <ele>515.88</ele>
        <time>2013-07-22T10:57:27Z</time>
      </trkpt>
      <trkpt lat="46.67224" lon="5.80484">
        <ele>515.88</ele>
        <time>2013-07-22T10:57:49Z</time>
      </trkpt>
      <trkpt lat="46.6722" lon="5.80481">
        <ele>515.88</ele>
        <time>2013-07-22T10:58:16Z</time>
      </trkpt>
      <trkpt lat="46.67225" lon="5.80485">
        <ele>515.88</ele>
        <time>2013-07-22T10:58:54Z</time>
      </trkpt>
      <trkpt lat="46.67231" lon="5.80485">
        <ele>515.88</ele>
        <time>2013-07-22T10:59:35Z</time>
      </trkpt>
      <trkpt lat="46.67226" lon="5.80474">
        <ele>516.37</ele>
        <time>2013-07-22T11:00:04Z</time>
      </trkpt>
      <trkpt lat="46.67226" lon="5.80465">
        <ele>516.37</ele>
        <time>2013-07-22T11:00:08Z</time>
      </trkpt>
      <trkpt lat="46.67241" lon="5.80425">
        <ele>517.33</ele>
        <time>2013-07-22T11:00:19Z</time>
      </trkpt>
      <trkpt lat="46.67254" lon="5.80366">
        <ele>516.85</ele>
        <time>2013-07-22T11:00:30Z</time>
      </trkpt>
      <trkpt lat="46.67268" lon="5.80315">
        <ele>516.85</ele>
        <time>2013-07-22T11:00:39Z</time>
      </trkpt>
      <trkpt lat="46.67281" lon="5.80273">
        <ele>517.81</ele>
        <time>2013-07-22T11:00:46Z</time>
      </trkpt>
      <trkpt lat="46.67294" lon="5.8022">
        <ele>517.81</ele>
        <time>2013-07-22T11:00:55Z</time>
      </trkpt>
      <trkpt lat="46.67306" lon="5.80145">
        <ele>518.29</ele>
        <time>2013-07-22T11:01:08Z</time>
      </trkpt>
      <trkpt lat="46.67309" lon="5.80127">
        <ele>517.81</ele>
        <time>2013-07-22T11:01:11Z</time>
      </trkpt>
      <trkpt lat="46.6731" lon="5.80077">
        <ele>516.85</ele>
        <time>2013-07-22T11:01:18Z</time>
      </trkpt>
      <trkpt lat="46.67315" lon="5.80012">
        <ele>516.37</ele>
        <time>2013-07-22T11:01:27Z</time>
      </trkpt>
      <trkpt lat="46.67317" lon="5.79981">
        <ele>516.85</ele>
        <time>2013-07-22T11:01:31Z</time>
      </trkpt>
      <trkpt lat="46.67321" lon="5.79909">
        <ele>516.37</ele>
        <time>2013-07-22T11:01:41Z</time>
      </trkpt>
      <trkpt lat="46.67322" lon="5.79895">
        <ele>516.37</ele>
        <time>2013-07-22T11:01:43Z</time>
      </trkpt>
      <trkpt lat="46.67322" lon="5.79883">
        <ele>516.37</ele>
        <time>2013-07-22T11:01:45Z</time>
      </trkpt>
      <trkpt lat="46.67323" lon="5.79819">
        <ele>515.88</ele>
        <time>2013-07-22T11:01:54Z</time>
      </trkpt>
      <trkpt lat="46.67323" lon="5.79796">
        <ele>516.37</ele>
        <time>2013-07-22T11:01:57Z</time>
      </trkpt>
      <trkpt lat="46.67325" lon="5.79711">
        <ele>516.37</ele>
        <time>2013-07-22T11:02:08Z</time>
      </trkpt>
      <trkpt lat="46.67325" lon="5.79695">
        <ele>515.88</ele>
        <time>2013-07-22T11:02:10Z</time>
      </trkpt>
      <trkpt lat="46.67323" lon="5.79679">
        <ele>515.88</ele>
        <time>2013-07-22T11:02:12Z</time>
      </trkpt>
      <trkpt lat="46.67328" lon="5.79555">
        <ele>514.92</ele>
        <time>2013-07-22T11:02:27Z</time>
      </trkpt>
      <trkpt lat="46.6733" lon="5.7954">
        <ele>514.92</ele>
        <time>2013-07-22T11:02:29Z</time>
      </trkpt>
      <trkpt lat="46.67334" lon="5.79511">
        <ele>515.4</ele>
        <time>2013-07-22T11:02:33Z</time>
      </trkpt>
      <trkpt lat="46.67338" lon="5.79497">
        <ele>514.92</ele>
        <time>2013-07-22T11:02:35Z</time>
      </trkpt>
      <trkpt lat="46.67361" lon="5.79444">
        <ele>514.92</ele>
        <time>2013-07-22T11:02:47Z</time>
      </trkpt>
      <trkpt lat="46.67373" lon="5.79426">
        <ele>514.92</ele>
        <time>2013-07-22T11:02:51Z</time>
      </trkpt>
      <trkpt lat="46.67379" lon="5.79416">
        <ele>514.44</ele>
        <time>2013-07-22T11:02:53Z</time>
      </trkpt>
      <trkpt lat="46.67385" lon="5.79406">
        <ele>514.44</ele>
        <time>2013-07-22T11:02:55Z</time>
      </trkpt>
      <trkpt lat="46.67397" lon="5.79385">
        <ele>514.92</ele>
        <time>2013-07-22T11:02:59Z</time>
      </trkpt>
      <trkpt lat="46.67407" lon="5.79363">
        <ele>515.4</ele>
        <time>2013-07-22T11:03:03Z</time>
      </trkpt>
      <trkpt lat="46.67413" lon="5.79347">
        <ele>514.92</ele>
        <time>2013-07-22T11:03:06Z</time>
      </trkpt>
      <trkpt lat="46.67417" lon="5.79328">
        <ele>514.92</ele>
        <time>2013-07-22T11:03:09Z</time>
      </trkpt>
      <trkpt lat="46.67427" lon="5.793">
        <ele>514.44</ele>
        <time>2013-07-22T11:03:13Z</time>
      </trkpt>
      <trkpt lat="46.67431" lon="5.79287">
        <ele>514.44</ele>
        <time>2013-07-22T11:03:15Z</time>
      </trkpt>
      <trkpt lat="46.67435" lon="5.79273">
        <ele>514.44</ele>
        <time>2013-07-22T11:03:17Z</time>
      </trkpt>
      <trkpt lat="46.67451" lon="5.79214">
        <ele>513.96</ele>
        <time>2013-07-22T11:03:28Z</time>
      </trkpt>
      <trkpt lat="46.67452" lon="5.79211">
        <ele>514.44</ele>
        <time>2013-07-22T11:03:29Z</time>
      </trkpt>
      <trkpt lat="46.67449" lon="5.79203">
        <ele>513</ele>
        <time>2013-07-22T11:03:33Z</time>
      </trkpt>
      <trkpt lat="46.67441" lon="5.79195">
        <ele>511.08</ele>
        <time>2013-07-22T11:03:36Z</time>
      </trkpt>
      <trkpt lat="46.67435" lon="5.79185">
        <ele>510.6</ele>
        <time>2013-07-22T11:03:46Z</time>
      </trkpt>
      <trkpt lat="46.67428" lon="5.79183">
        <ele>508.19</ele>
        <time>2013-07-22T11:03:59Z</time>
      </trkpt>
      <trkpt lat="46.6743" lon="5.79186">
        <ele>509.16</ele>
        <time>2013-07-22T11:04:10Z</time>
      </trkpt>
      <trkpt lat="46.67433" lon="5.79183">
        <ele>510.6</ele>
        <time>2013-07-22T11:04:21Z</time>
      </trkpt>
      <trkpt lat="46.67447" lon="5.79194">
        <ele>512.52</ele>
        <time>2013-07-22T11:04:34Z</time>
      </trkpt>
      <trkpt lat="46.67452" lon="5.79198">
        <ele>513.96</ele>
        <time>2013-07-22T11:04:41Z</time>
      </trkpt>
      <trkpt lat="46.67464" lon="5.79204">
        <ele>517.33</ele>
        <time>2013-07-22T11:04:53Z</time>
      </trkpt>
      <trkpt lat="46.67474" lon="5.7921">
        <ele>519.73</ele>
        <time>2013-07-22T11:05:08Z</time>
      </trkpt>
      <trkpt lat="46.67484" lon="5.79207">
        <ele>520.21</ele>
        <time>2013-07-22T11:05:20Z</time>
      </trkpt>
      <trkpt lat="46.67491" lon="5.79187">
        <ele>521.17</ele>
        <time>2013-07-22T11:05:30Z</time>
      </trkpt>
      <trkpt lat="46.67514" lon="5.79153">
        <ele>522.61</ele>
        <time>2013-07-22T11:05:48Z</time>
      </trkpt>
      <trkpt lat="46.67517" lon="5.79149">
        <ele>522.61</ele>
        <time>2013-07-22T11:05:51Z</time>
      </trkpt>
      <trkpt lat="46.67527" lon="5.79143">
        <ele>524.54</ele>
        <time>2013-07-22T11:05:59Z</time>
      </trkpt>
      <trkpt lat="46.67535" lon="5.79135">
        <ele>526.94</ele>
        <time>2013-07-22T11:06:06Z</time>
      </trkpt>
      <trkpt lat="46.67552" lon="5.79112">
        <ele>527.42</ele>
        <time>2013-07-22T11:06:22Z</time>
      </trkpt>
      <trkpt lat="46.67573" lon="5.79089">
        <ele>530.3</ele>
        <time>2013-07-22T11:06:38Z</time>
      </trkpt>
      <trkpt lat="46.67585" lon="5.79073">
        <ele>531.27</ele>
        <time>2013-07-22T11:06:49Z</time>
      </trkpt>
      <trkpt lat="46.67596" lon="5.79071">
        <ele>533.19</ele>
        <time>2013-07-22T11:06:58Z</time>
      </trkpt>
      <trkpt lat="46.67596" lon="5.79069">
        <ele>534.15</ele>
        <time>2013-07-22T11:06:59Z</time>
      </trkpt>
      <trkpt lat="46.67602" lon="5.7906">
        <ele>534.15</ele>
        <time>2013-07-22T11:07:04Z</time>
      </trkpt>
      <trkpt lat="46.67607" lon="5.79055">
        <ele>533.67</ele>
        <time>2013-07-22T11:07:07Z</time>
      </trkpt>
      <trkpt lat="46.67611" lon="5.79053">
        <ele>534.15</ele>
        <time>2013-07-22T11:07:10Z</time>
      </trkpt>
      <trkpt lat="46.67616" lon="5.7904">
        <ele>534.63</ele>
        <time>2013-07-22T11:07:17Z</time>
      </trkpt>
      <trkpt lat="46.67632" lon="5.79004">
        <ele>534.15</ele>
        <time>2013-07-22T11:07:30Z</time>
      </trkpt>
      <trkpt lat="46.67647" lon="5.78967">
        <ele>533.67</ele>
        <time>2013-07-22T11:07:39Z</time>
      </trkpt>
      <trkpt lat="46.67666" lon="5.78925">
        <ele>534.15</ele>
        <time>2013-07-22T11:07:52Z</time>
      </trkpt>
      <trkpt lat="46.67667" lon="5.78923">
        <ele>533.19</ele>
        <time>2013-07-22T11:08:02Z</time>
      </trkpt>
      <trkpt lat="46.6767" lon="5.78918">
        <ele>534.15</ele>
        <time>2013-07-22T11:08:14Z</time>
      </trkpt>
      <trkpt lat="46.67673" lon="5.78918">
        <ele>534.15</ele>
        <time>2013-07-22T11:08:51Z</time>
      </trkpt>
      <trkpt lat="46.67672" lon="5.78915">
        <ele>534.15</ele>
        <time>2013-07-22T11:09:26Z</time>
      </trkpt>
      <trkpt lat="46.6767" lon="5.78917">
        <ele>533.67</ele>
        <time>2013-07-22T11:10:03Z</time>
      </trkpt>
      <trkpt lat="46.67671" lon="5.78918">
        <ele>533.67</ele>
        <time>2013-07-22T11:10:31Z</time>
      </trkpt>
      <trkpt lat="46.67673" lon="5.78915">
        <ele>534.15</ele>
        <time>2013-07-22T11:11:00Z</time>
      </trkpt>
      <trkpt lat="46.67672" lon="5.78916">
        <ele>533.19</ele>
        <time>2013-07-22T11:11:42Z</time>
      </trkpt>
      <trkpt lat="46.67671" lon="5.78915">
        <ele>533.19</ele>
        <time>2013-07-22T11:12:25Z</time>
      </trkpt>
      <trkpt lat="46.67671" lon="5.78912">
        <ele>533.19</ele>
        <time>2013-07-22T11:12:30Z</time>
      </trkpt>
      <trkpt lat="46.67675" lon="5.78902">
        <ele>532.71</ele>
        <time>2013-07-22T11:12:35Z</time>
      </trkpt>
      <trkpt lat="46.67699" lon="5.7885">
        <ele>533.19</ele>
        <time>2013-07-22T11:12:50Z</time>
      </trkpt>
      <trkpt lat="46.67714" lon="5.78812">
        <ele>533.19</ele>
        <time>2013-07-22T11:13:01Z</time>
      </trkpt>
      <trkpt lat="46.6772" lon="5.78758">
        <ele>532.23</ele>
        <time>2013-07-22T11:13:12Z</time>
      </trkpt>
      <trkpt lat="46.6772" lon="5.78727">
        <ele>531.75</ele>
        <time>2013-07-22T11:13:16Z</time>
      </trkpt>
      <trkpt lat="46.67725" lon="5.78691">
        <ele>530.79</ele>
        <time>2013-07-22T11:13:20Z</time>
      </trkpt>
      <trkpt lat="46.67729" lon="5.78587">
        <ele>529.82</ele>
        <time>2013-07-22T11:13:34Z</time>
      </trkpt>
      <trkpt lat="46.67736" lon="5.78527">
        <ele>529.34</ele>
        <time>2013-07-22T11:13:42Z</time>
      </trkpt>
      <trkpt lat="46.67748" lon="5.78484">
        <ele>529.34</ele>
        <time>2013-07-22T11:13:48Z</time>
      </trkpt>
      <trkpt lat="46.67765" lon="5.7842">
        <ele>527.9</ele>
        <time>2013-07-22T11:13:56Z</time>
      </trkpt>
      <trkpt lat="46.67781" lon="5.78384">
        <ele>527.9</ele>
        <time>2013-07-22T11:14:01Z</time>
      </trkpt>
      <trkpt lat="46.67795" lon="5.7836">
        <ele>527.42</ele>
        <time>2013-07-22T11:14:05Z</time>
      </trkpt>
      <trkpt lat="46.67813" lon="5.78328">
        <ele>526.94</ele>
        <time>2013-07-22T11:14:10Z</time>
      </trkpt>
      <trkpt lat="46.67833" lon="5.78304">
        <ele>525.5</ele>
        <time>2013-07-22T11:14:14Z</time>
      </trkpt>
      <trkpt lat="46.67861" lon="5.78279">
        <ele>522.61</ele>
        <time>2013-07-22T11:14:18Z</time>
      </trkpt>
      <trkpt lat="46.67878" lon="5.78259">
        <ele>520.69</ele>
        <time>2013-07-22T11:14:21Z</time>
      </trkpt>
      <trkpt lat="46.67883" lon="5.78249">
        <ele>520.21</ele>
        <time>2013-07-22T11:14:22Z</time>
      </trkpt>
      <trkpt lat="46.67903" lon="5.7818">
        <ele>515.4</ele>
        <time>2013-07-22T11:14:28Z</time>
      </trkpt>
      <trkpt lat="46.67904" lon="5.781">
        <ele>511.56</ele>
        <time>2013-07-22T11:14:35Z</time>
      </trkpt>
      <trkpt lat="46.67913" lon="5.78053">
        <ele>510.6</ele>
        <time>2013-07-22T11:14:40Z</time>
      </trkpt>
      <trkpt lat="46.67928" lon="5.7802">
        <ele>510.12</ele>
        <time>2013-07-22T11:14:44Z</time>
      </trkpt>
      <trkpt lat="46.67938" lon="5.78002">
        <ele>509.16</ele>
        <time>2013-07-22T11:14:47Z</time>
      </trkpt>
      <trkpt lat="46.67933" lon="5.77989">
        <ele>508.67</ele>
        <time>2013-07-22T11:14:51Z</time>
      </trkpt>
      <trkpt lat="46.67895" lon="5.77994">
        <ele>509.64</ele>
        <time>2013-07-22T11:15:02Z</time>
      </trkpt>
      <trkpt lat="46.67814" lon="5.78012">
        <ele>509.64</ele>
        <time>2013-07-22T11:15:21Z</time>
      </trkpt>
      <trkpt lat="46.67769" lon="5.78006">
        <ele>510.6</ele>
        <time>2013-07-22T11:15:34Z</time>
      </trkpt>
      <trkpt lat="46.67762" lon="5.78003">
        <ele>509.64</ele>
        <time>2013-07-22T11:15:37Z</time>
      </trkpt>
      <trkpt lat="46.67748" lon="5.77991">
        <ele>510.6</ele>
        <time>2013-07-22T11:15:44Z</time>
      </trkpt>
      <trkpt lat="46.67735" lon="5.77991">
        <ele>509.16</ele>
        <time>2013-07-22T11:15:51Z</time>
      </trkpt>
      <trkpt lat="46.67728" lon="5.77969">
        <ele>510.12</ele>
        <time>2013-07-22T11:15:56Z</time>
      </trkpt>
      <trkpt lat="46.67702" lon="5.7788">
        <ele>508.19</ele>
        <time>2013-07-22T11:16:09Z</time>
      </trkpt>
      <trkpt lat="46.6768" lon="5.77803">
        <ele>507.23</ele>
        <time>2013-07-22T11:16:20Z</time>
      </trkpt>
      <trkpt lat="46.67669" lon="5.77778">
        <ele>507.23</ele>
        <time>2013-07-22T11:16:24Z</time>
      </trkpt>
      <trkpt lat="46.67655" lon="5.77754">
        <ele>507.23</ele>
        <time>2013-07-22T11:16:28Z</time>
      </trkpt>
      <trkpt lat="46.67635" lon="5.77697">
        <ele>506.75</ele>
        <time>2013-07-22T11:16:36Z</time>
      </trkpt>
      <trkpt lat="46.67634" lon="5.7767">
        <ele>506.75</ele>
        <time>2013-07-22T11:16:40Z</time>
      </trkpt>
      <trkpt lat="46.6766" lon="5.77585">
        <ele>508.67</ele>
        <time>2013-07-22T11:16:57Z</time>
      </trkpt>
      <trkpt lat="46.67658" lon="5.7752">
        <ele>510.6</ele>
        <time>2013-07-22T11:17:10Z</time>
      </trkpt>
      <trkpt lat="46.67624" lon="5.77416">
        <ele>511.08</ele>
        <time>2013-07-22T11:17:29Z</time>
      </trkpt>
      <trkpt lat="46.67559" lon="5.77328">
        <ele>510.6</ele>
        <time>2013-07-22T11:17:47Z</time>
      </trkpt>
      <trkpt lat="46.67497" lon="5.77247">
        <ele>510.12</ele>
        <time>2013-07-22T11:18:05Z</time>
      </trkpt>
      <trkpt lat="46.67491" lon="5.77238">
        <ele>510.12</ele>
        <time>2013-07-22T11:18:07Z</time>
      </trkpt>
      <trkpt lat="46.67417" lon="5.77142">
        <ele>510.6</ele>
        <time>2013-07-22T11:18:29Z</time>
      </trkpt>
      <trkpt lat="46.67356" lon="5.77062">
        <ele>511.08</ele>
        <time>2013-07-22T11:18:48Z</time>
      </trkpt>
      <trkpt lat="46.67299" lon="5.76987">
        <ele>511.08</ele>
        <time>2013-07-22T11:19:06Z</time>
      </trkpt>
      <trkpt lat="46.67223" lon="5.76933">
        <ele>511.56</ele>
        <time>2013-07-22T11:19:25Z</time>
      </trkpt>
      <trkpt lat="46.67151" lon="5.76906">
        <ele>512.04</ele>
        <time>2013-07-22T11:19:42Z</time>
      </trkpt>
      <trkpt lat="46.67058" lon="5.7687">
        <ele>513.48</ele>
        <time>2013-07-22T11:20:05Z</time>
      </trkpt>
      <trkpt lat="46.66993" lon="5.76847">
        <ele>514.44</ele>
        <time>2013-07-22T11:20:23Z</time>
      </trkpt>
      <trkpt lat="46.66928" lon="5.76825">
        <ele>514.92</ele>
        <time>2013-07-22T11:20:41Z</time>
      </trkpt>
      <trkpt lat="46.66853" lon="5.76801">
        <ele>515.4</ele>
        <time>2013-07-22T11:21:02Z</time>
      </trkpt>
      <trkpt lat="46.66841" lon="5.76792">
        <ele>515.88</ele>
        <time>2013-07-22T11:21:06Z</time>
      </trkpt>
      <trkpt lat="46.66829" lon="5.76817">
        <ele>515.88</ele>
        <time>2013-07-22T11:21:14Z</time>
      </trkpt>
      <trkpt lat="46.66829" lon="5.76843">
        <ele>514.44</ele>
        <time>2013-07-22T11:21:20Z</time>
      </trkpt>
      <trkpt lat="46.66834" lon="5.76847">
        <ele>513.96</ele>
        <time>2013-07-22T11:21:29Z</time>
      </trkpt>
      <trkpt lat="46.66831" lon="5.76844">
        <ele>514.44</ele>
        <time>2013-07-22T11:22:06Z</time>
      </trkpt>
      <trkpt lat="46.6683" lon="5.76844">
        <ele>513.48</ele>
        <time>2013-07-22T11:22:28Z</time>
      </trkpt>
      <trkpt lat="46.66829" lon="5.76848">
        <ele>513.96</ele>
        <time>2013-07-22T11:22:32Z</time>
      </trkpt>
      <trkpt lat="46.66831" lon="5.76906">
        <ele>513.48</ele>
        <time>2013-07-22T11:22:43Z</time>
      </trkpt>
      <trkpt lat="46.66835" lon="5.76999">
        <ele>512.04</ele>
        <time>2013-07-22T11:22:54Z</time>
      </trkpt>
      <trkpt lat="46.6681" lon="5.77022">
        <ele>511.08</ele>
        <time>2013-07-22T11:23:00Z</time>
      </trkpt>
      <trkpt lat="46.66733" lon="5.7701">
        <ele>513</ele>
        <time>2013-07-22T11:23:17Z</time>
      </trkpt>
      <trkpt lat="46.66706" lon="5.77028">
        <ele>513.48</ele>
        <time>2013-07-22T11:23:27Z</time>
      </trkpt>
      <trkpt lat="46.66708" lon="5.7703">
        <ele>513.48</ele>
        <time>2013-07-22T11:23:42Z</time>
      </trkpt>
      <trkpt lat="46.66701" lon="5.77046">
        <ele>513.48</ele>
        <time>2013-07-22T11:23:47Z</time>
      </trkpt>
      <trkpt lat="46.66686" lon="5.77141">
        <ele>512.04</ele>
        <time>2013-07-22T11:24:00Z</time>
      </trkpt>
      <trkpt lat="46.6666" lon="5.77321">
        <ele>509.64</ele>
        <time>2013-07-22T11:24:19Z</time>
      </trkpt>
      <trkpt lat="46.66641" lon="5.77469">
        <ele>508.67</ele>
        <time>2013-07-22T11:24:36Z</time>
      </trkpt>
      <trkpt lat="46.66624" lon="5.7759">
        <ele>508.67</ele>
        <time>2013-07-22T11:24:51Z</time>
      </trkpt>
      <trkpt lat="46.66625" lon="5.77701">
        <ele>508.19</ele>
        <time>2013-07-22T11:25:07Z</time>
      </trkpt>
      <trkpt lat="46.66632" lon="5.77818">
        <ele>507.71</ele>
        <time>2013-07-22T11:25:23Z</time>
      </trkpt>
      <trkpt lat="46.66632" lon="5.77832">
        <ele>508.19</ele>
        <time>2013-07-22T11:25:25Z</time>
      </trkpt>
      <trkpt lat="46.66632" lon="5.77899">
        <ele>507.23</ele>
        <time>2013-07-22T11:25:39Z</time>
      </trkpt>
      <trkpt lat="46.66638" lon="5.77936">
        <ele>506.75</ele>
        <time>2013-07-22T11:25:49Z</time>
      </trkpt>
      <trkpt lat="46.66642" lon="5.78017">
        <ele>506.75</ele>
        <time>2013-07-22T11:26:08Z</time>
      </trkpt>
      <trkpt lat="46.6664" lon="5.78077">
        <ele>506.75</ele>
        <time>2013-07-22T11:26:21Z</time>
      </trkpt>
      <trkpt lat="46.66645" lon="5.78131">
        <ele>508.19</ele>
        <time>2013-07-22T11:26:33Z</time>
      </trkpt>
      <trkpt lat="46.66639" lon="5.78184">
        <ele>510.12</ele>
        <time>2013-07-22T11:26:47Z</time>
      </trkpt>
      <trkpt lat="46.66616" lon="5.78187">
        <ele>512.52</ele>
        <time>2013-07-22T11:26:59Z</time>
      </trkpt>
      <trkpt lat="46.66595" lon="5.78186">
        <ele>515.4</ele>
        <time>2013-07-22T11:27:10Z</time>
      </trkpt>
      <trkpt lat="46.66563" lon="5.78186">
        <ele>517.81</ele>
        <time>2013-07-22T11:27:23Z</time>
      </trkpt>
      <trkpt lat="46.66534" lon="5.78186">
        <ele>518.29</ele>
        <time>2013-07-22T11:27:37Z</time>
      </trkpt>
      <trkpt lat="46.66516" lon="5.78201">
        <ele>519.25</ele>
        <time>2013-07-22T11:27:49Z</time>
      </trkpt>
      <trkpt lat="46.66503" lon="5.78214">
        <ele>521.65</ele>
        <time>2013-07-22T11:28:00Z</time>
      </trkpt>
      <trkpt lat="46.66486" lon="5.78232">
        <ele>524.06</ele>
        <time>2013-07-22T11:28:14Z</time>
      </trkpt>
      <trkpt lat="46.66463" lon="5.7825">
        <ele>526.46</ele>
        <time>2013-07-22T11:28:28Z</time>
      </trkpt>
      <trkpt lat="46.6644" lon="5.78249">
        <ele>529.34</ele>
        <time>2013-07-22T11:28:44Z</time>
      </trkpt>
      <trkpt lat="46.66435" lon="5.78248">
        <ele>529.82</ele>
        <time>2013-07-22T11:28:47Z</time>
      </trkpt>
      <trkpt lat="46.66433" lon="5.78244">
        <ele>530.79</ele>
        <time>2013-07-22T11:28:49Z</time>
      </trkpt>
      <trkpt lat="46.66436" lon="5.78239">
        <ele>531.27</ele>
        <time>2013-07-22T11:28:52Z</time>
      </trkpt>
      <trkpt lat="46.66448" lon="5.78208">
        <ele>532.71</ele>
        <time>2013-07-22T11:29:09Z</time>
      </trkpt>
      <trkpt lat="46.66442" lon="5.7817">
        <ele>533.67</ele>
        <time>2013-07-22T11:29:26Z</time>
      </trkpt>
      <trkpt lat="46.66439" lon="5.78136">
        <ele>534.63</ele>
        <time>2013-07-22T11:29:40Z</time>
      </trkpt>
      <trkpt lat="46.66442" lon="5.78092">
        <ele>536.07</ele>
        <time>2013-07-22T11:29:56Z</time>
      </trkpt>
      <trkpt lat="46.66437" lon="5.78048">
        <ele>538.96</ele>
        <time>2013-07-22T11:30:12Z</time>
      </trkpt>
      <trkpt lat="46.66422" lon="5.78023">
        <ele>541.84</ele>
        <time>2013-07-22T11:30:26Z</time>
      </trkpt>
      <trkpt lat="46.6641" lon="5.78014">
        <ele>541.36</ele>
        <time>2013-07-22T11:30:42Z</time>
      </trkpt>
      <trkpt lat="46.66408" lon="5.78016">
        <ele>541.84</ele>
        <time>2013-07-22T11:31:10Z</time>
      </trkpt>
      <trkpt lat="46.66411" lon="5.78017">
        <ele>540.88</ele>
        <time>2013-07-22T11:31:36Z</time>
      </trkpt>
      <trkpt lat="46.66405" lon="5.78014">
        <ele>540.88</ele>
        <time>2013-07-22T11:31:48Z</time>
      </trkpt>
      <trkpt lat="46.66405" lon="5.78018">
        <ele>540.88</ele>
        <time>2013-07-22T11:31:52Z</time>
      </trkpt>
      <trkpt lat="46.66405" lon="5.78008">
        <ele>540.88</ele>
        <time>2013-07-22T11:31:56Z</time>
      </trkpt>
      <trkpt lat="46.66403" lon="5.77933">
        <ele>540.4</ele>
        <time>2013-07-22T11:32:10Z</time>
      </trkpt>
      <trkpt lat="46.66411" lon="5.77871">
        <ele>540.4</ele>
        <time>2013-07-22T11:32:22Z</time>
      </trkpt>
      <trkpt lat="46.66414" lon="5.77807">
        <ele>541.84</ele>
        <time>2013-07-22T11:32:37Z</time>
      </trkpt>
      <trkpt lat="46.66422" lon="5.77718">
        <ele>541.84</ele>
        <time>2013-07-22T11:32:54Z</time>
      </trkpt>
      <trkpt lat="46.66431" lon="5.77657">
        <ele>539.44</ele>
        <time>2013-07-22T11:33:01Z</time>
      </trkpt>
      <trkpt lat="46.6645" lon="5.77517">
        <ele>536.55</ele>
        <time>2013-07-22T11:33:15Z</time>
      </trkpt>
      <trkpt lat="46.66465" lon="5.77445">
        <ele>537.03</ele>
        <time>2013-07-22T11:33:24Z</time>
      </trkpt>
      <trkpt lat="46.66475" lon="5.77337">
        <ele>537.03</ele>
        <time>2013-07-22T11:33:40Z</time>
      </trkpt>
      <trkpt lat="46.66461" lon="5.77248">
        <ele>537.03</ele>
        <time>2013-07-22T11:33:56Z</time>
      </trkpt>
      <trkpt lat="46.66434" lon="5.77251">
        <ele>537.51</ele>
        <time>2013-07-22T11:34:04Z</time>
      </trkpt>
      <trkpt lat="46.66374" lon="5.77307">
        <ele>537.99</ele>
        <time>2013-07-22T11:34:21Z</time>
      </trkpt>
      <trkpt lat="46.66286" lon="5.77386">
        <ele>537.51</ele>
        <time>2013-07-22T11:34:43Z</time>
      </trkpt>
      <trkpt lat="46.6621" lon="5.77455">
        <ele>537.99</ele>
        <time>2013-07-22T11:35:03Z</time>
      </trkpt>
      <trkpt lat="46.66139" lon="5.77522">
        <ele>538.48</ele>
        <time>2013-07-22T11:35:22Z</time>
      </trkpt>
      <trkpt lat="46.66097" lon="5.77558">
        <ele>538.48</ele>
        <time>2013-07-22T11:35:33Z</time>
      </trkpt>
      <trkpt lat="46.66021" lon="5.77612">
        <ele>537.99</ele>
        <time>2013-07-22T11:35:52Z</time>
      </trkpt>
      <trkpt lat="46.65936" lon="5.77664">
        <ele>537.51</ele>
        <time>2013-07-22T11:36:10Z</time>
      </trkpt>
      <trkpt lat="46.65932" lon="5.77667">
        <ele>537.51</ele>
        <time>2013-07-22T11:36:11Z</time>
      </trkpt>
      <trkpt lat="46.65849" lon="5.77716">
        <ele>536.55</ele>
        <time>2013-07-22T11:36:28Z</time>
      </trkpt>
      <trkpt lat="46.65828" lon="5.77714">
        <ele>536.55</ele>
        <time>2013-07-22T11:36:32Z</time>
      </trkpt>
      <trkpt lat="46.65813" lon="5.77713">
        <ele>536.55</ele>
        <time>2013-07-22T11:36:35Z</time>
      </trkpt>
      <trkpt lat="46.65756" lon="5.77752">
        <ele>537.03</ele>
        <time>2013-07-22T11:36:50Z</time>
      </trkpt>
      <trkpt lat="46.65717" lon="5.77796">
        <ele>537.99</ele>
        <time>2013-07-22T11:37:03Z</time>
      </trkpt>
      <trkpt lat="46.65661" lon="5.7783">
        <ele>538.48</ele>
        <time>2013-07-22T11:37:19Z</time>
      </trkpt>
      <trkpt lat="46.65608" lon="5.77847">
        <ele>536.07</ele>
        <time>2013-07-22T11:37:29Z</time>
      </trkpt>
      <trkpt lat="46.65582" lon="5.77845">
        <ele>533.67</ele>
        <time>2013-07-22T11:37:35Z</time>
      </trkpt>
      <trkpt lat="46.65582" lon="5.77844">
        <ele>533.67</ele>
        <time>2013-07-22T11:37:43Z</time>
      </trkpt>
      <trkpt lat="46.65586" lon="5.77845">
        <ele>533.67</ele>
        <time>2013-07-22T11:38:17Z</time>
      </trkpt>
      <trkpt lat="46.6559" lon="5.77845">
        <ele>533.67</ele>
        <time>2013-07-22T11:38:52Z</time>
      </trkpt>
      <trkpt lat="46.6559" lon="5.77845">
        <ele>533.67</ele>
        <time>2013-07-22T11:39:31Z</time>
      </trkpt>
      <trkpt lat="46.65586" lon="5.77845">
        <ele>533.19</ele>
        <time>2013-07-22T11:39:59Z</time>
      </trkpt>
      <trkpt lat="46.65586" lon="5.77847">
        <ele>532.71</ele>
        <time>2013-07-22T11:40:04Z</time>
      </trkpt>
      <trkpt lat="46.6559" lon="5.77849">
        <ele>532.71</ele>
        <time>2013-07-22T11:40:12Z</time>
      </trkpt>
      <trkpt lat="46.65606" lon="5.77848">
        <ele>535.11</ele>
        <time>2013-07-22T11:40:20Z</time>
      </trkpt>
      <trkpt lat="46.65639" lon="5.77837">
        <ele>536.55</ele>
        <time>2013-07-22T11:40:33Z</time>
      </trkpt>
      <trkpt lat="46.65676" lon="5.77831">
        <ele>538.48</ele>
        <time>2013-07-22T11:40:45Z</time>
      </trkpt>
      <trkpt lat="46.65736" lon="5.77788">
        <ele>537.51</ele>
        <time>2013-07-22T11:41:01Z</time>
      </trkpt>
      <trkpt lat="46.65739" lon="5.77785">
        <ele>537.51</ele>
        <time>2013-07-22T11:41:02Z</time>
      </trkpt>
      <trkpt lat="46.65752" lon="5.7777">
        <ele>537.51</ele>
        <time>2013-07-22T11:41:06Z</time>
      </trkpt>
      <trkpt lat="46.65761" lon="5.7774">
        <ele>536.55</ele>
        <time>2013-07-22T11:41:14Z</time>
      </trkpt>
      <trkpt lat="46.6576" lon="5.77743">
        <ele>536.55</ele>
        <time>2013-07-22T11:41:28Z</time>
      </trkpt>
      <trkpt lat="46.65764" lon="5.77749">
        <ele>537.03</ele>
        <time>2013-07-22T11:42:06Z</time>
      </trkpt>
      <trkpt lat="46.65769" lon="5.7775">
        <ele>537.03</ele>
        <time>2013-07-22T11:42:40Z</time>
      </trkpt>
      <trkpt lat="46.65773" lon="5.77748">
        <ele>537.03</ele>
        <time>2013-07-22T11:43:20Z</time>
      </trkpt>
      <trkpt lat="46.65767" lon="5.77748">
        <ele>537.03</ele>
        <time>2013-07-22T11:43:43Z</time>
      </trkpt>
      <trkpt lat="46.6577" lon="5.77753">
        <ele>537.51</ele>
        <time>2013-07-22T11:44:12Z</time>
      </trkpt>
      <trkpt lat="46.65767" lon="5.77755">
        <ele>537.51</ele>
        <time>2013-07-22T11:44:28Z</time>
      </trkpt>
      <trkpt lat="46.65759" lon="5.7776">
        <ele>537.51</ele>
        <time>2013-07-22T11:44:31Z</time>
      </trkpt>
      <trkpt lat="46.65725" lon="5.77791">
        <ele>538.96</ele>
        <time>2013-07-22T11:44:44Z</time>
      </trkpt>
      <trkpt lat="46.65679" lon="5.77823">
        <ele>539.44</ele>
        <time>2013-07-22T11:44:58Z</time>
      </trkpt>
      <trkpt lat="46.65668" lon="5.77828">
        <ele>539.44</ele>
        <time>2013-07-22T11:45:01Z</time>
      </trkpt>
      <trkpt lat="46.65601" lon="5.77852">
        <ele>537.03</ele>
        <time>2013-07-22T11:45:14Z</time>
      </trkpt>
      <trkpt lat="46.65549" lon="5.77869">
        <ele>534.63</ele>
        <time>2013-07-22T11:45:21Z</time>
      </trkpt>
      <trkpt lat="46.65532" lon="5.77873">
        <ele>533.67</ele>
        <time>2013-07-22T11:45:23Z</time>
      </trkpt>
      <trkpt lat="46.65484" lon="5.77846">
        <ele>530.79</ele>
        <time>2013-07-22T11:45:29Z</time>
      </trkpt>
      <trkpt lat="46.65396" lon="5.77742">
        <ele>529.82</ele>
        <time>2013-07-22T11:45:44Z</time>
      </trkpt>
      <trkpt lat="46.65337" lon="5.77672">
        <ele>530.3</ele>
        <time>2013-07-22T11:45:58Z</time>
      </trkpt>
      <trkpt lat="46.6528" lon="5.77608">
        <ele>528.86</ele>
        <time>2013-07-22T11:46:10Z</time>
      </trkpt>
      <trkpt lat="46.65179" lon="5.77508">
        <ele>528.38</ele>
        <time>2013-07-22T11:46:30Z</time>
      </trkpt>
      <trkpt lat="46.6508" lon="5.77476">
        <ele>527.42</ele>
        <time>2013-07-22T11:46:47Z</time>
      </trkpt>
      <trkpt lat="46.65001" lon="5.77483">
        <ele>524.06</ele>
        <time>2013-07-22T11:46:58Z</time>
      </trkpt>
      <trkpt lat="46.64993" lon="5.77485">
        <ele>524.06</ele>
        <time>2013-07-22T11:46:59Z</time>
      </trkpt>
      <trkpt lat="46.649" lon="5.77509">
        <ele>520.69</ele>
        <time>2013-07-22T11:47:10Z</time>
      </trkpt>
      <trkpt lat="46.64821" lon="5.77529">
        <ele>517.33</ele>
        <time>2013-07-22T11:47:19Z</time>
      </trkpt>
      <trkpt lat="46.64797" lon="5.77534">
        <ele>517.81</ele>
        <time>2013-07-22T11:47:22Z</time>
      </trkpt>
      <trkpt lat="46.64758" lon="5.77496">
        <ele>518.29</ele>
        <time>2013-07-22T11:47:29Z</time>
      </trkpt>
      <trkpt lat="46.64757" lon="5.77473">
        <ele>518.77</ele>
        <time>2013-07-22T11:47:32Z</time>
      </trkpt>
      <trkpt lat="46.64777" lon="5.77413">
        <ele>521.17</ele>
        <time>2013-07-22T11:47:45Z</time>
      </trkpt>
      <trkpt lat="46.64802" lon="5.77346">
        <ele>524.06</ele>
        <time>2013-07-22T11:48:01Z</time>
      </trkpt>
      <trkpt lat="46.64827" lon="5.7728">
        <ele>525.5</ele>
        <time>2013-07-22T11:48:17Z</time>
      </trkpt>
      <trkpt lat="46.64844" lon="5.77235">
        <ele>527.42</ele>
        <time>2013-07-22T11:48:31Z</time>
      </trkpt>
      <trkpt lat="46.64859" lon="5.77185">
        <ele>529.34</ele>
        <time>2013-07-22T11:48:44Z</time>
      </trkpt>
      <trkpt lat="46.64877" lon="5.77139">
        <ele>531.27</ele>
        <time>2013-07-22T11:48:57Z</time>
      </trkpt>
      <trkpt lat="46.64893" lon="5.77086">
        <ele>533.19</ele>
        <time>2013-07-22T11:49:11Z</time>
      </trkpt>
      <trkpt lat="46.64884" lon="5.77036">
        <ele>535.11</ele>
        <time>2013-07-22T11:49:25Z</time>
      </trkpt>
      <trkpt lat="46.64852" lon="5.76995">
        <ele>536.55</ele>
        <time>2013-07-22T11:49:41Z</time>
      </trkpt>
      <trkpt lat="46.64831" lon="5.76967">
        <ele>538.48</ele>
        <time>2013-07-22T11:49:52Z</time>
      </trkpt>
      <trkpt lat="46.64812" lon="5.76926">
        <ele>539.92</ele>
        <time>2013-07-22T11:50:05Z</time>
      </trkpt>
      <trkpt lat="46.64799" lon="5.76878">
        <ele>541.84</ele>
        <time>2013-07-22T11:50:17Z</time>
      </trkpt>
      <trkpt lat="46.64795" lon="5.76807">
        <ele>542.8</ele>
        <time>2013-07-22T11:50:34Z</time>
      </trkpt>
      <trkpt lat="46.64778" lon="5.76733">
        <ele>543.76</ele>
        <time>2013-07-22T11:50:50Z</time>
      </trkpt>
      <trkpt lat="46.64741" lon="5.76617">
        <ele>542.8</ele>
        <time>2013-07-22T11:51:09Z</time>
      </trkpt>
      <trkpt lat="46.64724" lon="5.76471">
        <ele>541.36</ele>
        <time>2013-07-22T11:51:28Z</time>
      </trkpt>
      <trkpt lat="46.64745" lon="5.76324">
        <ele>538.48</ele>
        <time>2013-07-22T11:51:44Z</time>
      </trkpt>
      <trkpt lat="46.64774" lon="5.76182">
        <ele>536.07</ele>
        <time>2013-07-22T11:52:01Z</time>
      </trkpt>
      <trkpt lat="46.64781" lon="5.76134">
        <ele>536.07</ele>
        <time>2013-07-22T11:52:07Z</time>
      </trkpt>
      <trkpt lat="46.6478" lon="5.76092">
        <ele>535.59</ele>
        <time>2013-07-22T11:52:12Z</time>
      </trkpt>
      <trkpt lat="46.64739" lon="5.75976">
        <ele>535.11</ele>
        <time>2013-07-22T11:52:27Z</time>
      </trkpt>
      <trkpt lat="46.64685" lon="5.75885">
        <ele>534.63</ele>
        <time>2013-07-22T11:52:43Z</time>
      </trkpt>
      <trkpt lat="46.64629" lon="5.75797">
        <ele>533.67</ele>
        <time>2013-07-22T11:52:58Z</time>
      </trkpt>
      <trkpt lat="46.64594" lon="5.75738">
        <ele>532.23</ele>
        <time>2013-07-22T11:53:07Z</time>
      </trkpt>
      <trkpt lat="46.64574" lon="5.75677">
        <ele>531.75</ele>
        <time>2013-07-22T11:53:15Z</time>
      </trkpt>
      <trkpt lat="46.64534" lon="5.75643">
        <ele>531.75</ele>
        <time>2013-07-22T11:53:23Z</time>
      </trkpt>
      <trkpt lat="46.64449" lon="5.7561">
        <ele>529.34</ele>
        <time>2013-07-22T11:53:37Z</time>
      </trkpt>
      <trkpt lat="46.64399" lon="5.75557">
        <ele>528.86</ele>
        <time>2013-07-22T11:53:47Z</time>
      </trkpt>
      <trkpt lat="46.64294" lon="5.75455">
        <ele>526.46</ele>
        <time>2013-07-22T11:54:08Z</time>
      </trkpt>
      <trkpt lat="46.64219" lon="5.75406">
        <ele>525.98</ele>
        <time>2013-07-22T11:54:21Z</time>
      </trkpt>
      <trkpt lat="46.64196" lon="5.75391">
        <ele>525.02</ele>
        <time>2013-07-22T11:54:25Z</time>
      </trkpt>
      <trkpt lat="46.64134" lon="5.75349">
        <ele>523.58</ele>
        <time>2013-07-22T11:54:36Z</time>
      </trkpt>
      <trkpt lat="46.64117" lon="5.75334">
        <ele>524.06</ele>
        <time>2013-07-22T11:54:39Z</time>
      </trkpt>
      <trkpt lat="46.6402" lon="5.75245">
        <ele>522.13</ele>
        <time>2013-07-22T11:54:57Z</time>
      </trkpt>
      <trkpt lat="46.63936" lon="5.75208">
        <ele>520.69</ele>
        <time>2013-07-22T11:55:11Z</time>
      </trkpt>
      <trkpt lat="46.63836" lon="5.75172">
        <ele>520.21</ele>
        <time>2013-07-22T11:55:27Z</time>
      </trkpt>
      <trkpt lat="46.63746" lon="5.75179">
        <ele>518.77</ele>
        <time>2013-07-22T11:55:41Z</time>
      </trkpt>
      <trkpt lat="46.63722" lon="5.75191">
        <ele>518.29</ele>
        <time>2013-07-22T11:55:45Z</time>
      </trkpt>
      <trkpt lat="46.63634" lon="5.75268">
        <ele>516.85</ele>
        <time>2013-07-22T11:56:01Z</time>
      </trkpt>
      <trkpt lat="46.63617" lon="5.75283">
        <ele>516.37</ele>
        <time>2013-07-22T11:56:04Z</time>
      </trkpt>
      <trkpt lat="46.6356" lon="5.7529">
        <ele>515.4</ele>
        <time>2013-07-22T11:56:13Z</time>
      </trkpt>
      <trkpt lat="46.63545" lon="5.75275">
        <ele>515.4</ele>
        <time>2013-07-22T11:56:16Z</time>
      </trkpt>
      <trkpt lat="46.63471" lon="5.75186">
        <ele>514.44</ele>
        <time>2013-07-22T11:56:31Z</time>
      </trkpt>
      <trkpt lat="46.6346" lon="5.75153">
        <ele>514.44</ele>
        <time>2013-07-22T11:56:35Z</time>
      </trkpt>
      <trkpt lat="46.63457" lon="5.75128">
        <ele>514.44</ele>
        <time>2013-07-22T11:56:38Z</time>
      </trkpt>
      <trkpt lat="46.63454" lon="5.75112">
        <ele>513.96</ele>
        <time>2013-07-22T11:56:40Z</time>
      </trkpt>
      <trkpt lat="46.6344" lon="5.74988">
        <ele>514.92</ele>
        <time>2013-07-22T11:56:56Z</time>
      </trkpt>
      <trkpt lat="46.63431" lon="5.7492">
        <ele>515.4</ele>
        <time>2013-07-22T11:57:05Z</time>
      </trkpt>
      <trkpt lat="46.63423" lon="5.74891">
        <ele>515.4</ele>
        <time>2013-07-22T11:57:09Z</time>
      </trkpt>
      <trkpt lat="46.63394" lon="5.7485">
        <ele>516.37</ele>
        <time>2013-07-22T11:57:17Z</time>
      </trkpt>
      <trkpt lat="46.63348" lon="5.74836">
        <ele>517.81</ele>
        <time>2013-07-22T11:57:28Z</time>
      </trkpt>
      <trkpt lat="46.63335" lon="5.74837">
        <ele>517.81</ele>
        <time>2013-07-22T11:57:31Z</time>
      </trkpt>
      <trkpt lat="46.63284" lon="5.74842">
        <ele>519.73</ele>
        <time>2013-07-22T11:57:43Z</time>
      </trkpt>
      <trkpt lat="46.63214" lon="5.7486">
        <ele>521.65</ele>
        <time>2013-07-22T11:58:01Z</time>
      </trkpt>
      <trkpt lat="46.63157" lon="5.74876">
        <ele>523.09</ele>
        <time>2013-07-22T11:58:17Z</time>
      </trkpt>
      <trkpt lat="46.63085" lon="5.74899">
        <ele>524.54</ele>
        <time>2013-07-22T11:58:37Z</time>
      </trkpt>
      <trkpt lat="46.63031" lon="5.74928">
        <ele>526.46</ele>
        <time>2013-07-22T11:58:53Z</time>
      </trkpt>
      <trkpt lat="46.62967" lon="5.74956">
        <ele>528.38</ele>
        <time>2013-07-22T11:59:11Z</time>
      </trkpt>
      <trkpt lat="46.62924" lon="5.74964">
        <ele>529.82</ele>
        <time>2013-07-22T11:59:26Z</time>
      </trkpt>
      <trkpt lat="46.62873" lon="5.7498">
        <ele>530.79</ele>
        <time>2013-07-22T11:59:43Z</time>
      </trkpt>
      <trkpt lat="46.62817" lon="5.75004">
        <ele>531.27</ele>
        <time>2013-07-22T12:00:00Z</time>
      </trkpt>
      <trkpt lat="46.6276" lon="5.75047">
        <ele>532.23</ele>
        <time>2013-07-22T12:00:18Z</time>
      </trkpt>
      <trkpt lat="46.62723" lon="5.75081">
        <ele>532.23</ele>
        <time>2013-07-22T12:00:30Z</time>
      </trkpt>
      <trkpt lat="46.62708" lon="5.75073">
        <ele>533.19</ele>
        <time>2013-07-22T12:00:35Z</time>
      </trkpt>
      <trkpt lat="46.62694" lon="5.75065">
        <ele>532.23</ele>
        <time>2013-07-22T12:00:39Z</time>
      </trkpt>
      <trkpt lat="46.62686" lon="5.75062">
        <ele>532.23</ele>
        <time>2013-07-22T12:00:41Z</time>
      </trkpt>
      <trkpt lat="46.62674" lon="5.75031">
        <ele>530.79</ele>
        <time>2013-07-22T12:00:46Z</time>
      </trkpt>
      <trkpt lat="46.62681" lon="5.75006">
        <ele>529.82</ele>
        <time>2013-07-22T12:00:49Z</time>
      </trkpt>
      <trkpt lat="46.62707" lon="5.7493">
        <ele>526.46</ele>
        <time>2013-07-22T12:00:57Z</time>
      </trkpt>
      <trkpt lat="46.62712" lon="5.74919">
        <ele>525.98</ele>
        <time>2013-07-22T12:00:58Z</time>
      </trkpt>
      <trkpt lat="46.62715" lon="5.74854">
        <ele>521.17</ele>
        <time>2013-07-22T12:01:03Z</time>
      </trkpt>
      <trkpt lat="46.62705" lon="5.74847">
        <ele>519.73</ele>
        <time>2013-07-22T12:01:06Z</time>
      </trkpt>
      <trkpt lat="46.62696" lon="5.74849">
        <ele>519.73</ele>
        <time>2013-07-22T12:01:08Z</time>
      </trkpt>
      <trkpt lat="46.62634" lon="5.74862">
        <ele>523.09</ele>
        <time>2013-07-22T12:01:25Z</time>
      </trkpt>
      <trkpt lat="46.62585" lon="5.74872">
        <ele>525.98</ele>
        <time>2013-07-22T12:01:42Z</time>
      </trkpt>
      <trkpt lat="46.62547" lon="5.74882">
        <ele>529.34</ele>
        <time>2013-07-22T12:01:56Z</time>
      </trkpt>
      <trkpt lat="46.62493" lon="5.7488">
        <ele>530.3</ele>
        <time>2013-07-22T12:02:15Z</time>
      </trkpt>
      <trkpt lat="46.6244" lon="5.74846">
        <ele>530.79</ele>
        <time>2013-07-22T12:02:32Z</time>
      </trkpt>
      <trkpt lat="46.62383" lon="5.74814">
        <ele>531.27</ele>
        <time>2013-07-22T12:02:48Z</time>
      </trkpt>
      <trkpt lat="46.62322" lon="5.7482">
        <ele>531.75</ele>
        <time>2013-07-22T12:03:04Z</time>
      </trkpt>
      <trkpt lat="46.62272" lon="5.74789">
        <ele>532.23</ele>
        <time>2013-07-22T12:03:19Z</time>
      </trkpt>
      <trkpt lat="46.62277" lon="5.74717">
        <ele>530.79</ele>
        <time>2013-07-22T12:03:31Z</time>
      </trkpt>
      <trkpt lat="46.62274" lon="5.74678">
        <ele>530.79</ele>
        <time>2013-07-22T12:03:38Z</time>
      </trkpt>
      <trkpt lat="46.62254" lon="5.74665">
        <ele>530.3</ele>
        <time>2013-07-22T12:03:48Z</time>
      </trkpt>
      <trkpt lat="46.62255" lon="5.74667">
        <ele>530.3</ele>
        <time>2013-07-22T12:04:00Z</time>
      </trkpt>
      <trkpt lat="46.62254" lon="5.74665">
        <ele>529.34</ele>
        <time>2013-07-22T12:04:09Z</time>
      </trkpt>
      <trkpt lat="46.62257" lon="5.74662">
        <ele>529.82</ele>
        <time>2013-07-22T12:04:31Z</time>
      </trkpt>
      <trkpt lat="46.62256" lon="5.74664">
        <ele>529.82</ele>
        <time>2013-07-22T12:04:58Z</time>
      </trkpt>
      <trkpt lat="46.62259" lon="5.74661">
        <ele>530.3</ele>
        <time>2013-07-22T12:05:33Z</time>
      </trkpt>
      <trkpt lat="46.62256" lon="5.7466">
        <ele>529.82</ele>
        <time>2013-07-22T12:06:20Z</time>
      </trkpt>
    </trkseg>
  </trk>
</gpx>